Provisional Data: South Branch Tunkhannock Creek near La Plume, PA


Please select a monitoring station.
Please select start date.
Please select start date.

Toggle Unit: C/F Toggle Unit: C/F
Sample Time Temperature (C) Temperature (F) Specific Conductivity (mS/cm) pH   Turbidity (NTU+) DO (mg/L)
10/17/2022 12:00:00 AM 11.3 52.34 0.297 7.5 1 9.67
10/17/2022 12:15:00 AM 11.23 52.214 0.297 7.51 1.02 9.71
10/17/2022 12:30:00 AM 11.15 52.07 0.297 7.49 0.94 9.69
10/17/2022 12:45:00 AM 11.08 51.944 0.297 7.5 1.03 9.7
10/17/2022 1:00:00 AM 11.03 51.854 0.297 7.5 1.04 9.75
10/17/2022 1:15:00 AM 10.96 51.728 0.297 7.5 1.03 9.77
10/17/2022 1:30:00 AM 10.89 51.602 0.298 7.49 1.04 9.79
10/17/2022 1:45:00 AM 10.82 51.476 0.297 7.48 0.99 9.78
10/17/2022 2:00:00 AM 10.76 51.368 0.297 7.48 0.98 9.82
10/17/2022 2:15:00 AM 10.7 51.26 0.297 7.48 0.94 9.83
10/17/2022 2:30:00 AM 10.64 51.152 0.297 7.48 0.94 9.85
10/17/2022 2:45:00 AM 10.57 51.026 0.297 7.48 1.07 9.89
10/17/2022 3:00:00 AM 10.51 50.918 0.297 7.48 0.98 9.9
10/17/2022 3:15:00 AM 10.44 50.792 0.298 7.46 1.01 9.9
10/17/2022 3:30:00 AM 10.37 50.666 0.297 7.47 0.92 9.92
10/17/2022 3:45:00 AM 10.31 50.558 0.298 7.46 0.98 9.93
10/17/2022 4:00:00 AM 10.25 50.45 0.16 7.46 1.28 9.97
10/17/2022 4:15:00 AM 10.18 50.324 0.298 7.46 0.91 9.96
10/17/2022 4:30:00 AM 10.11 50.198 0.298 7.46 1.27 9.97
10/17/2022 4:45:00 AM 10.06 50.108 0.301 7.45 1.53 10
10/17/2022 5:00:00 AM 10 50 0.299 7.45 0.95 10.01
10/17/2022 5:15:00 AM 9.94 49.892 0.299 7.46 1.03 10.06
10/17/2022 5:30:00 AM 9.88 49.784 0.299 7.45 1.09 10.09
10/17/2022 5:45:00 AM 9.83 49.694 0.298 7.46 0.9 10.08
10/17/2022 6:00:00 AM 9.77 49.586 0.298 7.45 1.04 10.09
10/17/2022 6:15:00 AM 9.74 49.532 0.299 7.45 1.01 10.15
10/17/2022 6:30:00 AM 9.7 49.46 0.298 7.45 0.98 10.14
10/17/2022 6:45:00 AM 9.66 49.388 0.299 7.44 1.01 10.13
10/17/2022 7:00:00 AM 9.64 49.352 0.299 7.46 1 10.17
10/17/2022 7:15:00 AM 9.62 49.316 0.299 7.44 1.09 10.2
10/17/2022 7:30:00 AM 9.59 49.262 0.298 7.45 1.06 10.16
10/17/2022 7:45:00 AM 9.57 49.226 0.298 7.45 1.09 10.26
10/17/2022 8:00:00 AM 9.57 49.226 0.298 7.48 1.05 10.36
10/17/2022 8:15:00 AM 9.58 49.244 0.298 7.48 1.04 10.46
10/17/2022 8:30:00 AM 9.58 49.244 0.298 7.48 1.05 10.5
10/17/2022 8:45:00 AM 9.58 49.244 0.299 7.5 0.98 10.51
10/17/2022 9:00:00 AM 9.6 49.28 0.299 7.51 0.97 10.63
10/17/2022 9:15:00 AM 9.63 49.334 0.299 7.53 1 10.76
10/17/2022 9:30:00 AM 9.66 49.388 0.151 7.55 1.29 10.93
10/17/2022 9:45:00 AM 9.73 49.514 0.299 7.6 1.59 11.16
10/17/2022 10:00:00 AM 9.79 49.622 0.298 7.64 1.04 11.26
10/17/2022 10:15:00 AM 9.85 49.73 0.297 7.67 0.97 11.34
10/17/2022 10:30:00 AM 9.9 49.82 0.297 7.69 1.01 11.39
10/17/2022 10:45:00 AM 9.95 49.91 0.297 7.7 0.96 11.42
10/17/2022 11:00:00 AM 10.01 50.018 0.297 7.73 0.99 11.5
10/17/2022 11:15:00 AM 10.1 50.18 0.297 7.75 1.24 11.57
10/17/2022 11:30:00 AM 10.2 50.36 0.298 7.8 0.97 11.7
10/17/2022 11:45:00 AM 10.3 50.54 0.299 7.84 1.51 11.75
10/17/2022 12:00:00 PM 10.42 50.756 0.297 7.89 0.94 11.87
10/17/2022 12:15:00 PM 10.55 50.99 0.296 7.94 0.94 11.93
10/17/2022 12:30:00 PM 10.66 51.188 0.296 7.99 0.94 12
10/17/2022 12:45:00 PM 10.8 51.44 0.295 8.02 0.95 12.02
10/17/2022 1:00:00 PM 10.98 51.764 0.295 8.09 0.96 12.13
10/17/2022 1:15:00 PM 11.02 51.836 0.294 8.06 0.96 11.91
10/17/2022 1:30:00 PM 11.15 52.07 0.294 8.14 0.93 12.04
10/17/2022 1:45:00 PM 11.25 52.25 0.294 8.13 0.96 11.96
10/17/2022 2:00:00 PM 11.32 52.376 0.294 8.15 0.99 11.91
10/17/2022 2:15:00 PM 11.41 52.538 0.296 8.18 0.98 11.91
10/17/2022 2:30:00 PM 11.44 52.592 0.301 8.16 0.99 11.75
10/17/2022 2:45:00 PM 11.53 52.754 0.3 8.17 0.94 11.72
10/17/2022 3:00:00 PM 11.55 52.79 0.3 8.09 0.91 11.43
10/17/2022 3:15:00 PM 11.56 52.808 0.3 8.02 0.96 11.13
10/17/2022 3:30:00 PM 11.56 52.808 0.299 7.93 1.01 10.84
10/17/2022 3:45:00 PM 11.55 52.79 0.296 7.9 1.12 10.68
10/17/2022 4:00:00 PM 11.56 52.808 0.294 7.86 1.15 10.63
10/17/2022 4:15:00 PM 11.6 52.88 0.294 7.88 1.08 10.7
10/17/2022 4:30:00 PM 11.61 52.898 0.293 7.82 1.09 10.52
10/17/2022 4:45:00 PM 11.65 52.97 0.294 7.84 1.22 10.6
10/17/2022 5:00:00 PM 11.67 53.006 0.293 7.83 1.65 10.53
10/17/2022 5:15:00 PM 11.68 53.024 0.288 7.83 2.57 10.49
10/17/2022 5:30:00 PM 11.68 53.024 0.288 7.82 2.52 10.42
10/17/2022 5:45:00 PM 11.66 52.988 0.289 7.79 2.17 10.28
10/17/2022 6:00:00 PM 11.66 52.988 0.29 7.76 1.47 10.18
10/17/2022 6:15:00 PM 11.65 52.97 0.291 7.73 1.34 10.08
10/17/2022 6:30:00 PM 11.65 52.97 0.292 7.71 1.22 9.95
10/17/2022 6:45:00 PM 11.63 52.934 0.293 7.68 1.11 9.85
10/17/2022 7:00:00 PM 11.64 52.952 0.293 7.67 1.09 9.81
10/17/2022 7:15:00 PM 11.63 52.934 0.292 7.65 1.05 9.74
10/17/2022 7:30:00 PM 11.61 52.898 0.292 7.64 1.07 9.7
10/17/2022 7:45:00 PM 11.59 52.862 0.293 7.62 1.16 9.59
10/17/2022 8:00:00 PM 11.57 52.826 0.293 7.61 1.02 9.63
10/17/2022 8:15:00 PM 11.57 52.826 0.293 7.6 1.02 9.57
10/17/2022 8:30:00 PM 11.58 52.844 0.292 7.6 1.03 9.65
10/17/2022 8:45:00 PM 11.57 52.826 0.292 7.59 1.02 9.59
10/17/2022 9:00:00 PM 11.56 52.808 0.291 7.58 1.01 9.59
10/17/2022 9:15:00 PM 11.54 52.772 0.291 7.58 1.08 9.63
10/17/2022 9:30:00 PM 11.52 52.736 0.291 7.57 1.14 9.59
10/17/2022 9:45:00 PM 11.5 52.7 0.29 7.56 1.19 9.61
10/17/2022 10:00:00 PM 11.47 52.646 0.29 7.56 1.28 9.6
10/17/2022 10:15:00 PM 11.43 52.574 0.29 7.56 1.06 9.6
10/17/2022 10:30:00 PM 11.4 52.52 0.29 7.55 1.12 9.6
10/17/2022 10:45:00 PM 11.35 52.43 0.289 7.55 1.13 9.61
10/17/2022 11:00:00 PM 11.3 52.34 0.289 7.54 1.12 9.6
10/17/2022 11:15:00 PM 11.28 52.304 0.289 7.54 1.22 9.61
10/17/2022 11:30:00 PM 11.23 52.214 0.289 7.54 1.12 9.64
10/17/2022 11:45:00 PM 11.19 52.142 0.289 7.54 1.12 9.65
10/18/2022 12:00:00 AM 11.15 52.07 0.288 7.53 1.11 9.68
10/18/2022 12:15:00 AM 11.09 51.962 0.288 7.53 1.09 9.66
10/18/2022 12:30:00 AM 11.04 51.872 0.288 7.53 1.07 9.68
10/18/2022 12:45:00 AM 10.96 51.728 0.288 7.52 1.1 9.68
10/18/2022 1:00:00 AM 10.89 51.602 0.288 7.53 1.13 9.74
10/18/2022 1:15:00 AM 10.82 51.476 0.288 7.52 1.03 9.74
10/18/2022 1:30:00 AM 10.72 51.296 0.289 7.52 1.11 9.73
10/18/2022 1:45:00 AM 10.67 51.206 0.289 7.52 1.29 9.8
10/18/2022 2:00:00 AM 10.58 51.044 0.289 7.51 1.19 9.78
10/18/2022 2:15:00 AM 10.49 50.882 0.289 7.51 1.14 9.8
10/18/2022 2:30:00 AM 10.42 50.756 0.29 7.51 1.17 9.83
10/18/2022 2:45:00 AM 10.34 50.612 0.29 7.51 1.19 9.86
10/18/2022 3:00:00 AM 10.24 50.432 0.29 7.51 1.1 9.84
10/18/2022 3:15:00 AM 10.17 50.306 0.291 7.5 1.14 9.88
10/18/2022 3:30:00 AM 10.09 50.162 0.291 7.51 1.18 9.96
10/18/2022 3:45:00 AM 9.99 49.982 0.291 7.5 1.19 9.94
10/18/2022 4:00:00 AM 9.9 49.82 0.291 7.5 1.13 10
10/18/2022 4:15:00 AM 9.8 49.64 0.291 7.5 1.04 9.98
10/18/2022 4:30:00 AM 9.72 49.496 0.291 7.49 1.08 10
10/18/2022 4:45:00 AM 9.63 49.334 0.291 7.49 1.09 10.06
10/18/2022 5:00:00 AM 9.55 49.19 0.291 7.49 1.04 10.05
10/18/2022 5:15:00 AM 9.49 49.082 0.291 7.5 1.12 10.12
10/18/2022 5:30:00 AM 9.39 48.902 0.291 7.49 1.13 10.14
10/18/2022 5:45:00 AM 9.31 48.758 0.291 7.49 0.98 10.17
10/18/2022 6:00:00 AM 9.24 48.632 0.291 7.49 1.06 10.21
10/18/2022 6:15:00 AM 9.15 48.47 0.291 7.49 1.05 10.22
10/18/2022 6:30:00 AM 9.07 48.326 0.29 7.48 1.08 10.23
10/18/2022 6:45:00 AM 9 48.2 0.29 7.48 1.05 10.25
10/18/2022 7:00:00 AM 8.92 48.056 0.29 7.48 1 10.26
10/18/2022 7:15:00 AM 8.85 47.93 0.29 7.48 1.13 10.32
10/18/2022 7:30:00 AM 8.78 47.804 0.29 7.48 1.04 10.35
10/18/2022 7:45:00 AM 8.73 47.714 0.29 7.49 1.05 10.43
10/18/2022 8:00:00 AM 8.66 47.588 0.29 7.5 1.06 10.53
10/18/2022 8:15:00 AM 8.61 47.498 0.29 7.5 1.07 10.6
10/18/2022 8:30:00 AM 8.56 47.408 0.29 7.52 1.01 10.71
10/18/2022 8:45:00 AM 8.51 47.318 0.29 7.53 3.09 10.75
10/18/2022 9:00:00 AM 8.49 47.282 0.29 7.54 1.04 10.87
10/18/2022 9:15:00 AM 8.48 47.264 0.29 7.56 0.99 10.96
10/18/2022 9:30:00 AM 8.49 47.282 0.29 7.57 1.03 11.08
10/18/2022 9:45:00 AM 8.51 47.318 0.29 7.6 0.99 11.18
10/18/2022 10:00:00 AM 8.53 47.354 0.289 7.62 0.99 11.27
10/18/2022 10:15:00 AM 8.56 47.408 0.289 7.65 1.05 11.36
10/18/2022 10:30:00 AM 8.6 47.48 0.289 7.67 0.98 11.44
10/18/2022 10:45:00 AM 8.66 47.588 0.289 7.7 0.96 11.52
10/18/2022 11:00:00 AM 8.74 47.732 0.289 7.72 0.96 11.62
10/18/2022 11:15:00 AM 8.8 47.84 0.289 7.75 0.99 11.67
10/18/2022 11:30:00 AM 8.9 48.02 0.289 7.79 0.97 11.8
10/18/2022 11:45:00 AM 9.05 48.29 0.289 7.85 0.97 12
10/18/2022 12:00:00 PM 9.19 48.542 0.289 7.9 0.94 12.08
10/18/2022 12:15:00 PM 9.39 48.902 0.289 7.95 0.96 12.21
10/18/2022 12:30:00 PM 9.48 49.064 0.289 7.99 0.92 12.23
10/18/2022 12:45:00 PM 9.55 49.19 0.289 8.02 0.97 12.23
10/18/2022 1:00:00 PM 9.67 49.406 0.288 8.06 1 12.25
10/18/2022 1:15:00 PM 9.8 49.64 0.288 8.09 0.96 12.3
10/18/2022 1:30:00 PM 9.8 49.64 0.288 8.1 0.9 12.2
10/18/2022 1:45:00 PM 9.8 49.64 0.29 8.11 0.92 12.17
10/18/2022 2:00:00 PM 9.84 49.712 0.291 8.12 0.94 12.15
10/18/2022 2:15:00 PM 9.85 49.73 0.292 8.14 0.91 12.15
10/18/2022 2:30:00 PM 9.9 49.82 0.292 8.17 0.91 12.19
10/18/2022 2:45:00 PM 9.92 49.856 0.29 8.18 0.99 12.15
10/18/2022 3:00:00 PM 9.94 49.892 0.29 8.19 0.99 12.15
10/18/2022 3:15:00 PM 9.98 49.964 0.289 8.21 0.93 12.11
10/18/2022 3:30:00 PM 10.02 50.036 0.289 8.19 0.94 12.04
10/18/2022 3:45:00 PM 10.07 50.126 0.289 8.2 1 12.05
10/18/2022 4:00:00 PM 10.04 50.072 0.289 8.17 0.9 11.9
10/18/2022 4:15:00 PM 10.1 50.18 0.288 8.17 0.94 11.9
10/18/2022 4:30:00 PM 10.1 50.18 0.288 8.12 0.93 11.72
10/18/2022 4:45:00 PM 10.1 50.18 0.289 8.1 0.95 11.63
10/18/2022 5:00:00 PM 10.11 50.198 0.289 8.07 0.94 11.5
10/18/2022 5:15:00 PM 10.11 50.198 0.289 8.03 0.94 11.38
10/18/2022 5:30:00 PM 10.09 50.162 0.29 7.97 0.95 11.18
10/18/2022 5:45:00 PM 10.07 50.126 0.29 7.92 0.92 11.01
10/18/2022 6:00:00 PM 10.05 50.09 0.29 7.88 0.9 10.86
10/18/2022 6:15:00 PM 10.04 50.072 0.29 7.84 0.99 10.72
10/18/2022 6:30:00 PM 10.02 50.036 0.29 7.8 1.74 10.58
10/18/2022 6:45:00 PM 10 50 0.291 7.78 0.93 10.5
10/18/2022 7:00:00 PM 9.97 49.946 0.291 7.76 0.97 10.43
10/18/2022 7:15:00 PM 9.9 49.82 0.291 7.72 0.91 10.3
10/18/2022 7:30:00 PM 9.86 49.748 0.291 7.7 0.94 10.28
10/18/2022 7:45:00 PM 9.8 49.64 0.291 7.68 0.95 10.22
10/18/2022 8:00:00 PM 9.77 49.586 0.291 7.67 0.93 10.21
10/18/2022 8:15:00 PM 9.71 49.478 0.291 7.65 0.98 10.15
10/18/2022 8:30:00 PM 9.67 49.406 0.291 7.64 1.01 10.16
10/18/2022 8:45:00 PM 9.61 49.298 0.291 7.63 0.99 10.14
10/18/2022 9:00:00 PM 9.55 49.19 0.292 7.62 0.95 10.13
10/18/2022 9:15:00 PM 9.5 49.1 0.292 7.61 0.96 10.1
10/18/2022 9:30:00 PM 9.44 48.992 0.292 7.6 0.91 10.13
10/18/2022 9:45:00 PM 9.37 48.866 0.292 7.59 0.98 10.12
10/18/2022 10:00:00 PM 9.33 48.794 0.292 7.59 0.97 10.19
10/18/2022 10:15:00 PM 9.25 48.65 0.292 7.57 0.95 10.15
10/18/2022 10:30:00 PM 9.2 48.56 0.292 7.57 0.93 10.19
10/18/2022 10:45:00 PM 9.13 48.434 0.293 7.57 0.96 10.22
10/18/2022 11:00:00 PM 9.05 48.29 0.293 7.56 1.05 10.21
10/18/2022 11:15:00 PM 9.01 48.218 0.293 7.55 0.96 10.25
10/18/2022 11:30:00 PM 8.93 48.074 0.293 7.55 0.97 10.28
10/18/2022 11:45:00 PM 8.86 47.948 0.293 7.54 0.97 10.28
10/19/2022 12:00:00 AM 8.8 47.84 0.293 7.54 0.94 10.32
10/19/2022 12:15:00 AM 8.73 47.714 0.293 7.54 0.97 10.35
10/19/2022 12:30:00 AM 8.66 47.588 0.294 7.53 0.95 10.35
10/19/2022 12:45:00 AM 8.59 47.462 0.294 7.53 1.01 10.37
10/19/2022 1:00:00 AM 8.52 47.336 0.294 7.52 0.98 10.39
10/19/2022 1:15:00 AM 8.45 47.21 0.294 7.52 0.95 10.41
10/19/2022 1:30:00 AM 8.38 47.084 0.294 7.52 0.94 10.42
10/19/2022 1:45:00 AM 8.31 46.958 0.294 7.52 0.96 10.45
10/19/2022 2:00:00 AM 8.25 46.85 0.294 7.52 0.99 10.5
10/19/2022 2:15:00 AM 8.18 46.724 0.294 7.51 1.05 10.5
10/19/2022 2:30:00 AM 8.12 46.616 0.294 7.51 0.99 10.55
10/19/2022 2:45:00 AM 8.05 46.49 0.294 7.5 0.94 10.53
10/19/2022 3:00:00 AM 8.01 46.418 0.294 7.51 1.02 10.61
10/19/2022 3:15:00 AM 7.94 46.292 0.294 7.5 0.95 10.59
10/19/2022 3:30:00 AM 7.88 46.184 0.294 7.5 0.95 10.6
10/19/2022 3:45:00 AM 7.81 46.058 0.294 7.5 0.96 10.65
10/19/2022 4:00:00 AM 7.74 45.932 0.294 7.5 1 10.62
10/19/2022 4:15:00 AM 7.69 45.842 0.294 7.5 0.98 10.7
10/19/2022 4:30:00 AM 7.63 45.734 0.294 7.5 1.21 10.72
10/19/2022 4:45:00 AM 7.57 45.626 0.294 7.5 0.99 10.75
10/19/2022 5:00:00 AM 7.51 45.518 0.294 7.49 0.97 10.74
10/19/2022 5:15:00 AM 7.47 45.446 0.294 7.49 0.95 10.76
10/19/2022 5:30:00 AM 7.44 45.392 0.293 7.49 0.93 10.76
10/19/2022 5:45:00 AM 7.4 45.32 0.293 7.49 0.94 10.78
10/19/2022 6:00:00 AM 7.37 45.266 0.293 7.49 1.03 10.79
10/19/2022 6:15:00 AM 7.33 45.194 0.293 7.49 1 10.8
10/19/2022 6:30:00 AM 7.3 45.14 0.293 7.49 0.89 10.84
10/19/2022 6:45:00 AM 7.27 45.086 0.293 7.49 0.95 10.86
10/19/2022 7:00:00 AM 7.26 45.068 0.293 7.49 0.96 10.87
10/19/2022 7:15:00 AM 7.24 45.032 0.293 7.49 1.03 10.85
10/19/2022 7:30:00 AM 7.22 44.996 0.292 7.49 0.98 10.88
10/19/2022 7:45:00 AM 7.21 44.978 0.292 7.49 0.96 10.94
10/19/2022 8:00:00 AM 7.22 44.996 0.293 7.5 0.95 11.02
10/19/2022 8:15:00 AM 7.22 44.996 0.292 7.52 0.98 11.15
10/19/2022 8:30:00 AM 7.23 45.014 0.293 7.54 1 11.26
10/19/2022 8:45:00 AM 7.23 45.014 0.292 7.57 0.97 11.43
10/19/2022 9:00:00 AM 7.27 45.086 0.292 7.58 0.93 11.5
10/19/2022 9:15:00 AM 7.31 45.158 0.292 7.6 1.01 11.57
10/19/2022 9:30:00 AM 7.37 45.266 0.292 7.64 0.9 11.81
10/19/2022 9:45:00 AM 7.41 45.338 0.291 7.67 1.09 11.88
10/19/2022 10:00:00 AM 7.42 45.356 0.291 7.69 1.15 11.92
10/19/2022 10:15:00 AM 7.54 45.572 0.291 7.73 1.19 12.13
10/19/2022 10:30:00 AM 7.65 45.77 0.291 7.77 1.03 12.25
10/19/2022 10:45:00 AM 7.75 45.95 0.29 7.82 0.99 12.36
10/19/2022 11:00:00 AM 7.8 46.04 0.29 7.83 0.95 12.35
10/19/2022 11:15:00 AM 7.89 46.202 0.29 7.87 0.89 12.42
10/19/2022 11:30:00 AM 7.95 46.31 0.29 7.89 0.94 12.47
10/19/2022 11:45:00 AM 8.04 46.472 0.29 7.93 0.95 12.52
10/19/2022 12:00:00 PM 8.11 46.598 0.289 7.96 0.94 12.52
10/19/2022 12:15:00 PM 8.18 46.724 0.289 7.99 0.98 12.55
10/19/2022 12:30:00 PM 8.26 46.868 0.289 8.02 0.95 12.57
10/19/2022 12:45:00 PM 8.33 46.994 0.289 8.05 0.94 12.6
10/19/2022 1:00:00 PM 8.37 47.066 0.289 8.07 1 12.6
10/19/2022 1:15:00 PM 8.45 47.21 0.289 8.1 0.94 12.66
10/19/2022 1:30:00 PM 8.53 47.354 0.289 8.13 0.91 12.65
10/19/2022 1:45:00 PM 8.57 47.426 0.288 8.13 0.98 12.62
10/19/2022 2:00:00 PM 8.61 47.498 0.288 8.15 0.93 12.57
10/19/2022 2:15:00 PM 8.69 47.642 0.288 8.17 0.95 12.59
10/19/2022 2:30:00 PM 8.78 47.804 0.288 8.21 0.96 12.65
10/19/2022 2:45:00 PM 8.82 47.876 0.294 8.22 1.01 12.61
10/19/2022 3:00:00 PM 8.79 47.822 0.295 8.17 0.93 12.38
10/19/2022 3:15:00 PM 8.8 47.84 0.295 8.13 0.97 12.27
10/19/2022 3:30:00 PM 8.85 47.93 0.295 8.14 1.05 12.3
10/19/2022 3:45:00 PM 8.89 48.002 0.295 8.16 1.12 12.33
10/19/2022 4:00:00 PM 8.89 48.002 0.294 8.13 1.01 12.2
10/19/2022 4:15:00 PM 8.92 48.056 0.294 8.14 0.93 12.23
10/19/2022 4:30:00 PM 8.94 48.092 0.294 8.15 0.92 12.22
10/19/2022 4:45:00 PM 8.95 48.11 0.294 8.12 0.91 12.09
10/19/2022 5:00:00 PM 8.94 48.092 0.294 8.1 0.91 12.04
10/19/2022 5:15:00 PM 8.94 48.092 0.294 8.06 0.9 11.91
10/19/2022 5:30:00 PM 8.93 48.074 0.293 8.02 0.93 11.77
10/19/2022 5:45:00 PM 8.87 47.966 0.29 7.96 0.94 11.55
10/19/2022 6:00:00 PM 8.84 47.912 0.29 7.92 0.9 11.41
10/19/2022 6:15:00 PM 8.81 47.858 0.291 7.87 0.92 11.25
10/19/2022 6:30:00 PM 8.8 47.84 0.291 7.83 0.93 11.06
10/19/2022 6:45:00 PM 8.78 47.804 0.292 7.79 0.93 10.93
10/19/2022 7:00:00 PM 8.77 47.786 0.292 7.76 0.99 10.85
10/19/2022 7:15:00 PM 8.73 47.714 0.293 7.74 0.9 10.77
10/19/2022 7:30:00 PM 8.71 47.678 0.293 7.71 0.93 10.68
10/19/2022 7:45:00 PM 8.67 47.606 0.293 7.69 1.02 10.61
10/19/2022 8:00:00 PM 8.64 47.552 0.294 7.67 0.97 10.57
10/19/2022 8:15:00 PM 8.62 47.516 0.294 7.66 0.91 10.53
10/19/2022 8:30:00 PM 8.59 47.462 0.295 7.64 0.92 10.46
10/19/2022 8:45:00 PM 8.56 47.408 0.295 7.63 1.02 10.48
10/19/2022 9:00:00 PM 8.53 47.354 0.295 7.62 0.97 10.44
10/19/2022 9:15:00 PM 8.52 47.336 0.295 7.61 0.98 10.44
10/19/2022 9:30:00 PM 8.5 47.3 0.295 7.6 0.92 10.41
10/19/2022 9:45:00 PM 8.5 47.3 0.295 7.59 1.03 10.41
10/19/2022 10:00:00 PM 8.48 47.264 0.296 7.59 0.94 10.42
10/19/2022 10:15:00 PM 8.47 47.246 0.296 7.58 0.92 10.43
10/19/2022 10:30:00 PM 8.47 47.246 0.296 7.58 0.99 10.44
10/19/2022 10:45:00 PM 8.46 47.228 0.296 7.57 0.92 10.46
10/19/2022 11:00:00 PM 8.46 47.228 0.296 7.56 0.94 10.41
10/19/2022 11:15:00 PM 8.44 47.192 0.296 7.56 0.97 10.39
10/19/2022 11:30:00 PM 8.43 47.174 0.296 7.56 0.94 10.4
10/19/2022 11:45:00 PM 8.43 47.174 0.297 7.56 1.03 10.5
10/20/2022 12:00:00 AM 8.41 47.138 0.297 7.55 0.93 10.43
10/20/2022 12:15:00 AM 8.39 47.102 0.297 7.55 0.98 10.42
10/20/2022 12:30:00 AM 8.41 47.138 0.297 7.54 0.95 10.41
10/20/2022 12:45:00 AM 8.41 47.138 0.297 7.54 0.94 10.43
10/20/2022 1:00:00 AM 8.4 47.12 0.297 7.54 0.97 10.46
10/20/2022 1:15:00 AM 8.4 47.12 0.297 7.53 0.96 10.46
10/20/2022 1:30:00 AM 8.38 47.084 0.297 7.54 0.9 10.49
10/20/2022 1:45:00 AM 8.38 47.084 0.297 7.54 0.9 10.49
10/20/2022 2:00:00 AM 8.36 47.048 0.297 7.53 0.99 10.44
10/20/2022 2:15:00 AM 8.36 47.048 0.297 7.53 0.94 10.47
10/20/2022 2:30:00 AM 8.32 46.976 0.297 7.52 0.93 10.46
10/20/2022 2:45:00 AM 8.29 46.922 0.297 7.52 0.96 10.46
10/20/2022 3:00:00 AM 8.25 46.85 0.297 7.52 0.99 10.47
10/20/2022 3:15:00 AM 8.22 46.796 0.297 7.52 0.91 10.41
10/20/2022 3:30:00 AM 8.18 46.724 0.297 7.52 0.96 10.42
10/20/2022 3:45:00 AM 8.14 46.652 0.297 7.51 0.99 10.43
10/20/2022 4:00:00 AM 8.11 46.598 0.297 7.51 0.98 10.44
10/20/2022 4:15:00 AM 8.06 46.508 0.297 7.51 0.98 10.48
10/20/2022 4:30:00 AM 8.01 46.418 0.297 7.51 0.99 10.5
10/20/2022 4:45:00 AM 7.96 46.328 0.298 7.51 0.94 10.51
10/20/2022 5:00:00 AM 7.91 46.238 0.298 7.51 0.91 10.51
10/20/2022 5:15:00 AM 7.87 46.166 0.298 7.5 0.94 10.54
10/20/2022 5:30:00 AM 7.81 46.058 0.298 7.5 0.93 10.51
10/20/2022 5:45:00 AM 7.76 45.968 0.298 7.5 0.97 10.52
10/20/2022 6:00:00 AM 7.72 45.896 0.298 7.5 1 10.58
10/20/2022 6:15:00 AM 7.68 45.824 0.298 7.5 0.96 10.57
10/20/2022 6:30:00 AM 7.64 45.752 0.298 7.5 0.94 10.63
10/20/2022 6:45:00 AM 7.61 45.698 0.298 7.49 0.93 10.66
10/20/2022 7:00:00 AM 7.57 45.626 0.298 7.49 0.96 10.67
10/20/2022 7:15:00 AM 7.53 45.554 0.298 7.49 1.13 10.67
10/20/2022 7:30:00 AM 7.51 45.518 0.297 7.49 0.98 10.71
10/20/2022 7:45:00 AM 7.52 45.536 0.297 7.51 0.97 10.85
10/20/2022 8:00:00 AM 7.53 45.554 0.297 7.52 0.98 10.96
10/20/2022 8:15:00 AM 7.57 45.626 0.296 7.54 0.98 11.06
10/20/2022 8:30:00 AM 7.6 45.68 0.296 7.57 1 11.29
10/20/2022 8:45:00 AM 7.63 45.734 0.295 7.6 0.94 11.37
10/20/2022 9:00:00 AM 7.67 45.806 0.295 7.62 0.94 11.52
10/20/2022 9:15:00 AM 7.7 45.86 0.295 7.66 1.02 11.77
10/20/2022 9:30:00 AM 7.75 45.95 0.295 7.7 1.1 11.95
10/20/2022 9:45:00 AM 7.76 45.968 0.294 7.72 0.96 11.98
10/20/2022 10:00:00 AM 7.76 45.968 0.294 7.73 0.95 12
10/20/2022 10:15:00 AM 7.82 46.076 0.294 7.76 1.19 12.14
10/20/2022 10:30:00 AM 7.88 46.184 0.294 7.79 0.95 12.22
10/20/2022 10:45:00 AM 7.99 46.382 0.293 7.84 1.12 12.42
10/20/2022 11:00:00 AM 8.12 46.616 0.293 7.9 1.03 12.6
10/20/2022 11:15:00 AM 8.23 46.814 0.293 7.95 0.94 12.68
10/20/2022 11:30:00 AM 8.31 46.958 0.293 7.98 0.96 12.71
10/20/2022 11:45:00 AM 8.41 47.138 0.293 8.02 0.93 12.74
10/20/2022 12:00:00 PM 8.5 47.3 0.293 8.03 1.03 12.71
10/20/2022 12:15:00 PM 8.6 47.48 0.293 8.06 1.19 12.71
10/20/2022 12:30:00 PM 8.71 47.678 0.292 8.07 1.12 12.66
10/20/2022 12:45:00 PM 8.81 47.858 0.292 8.08 0.93 12.59
10/20/2022 1:00:00 PM 8.93 48.074 0.292 8.08 1.05 12.55
10/20/2022 1:15:00 PM 9.08 48.344 0.292 8.11 0.98 12.54
10/20/2022 1:30:00 PM 9.25 48.65 0.292 8.11 0.99 12.46
10/20/2022 1:45:00 PM 9.45 49.01 0.292 8.13 0.94 12.46
10/20/2022 2:00:00 PM 9.62 49.316 0.292 8.19 0.89 12.54
10/20/2022 2:15:00 PM 9.78 49.604 0.292 8.21 0.92 12.57
10/20/2022 2:30:00 PM 9.96 49.928 0.292 8.25 0.91 12.53
10/20/2022 2:45:00 PM 9.96 49.928 0.292 8.24 1 12.4
10/20/2022 3:00:00 PM 9.94 49.892 0.292 8.22 0.95 12.29
10/20/2022 3:15:00 PM 9.93 49.874 0.292 8.19 0.89 12.19
10/20/2022 3:30:00 PM 9.89 49.802 0.292 8.18 0.89 12.1
10/20/2022 3:45:00 PM 9.83 49.694 0.292 8.13 0.88 11.97
10/20/2022 4:00:00 PM 9.76 49.568 0.292 8.09 0.87 11.84
10/20/2022 4:15:00 PM 9.69 49.442 0.292 8.07 0.89 11.78
10/20/2022 4:30:00 PM 9.64 49.352 0.292 8.05 1.02 11.73
10/20/2022 4:45:00 PM 9.6 49.28 0.292 8.04 0.84 11.72
10/20/2022 5:00:00 PM 9.56 49.208 0.292 8.03 0.94 11.69
10/20/2022 5:15:00 PM 9.56 49.208 0.292 8.02 0.9 11.62
10/20/2022 5:30:00 PM 9.51 49.118 0.293 7.96 0.89 11.46
10/20/2022 5:45:00 PM 9.46 49.028 0.293 7.9 0.9 11.28
10/20/2022 6:00:00 PM 9.41 48.938 0.294 7.86 0.95 11.12
10/20/2022 6:15:00 PM 9.36 48.848 0.294 7.82 0.87 10.99
10/20/2022 6:30:00 PM 9.3 48.74 0.295 7.78 0.87 10.79
10/20/2022 6:45:00 PM 9.25 48.65 0.294 7.75 0.88 10.7
10/20/2022 7:00:00 PM 9.19 48.542 0.294 7.72 1.05 10.54
10/20/2022 7:15:00 PM 9.13 48.434 0.294 7.69 0.93 10.47
10/20/2022 7:30:00 PM 9.08 48.344 0.295 7.67 0.92 10.42
10/20/2022 7:45:00 PM 9.02 48.236 0.295 7.66 0.93 10.43
10/20/2022 8:00:00 PM 8.96 48.128 0.296 7.64 0.92 10.34
10/20/2022 8:15:00 PM 8.9 48.02 0.296 7.63 0.88 10.36
10/20/2022 8:30:00 PM 8.84 47.912 0.297 7.61 0.89 10.36
10/20/2022 8:45:00 PM 8.79 47.822 0.297 7.6 0.89 10.31
10/20/2022 9:00:00 PM 8.73 47.714 0.298 7.59 0.89 10.37
10/20/2022 9:15:00 PM 8.67 47.606 0.298 7.58 0.91 10.37
10/20/2022 9:30:00 PM 8.63 47.534 0.299 7.57 0.9 10.28
10/20/2022 9:45:00 PM 8.57 47.426 0.299 7.56 0.9 10.32
10/20/2022 10:00:00 PM 8.53 47.354 0.3 7.56 0.93 10.28
10/20/2022 10:15:00 PM 8.48 47.264 0.3 7.55 0.91 10.36
10/20/2022 10:30:00 PM 8.45 47.21 0.3 7.54 0.93 10.4
10/20/2022 10:45:00 PM 8.4 47.12 0.3 7.54 1 10.39
10/20/2022 11:00:00 PM 8.35 47.03 0.299 7.53 0.94 10.41
10/20/2022 11:15:00 PM 8.3 46.94 0.3 7.53 0.9 10.42
10/20/2022 11:30:00 PM 8.25 46.85 0.3 7.53 0.96 10.44
10/20/2022 11:45:00 PM 8.21 46.778 0.299 7.52 0.93 10.45
10/21/2022 12:00:00 AM 8.14 46.652 0.3 7.52 1.01 10.46
10/21/2022 12:15:00 AM 8.1 46.58 0.3 7.51 0.95 10.48
10/21/2022 12:30:00 AM 8.06 46.508 0.3 7.51 0.89 10.49
10/21/2022 12:45:00 AM 8.01 46.418 0.3 7.5 0.91 10.5
10/21/2022 1:00:00 AM 7.97 46.346 0.3 7.5 0.9 10.55
10/21/2022 1:15:00 AM 7.95 46.31 0.3 7.5 1 10.55
10/21/2022 1:30:00 AM 7.91 46.238 0.3 7.49 0.92 10.57
10/21/2022 1:45:00 AM 7.89 46.202 0.3 7.49 0.91 10.58
10/21/2022 2:00:00 AM 7.86 46.148 0.3 7.49 0.96 10.58
10/21/2022 2:15:00 AM 7.84 46.112 0.3 7.49 0.91 10.58
10/21/2022 2:30:00 AM 7.81 46.058 0.3 7.49 0.95 10.57
10/21/2022 2:45:00 AM 7.74 45.932 0.3 7.48 0.94 10.56
10/21/2022 3:00:00 AM 7.7 45.86 0.3 7.48 0.96 10.58
10/21/2022 3:15:00 AM 7.66 45.788 0.3 7.48 0.91 10.55
10/21/2022 3:30:00 AM 7.59 45.662 0.3 7.48 0.91 10.55
10/21/2022 3:45:00 AM 7.55 45.59 0.3 7.48 0.95 10.66
10/21/2022 4:00:00 AM 7.48 45.464 0.3 7.48 0.99 10.63
10/21/2022 4:15:00 AM 7.43 45.374 0.3 7.48 0.87 10.64
10/21/2022 4:30:00 AM 7.37 45.266 0.301 7.47 0.94 10.67
10/21/2022 4:45:00 AM 7.31 45.158 0.301 7.47 0.92 10.64
10/21/2022 5:00:00 AM 7.24 45.032 0.301 7.47 0.95 10.7
10/21/2022 5:15:00 AM 7.18 44.924 0.301 7.47 0.92 10.81
10/21/2022 5:30:00 AM 7.13 44.834 0.301 7.47 0.95 10.81
10/21/2022 5:45:00 AM 7.06 44.708 0.301 7.46 0.93 10.83
10/21/2022 6:00:00 AM 7 44.6 0.301 7.47 0.98 10.86
10/21/2022 6:15:00 AM 6.95 44.51 0.302 7.47 0.93 10.86
10/21/2022 6:30:00 AM 6.88 44.384 0.302 7.46 0.97 10.9
10/21/2022 6:45:00 AM 6.83 44.294 0.302 7.46 0.97 10.95
10/21/2022 7:00:00 AM 6.77 44.186 0.302 7.46 1 10.96
10/21/2022 7:15:00 AM 6.71 44.078 0.301 7.46 0.97 10.98
10/21/2022 7:30:00 AM 6.65 43.97 0.302 7.46 1.2 11.04
10/21/2022 7:45:00 AM 6.61 43.898 0.301 7.46 0.99 11.11
10/21/2022 8:00:00 AM 6.55 43.79 0.301 7.48 0.97 11.23
10/21/2022 8:15:00 AM 6.52 43.736 0.301 7.49 0.97 11.33
10/21/2022 8:30:00 AM 6.48 43.664 0.302 7.5 0.98 11.42
10/21/2022 8:45:00 AM 6.46 43.628 0.301 7.51 1.03 11.52
10/21/2022 9:00:00 AM 6.44 43.592 0.301 7.52 0.98 11.63
10/21/2022 9:15:00 AM 6.43 43.574 0.301 7.54 1.01 11.75
10/21/2022 9:30:00 AM 6.45 43.61 0.3 7.56 1 11.85
10/21/2022 9:45:00 AM 6.49 43.682 0.3 7.58 0.99 12
10/21/2022 10:00:00 AM 6.54 43.772 0.299 7.61 1.85 12.13
10/21/2022 10:15:00 AM 6.61 43.898 0.299 7.64 1 12.23
10/21/2022 10:30:00 AM 6.71 44.078 0.298 7.66 1.16 12.34
10/21/2022 10:45:00 AM 6.81 44.258 0.298 7.69 1.15 12.44
10/21/2022 11:00:00 AM 6.93 44.474 0.298 7.72 0.97 12.53
10/21/2022 11:15:00 AM 7.07 44.726 0.297 7.75 0.96 12.6
10/21/2022 11:30:00 AM 7.2 44.96 0.297 7.79 0.97 12.67
10/21/2022 11:45:00 AM 7.36 45.248 0.297 7.82 0.94 12.77
10/21/2022 12:00:00 PM 7.5 45.5 0.296 7.86 0.96 12.79
10/21/2022 12:15:00 PM 7.65 45.77 0.296 7.89 0.95 12.8
10/21/2022 12:30:00 PM 7.83 46.094 0.296 7.92 0.96 12.84
10/21/2022 12:45:00 PM 8.01 46.418 0.295 7.94 0.95 12.82
10/21/2022 1:00:00 PM 8.19 46.742 0.295 7.98 0.99 12.83
10/21/2022 1:15:00 PM 8.4 47.12 0.295 8 0.99 12.81
10/21/2022 1:30:00 PM 8.6 47.48 0.295 8.02 0.98 12.8
10/21/2022 1:45:00 PM 8.82 47.876 0.295 8.06 1 12.77
10/21/2022 2:00:00 PM 9.01 48.218 0.295 8.08 0.96 12.73
10/21/2022 2:15:00 PM 9.2 48.56 0.295 8.1 0.96 12.68
10/21/2022 2:30:00 PM 9.35 48.83 0.296 8.11 0.96 12.63
10/21/2022 2:45:00 PM 9.46 49.028 0.298 8.11 1.04 12.56
10/21/2022 3:00:00 PM 9.55 49.19 0.298 8.13 0.99 12.5
10/21/2022 3:15:00 PM 9.6 49.28 0.301 8.13 1 12.39
10/21/2022 3:30:00 PM 9.58 49.244 0.301 8.09 1 12.28
10/21/2022 3:45:00 PM 9.55 49.19 0.302 8.08 1.02 12.15
10/21/2022 4:00:00 PM 9.51 49.118 0.302 8.04 1.05 12
10/21/2022 4:15:00 PM 9.47 49.046 0.301 8 1.01 11.9
10/21/2022 4:30:00 PM 9.45 49.01 0.299 7.98 1.03 11.84
10/21/2022 4:45:00 PM 9.42 48.956 0.298 7.96 1.02 11.76
10/21/2022 5:00:00 PM 9.39 48.902 0.297 7.93 1.01 11.66
10/21/2022 5:15:00 PM 9.37 48.866 0.297 7.91 0.99 11.57
10/21/2022 5:30:00 PM 9.34 48.812 0.295 7.88 1.01 11.46
10/21/2022 5:45:00 PM 9.3 48.74 0.295 7.85 1.04 11.35
10/21/2022 6:00:00 PM 9.27 48.686 0.295 7.83 1.02 11.23
10/21/2022 6:15:00 PM 9.23 48.614 0.295 7.78 1.02 11.06
10/21/2022 6:30:00 PM 9.2 48.56 0.296 7.75 1 10.94
10/21/2022 6:45:00 PM 9.15 48.47 0.296 7.72 0.97 10.8
10/21/2022 7:00:00 PM 9.1 48.38 0.296 7.7 1.03 10.7
10/21/2022 7:15:00 PM 9.06 48.308 0.296 7.67 1.01 10.62
10/21/2022 7:30:00 PM 9.01 48.218 0.297 7.66 0.97 10.59
10/21/2022 7:45:00 PM 8.97 48.146 0.297 7.64 1 10.52
10/21/2022 8:00:00 PM 8.92 48.056 0.297 7.62 1.03 10.54
10/21/2022 8:15:00 PM 8.88 47.984 0.297 7.61 1.01 10.52
10/21/2022 8:30:00 PM 8.83 47.894 0.297 7.6 1 10.48
10/21/2022 8:45:00 PM 8.78 47.804 0.298 7.59 1 10.47
10/21/2022 9:00:00 PM 8.74 47.732 0.298 7.58 1.01 10.46
10/21/2022 9:15:00 PM 8.69 47.642 0.298 7.57 0.98 10.45
10/21/2022 9:30:00 PM 8.63 47.534 0.298 7.56 0.98 10.45
10/21/2022 9:45:00 PM 8.59 47.462 0.299 7.56 0.97 10.46
10/21/2022 10:00:00 PM 8.54 47.372 0.299 7.55 1.01 10.46
10/21/2022 10:15:00 PM 8.51 47.318 0.299 7.54 0.98 10.47
10/21/2022 10:30:00 PM 8.46 47.228 0.3 7.54 1.03 10.46
10/21/2022 10:45:00 PM 8.43 47.174 0.3 7.53 0.99 10.48
10/21/2022 11:00:00 PM 8.4 47.12 0.3 7.53 1.06 10.49
10/21/2022 11:15:00 PM 8.35 47.03 0.3 7.53 1.06 10.48
10/21/2022 11:30:00 PM 8.32 46.976 0.3 7.52 1.02 10.5
10/21/2022 11:45:00 PM 8.28 46.904 0.3 7.52 1.03 10.49
10/22/2022 12:00:00 AM 8.24 46.832 0.301 7.52 1.11 10.53
10/22/2022 12:15:00 AM 8.2 46.76 0.301 7.51 0.98 10.52
10/22/2022 12:30:00 AM 8.16 46.688 0.301 7.51 1.01 10.52
10/22/2022 12:45:00 AM 8.12 46.616 0.301 7.51 1.08 10.54
10/22/2022 1:00:00 AM 8.07 46.526 0.301 7.51 1.04 10.57
10/22/2022 1:15:00 AM 8.03 46.454 0.301 7.5 1 10.58
10/22/2022 1:30:00 AM 7.98 46.364 0.301 7.5 1.05 10.59
10/22/2022 1:45:00 AM 7.93 46.274 0.301 7.5 1.03 10.6
10/22/2022 2:00:00 AM 7.89 46.202 0.301 7.49 0.99 10.62
10/22/2022 2:15:00 AM 7.83 46.094 0.301 7.49 1.03 10.62
10/22/2022 2:30:00 AM 7.78 46.004 0.301 7.49 1.14 10.62
10/22/2022 2:45:00 AM 7.73 45.914 0.301 7.49 1.05 10.67
10/22/2022 3:00:00 AM 7.68 45.824 0.301 7.49 1.11 10.67
10/22/2022 3:15:00 AM 7.63 45.734 0.301 7.49 1.09 10.69
10/22/2022 3:30:00 AM 7.58 45.644 0.301 7.49 1.05 10.71
10/22/2022 3:45:00 AM 7.53 45.554 0.302 7.48 1.06 10.74
10/22/2022 4:00:00 AM 7.48 45.464 0.302 7.48 1.15 10.76
10/22/2022 4:15:00 AM 7.43 45.374 0.302 7.48 1.02 10.79
10/22/2022 4:30:00 AM 7.38 45.284 0.302 7.48 1.04 10.79
10/22/2022 4:45:00 AM 7.33 45.194 0.302 7.48 1.02 10.82
10/22/2022 5:00:00 AM 7.28 45.104 0.302 7.48 1 10.85
10/22/2022 5:15:00 AM 7.22 44.996 0.302 7.48 1.01 10.86
10/22/2022 5:30:00 AM 7.18 44.924 0.302 7.47 1.03 10.88
10/22/2022 5:45:00 AM 7.13 44.834 0.302 7.48 1.05 10.9
10/22/2022 6:00:00 AM 7.08 44.744 0.302 7.47 1.13 10.89
10/22/2022 6:15:00 AM 7.04 44.672 0.302 7.47 1.09 10.97
10/22/2022 6:30:00 AM 7 44.6 0.302 7.47 1.02 10.98
10/22/2022 6:45:00 AM 6.94 44.492 0.302 7.47 1.03 10.97
10/22/2022 7:00:00 AM 6.89 44.402 0.302 7.47 1.1 10.97
10/22/2022 7:15:00 AM 6.85 44.33 0.302 7.47 1.08 11.03
10/22/2022 7:30:00 AM 6.81 44.258 0.302 7.46 1.02 11.05
10/22/2022 7:45:00 AM 6.76 44.168 0.302 7.47 1.03 11.14
10/22/2022 8:00:00 AM 6.73 44.114 0.302 7.48 1.02 11.24
10/22/2022 8:15:00 AM 6.71 44.078 0.301 7.5 1.05 11.36
10/22/2022 8:30:00 AM 6.68 44.024 0.302 7.51 1.01 11.47
10/22/2022 8:45:00 AM 6.66 43.988 0.302 7.52 1.92 11.57
10/22/2022 9:00:00 AM 6.66 43.988 0.302 7.53 1.03 11.65
10/22/2022 9:15:00 AM 6.66 43.988 0.302 7.55 0.99 11.78
10/22/2022 9:30:00 AM 6.68 44.024 0.302 7.57 1 11.93
10/22/2022 9:45:00 AM 6.73 44.114 0.301 7.6 1.42 12.06
10/22/2022 10:00:00 AM 6.81 44.258 0.301 7.62 0.98 12.19
10/22/2022 10:15:00 AM 6.89 44.402 0.301 7.65 0.98 12.31
10/22/2022 10:30:00 AM 7.01 44.618 0.301 7.68 0.95 12.42
10/22/2022 10:45:00 AM 7.14 44.852 0.301 7.72 0.95 12.55
10/22/2022 11:00:00 AM 7.27 45.086 0.3 7.75 0.94 12.6
10/22/2022 11:15:00 AM 7.44 45.392 0.3 7.79 1 12.72
10/22/2022 11:30:00 AM 7.58 45.644 0.299 7.82 0.93 12.74
10/22/2022 11:45:00 AM 7.76 45.968 0.299 7.84 0.97 12.78
10/22/2022 12:00:00 PM 7.93 46.274 0.299 7.87 0.96 12.81
10/22/2022 12:15:00 PM 8.12 46.616 0.299 7.92 0.96 12.86
10/22/2022 12:30:00 PM 8.32 46.976 0.299 7.95 0.96 12.9
10/22/2022 12:45:00 PM 8.53 47.354 0.298 7.99 0.95 12.91
10/22/2022 1:00:00 PM 8.72 47.696 0.298 8.01 0.92 12.89
10/22/2022 1:15:00 PM 8.95 48.11 0.298 8.05 0.94 12.88
10/22/2022 1:30:00 PM 9.19 48.542 0.298 8.08 0.94 12.87
10/22/2022 1:45:00 PM 9.44 48.992 0.298 8.11 0.92 12.84
10/22/2022 2:00:00 PM 9.68 49.424 0.298 8.15 1.13 12.81
10/22/2022 2:15:00 PM 9.88 49.784 0.298 8.17 0.93 12.75
10/22/2022 2:30:00 PM 10.08 50.144 0.298 8.19 0.95 12.7
10/22/2022 2:45:00 PM 10.23 50.414 0.298 8.2 0.95 12.62
10/22/2022 3:00:00 PM 10.31 50.558 0.298 8.2 0.91 12.5
10/22/2022 3:15:00 PM 10.37 50.666 0.298 8.16 0.91 12.37
10/22/2022 3:30:00 PM 10.4 50.72 0.298 8.16 0.93 12.26
10/22/2022 3:45:00 PM 10.38 50.684 0.298 8.13 0.91 12.11
10/22/2022 4:00:00 PM 10.35 50.63 0.298 8.09 0.96 11.97
10/22/2022 4:15:00 PM 10.33 50.594 0.297 8.05 0.93 11.84
10/22/2022 4:30:00 PM 10.31 50.558 0.298 8.02 0.92 11.75
10/22/2022 4:45:00 PM 10.28 50.504 0.297 7.99 0.94 11.66
10/22/2022 5:00:00 PM 10.25 50.45 0.297 7.97 0.92 11.56
10/22/2022 5:15:00 PM 10.23 50.414 0.297 7.94 0.91 11.48
10/22/2022 5:30:00 PM 10.19 50.342 0.297 7.9 0.93 11.35
10/22/2022 5:45:00 PM 10.15 50.27 0.297 7.88 0.96 11.23
10/22/2022 6:00:00 PM 10.11 50.198 0.297 7.83 0.91 11.08
10/22/2022 6:15:00 PM 10.07 50.126 0.297 7.79 0.93 10.9
10/22/2022 6:30:00 PM 10.03 50.054 0.297 7.76 0.88 10.76
10/22/2022 6:45:00 PM 9.99 49.982 0.297 7.73 0.94 10.65
10/22/2022 7:00:00 PM 9.95 49.91 0.298 7.7 1 10.57
10/22/2022 7:15:00 PM 9.91 49.838 0.298 7.68 0.94 10.48
10/22/2022 7:30:00 PM 9.86 49.748 0.298 7.65 1.02 10.4
10/22/2022 7:45:00 PM 9.83 49.694 0.298 7.64 1.01 10.38
10/22/2022 8:00:00 PM 9.78 49.604 0.298 7.61 0.96 10.31
10/22/2022 8:15:00 PM 9.74 49.532 0.298 7.61 0.95 10.27
10/22/2022 8:30:00 PM 9.71 49.478 0.299 7.6 0.95 10.3
10/22/2022 8:45:00 PM 9.65 49.37 0.299 7.58 0.89 10.22
10/22/2022 9:00:00 PM 9.61 49.298 0.299 7.57 0.94 10.2
10/22/2022 9:15:00 PM 9.56 49.208 0.299 7.55 1.01 10.17
10/22/2022 9:30:00 PM 9.51 49.118 0.3 7.55 0.92 10.2
10/22/2022 9:45:00 PM 9.47 49.046 0.3 7.54 0.96 10.2
10/22/2022 10:00:00 PM 9.42 48.956 0.3 7.53 1 10.2
10/22/2022 10:15:00 PM 9.38 48.884 0.3 7.53 0.96 10.22
10/22/2022 10:30:00 PM 9.34 48.812 0.301 7.53 1.01 10.21
10/22/2022 10:45:00 PM 9.31 48.758 0.301 7.51 0.95 10.19
10/22/2022 11:00:00 PM 9.27 48.686 0.301 7.51 0.95 10.21
10/22/2022 11:15:00 PM 9.25 48.65 0.301 7.51 0.96 10.27
10/22/2022 11:30:00 PM 9.22 48.596 0.301 7.5 0.95 10.24
10/22/2022 11:45:00 PM 9.18 48.524 0.301 7.5 0.95 10.22
10/23/2022 12:00:00 AM 9.15 48.47 0.302 7.5 0.98 10.24
10/23/2022 12:15:00 AM 9.13 48.434 0.302 7.5 0.93 10.27
10/23/2022 12:30:00 AM 9.09 48.362 0.302 7.49 0.97 10.26
10/23/2022 12:45:00 AM 9.06 48.308 0.302 7.49 0.94 10.26
10/23/2022 1:00:00 AM 9.02 48.236 0.302 7.49 0.94 10.27
10/23/2022 1:15:00 AM 8.99 48.182 0.302 7.49 1.04 10.3
10/23/2022 1:30:00 AM 8.95 48.11 0.303 7.48 1.02 10.33
10/23/2022 1:45:00 AM 8.91 48.038 0.303 7.47 0.97 10.29
10/23/2022 2:00:00 AM 8.86 47.948 0.303 7.48 0.99 10.33
10/23/2022 2:15:00 AM 8.81 47.858 0.304 7.48 0.96 10.34
10/23/2022 2:30:00 AM 8.76 47.768 0.304 7.48 1.02 10.36
10/23/2022 2:45:00 AM 8.71 47.678 0.304 7.47 0.94 10.37
10/23/2022 3:00:00 AM 8.65 47.57 0.304 7.47 0.99 10.4
10/23/2022 3:15:00 AM 8.6 47.48 0.304 7.47 0.92 10.41
10/23/2022 3:30:00 AM 8.54 47.372 0.304 7.47 0.94 10.42
10/23/2022 3:45:00 AM 8.49 47.282 0.305 7.46 0.95 10.41
10/23/2022 4:00:00 AM 8.43 47.174 0.305 7.47 1 10.49
10/23/2022 4:15:00 AM 8.37 47.066 0.305 7.47 0.93 10.48
10/23/2022 4:30:00 AM 8.31 46.958 0.305 7.47 0.95 10.54
10/23/2022 4:45:00 AM 8.26 46.868 0.305 7.46 0.95 10.5
10/23/2022 5:00:00 AM 8.2 46.76 0.305 7.46 0.99 10.53
10/23/2022 5:15:00 AM 8.14 46.652 0.305 7.46 0.99 10.54
10/23/2022 5:30:00 AM 8.08 46.544 0.305 7.46 0.98 10.58
10/23/2022 5:45:00 AM 8.03 46.454 0.305 7.46 0.98 10.62
10/23/2022 6:00:00 AM 7.98 46.364 0.305 7.45 1.01 10.6
10/23/2022 6:15:00 AM 7.93 46.274 0.305 7.46 1.03 10.63
10/23/2022 6:30:00 AM 7.88 46.184 0.305 7.46 0.96 10.71
10/23/2022 6:45:00 AM 7.81 46.058 0.305 7.45 0.99 10.69
10/23/2022 7:00:00 AM 7.75 45.95 0.305 7.45 0.96 10.69
10/23/2022 7:15:00 AM 7.7 45.86 0.305 7.45 1 10.74
10/23/2022 7:30:00 AM 7.66 45.788 0.304 7.45 0.98 10.76
10/23/2022 7:45:00 AM 7.61 45.698 0.304 7.46 1.05 10.83
10/23/2022 8:00:00 AM 7.58 45.644 0.304 7.47 1 10.96
10/23/2022 8:15:00 AM 7.55 45.59 0.304 7.48 0.99 11.14
10/23/2022 8:30:00 AM 7.53 45.554 0.303 7.5 1 11.26
10/23/2022 8:45:00 AM 7.53 45.554 0.303 7.53 0.97 11.5
10/23/2022 9:00:00 AM 7.54 45.572 0.303 7.56 0.99 11.72
10/23/2022 9:15:00 AM 7.57 45.626 0.302 7.6 0.97 11.96
10/23/2022 9:30:00 AM 7.59 45.662 0.302 7.63 0.95 12.12
10/23/2022 9:45:00 AM 7.64 45.752 0.302 7.65 0.96 12.27
10/23/2022 10:00:00 AM 7.68 45.824 0.301 7.7 0.95 12.43
10/23/2022 10:15:00 AM 7.74 45.932 0.301 7.74 0.91 12.59
10/23/2022 10:30:00 AM 7.84 46.112 0.3 7.79 0.92 12.76
10/23/2022 10:45:00 AM 7.94 46.292 0.3 7.84 0.94 12.91
10/23/2022 11:00:00 AM 8.04 46.472 0.3 7.89 0.9 13.01
10/23/2022 11:15:00 AM 8.14 46.652 0.299 7.95 0.91 13.14
10/23/2022 11:30:00 AM 8.25 46.85 0.299 7.99 0.88 13.21
10/23/2022 11:45:00 AM 8.36 47.048 0.299 8.05 0.86 13.27
10/23/2022 12:00:00 PM 8.48 47.264 0.298 8.09 0.89 13.33
10/23/2022 12:15:00 PM 8.65 47.57 0.298 8.12 0.89 13.35
10/23/2022 12:30:00 PM 8.82 47.876 0.297 8.19 0.92 13.42
10/23/2022 12:45:00 PM 9.01 48.218 0.297 8.25 0.87 13.5
10/23/2022 1:00:00 PM 9.13 48.434 0.297 8.27 0.85 13.45
10/23/2022 1:15:00 PM 9.27 48.686 0.297 8.31 0.84 13.42
10/23/2022 1:30:00 PM 9.44 48.992 0.297 8.35 0.84 13.42
10/23/2022 1:45:00 PM 9.55 49.19 0.297 8.38 1 13.37
10/23/2022 2:00:00 PM 9.67 49.406 0.297 8.39 0.88 13.33
10/23/2022 2:15:00 PM 9.77 49.586 0.296 8.41 0.87 13.25
10/23/2022 2:30:00 PM 9.89 49.802 0.296 8.44 0.85 13.26
10/23/2022 2:45:00 PM 9.97 49.946 0.296 8.47 0.83 13.17
10/23/2022 3:00:00 PM 10.04 50.072 0.303 8.46 0.89 13.02
10/23/2022 3:15:00 PM 10.09 50.162 0.306 8.45 0.87 12.89
10/23/2022 3:30:00 PM 10.13 50.234 0.307 8.43 0.81 12.78
10/23/2022 3:45:00 PM 10.16 50.288 0.307 8.4 0.82 12.61
10/23/2022 4:00:00 PM 10.16 50.288 0.307 8.33 0.87 12.33
10/23/2022 4:15:00 PM 10.17 50.306 0.307 8.26 0.93 12.14
10/23/2022 4:30:00 PM 10.19 50.342 0.306 8.21 0.86 12.05
10/23/2022 4:45:00 PM 10.22 50.396 0.305 8.17 0.85 11.92
10/23/2022 5:00:00 PM 10.23 50.414 0.305 8.11 0.83 11.73
10/23/2022 5:15:00 PM 10.23 50.414 0.305 8.04 0.9 11.54
10/23/2022 5:30:00 PM 10.25 50.45 0.304 7.98 1.04 11.4
10/23/2022 5:45:00 PM 10.25 50.45 0.304 7.94 0.9 11.23
10/23/2022 6:00:00 PM 10.24 50.432 0.304 7.88 0.82 11.05
10/23/2022 6:15:00 PM 10.24 50.432 0.303 7.84 0.87 10.88
10/23/2022 6:30:00 PM 10.24 50.432 0.303 7.78 0.86 10.71
10/23/2022 6:45:00 PM 10.24 50.432 0.302 7.75 0.86 10.59
10/23/2022 7:00:00 PM 10.25 50.45 0.298 7.72 0.98 10.48
10/23/2022 7:15:00 PM 10.26 50.468 0.297 7.69 0.9 10.43
10/23/2022 7:30:00 PM 10.26 50.468 0.297 7.66 1.41 10.31
10/23/2022 7:45:00 PM 10.26 50.468 0.297 7.64 0.85 10.28
10/23/2022 8:00:00 PM 10.27 50.486 0.297 7.62 0.83 10.22
10/23/2022 8:15:00 PM 10.28 50.504 0.298 7.6 0.89 10.17
10/23/2022 8:30:00 PM 10.28 50.504 0.298 7.58 0.91 10.11
10/23/2022 8:45:00 PM 10.3 50.54 0.298 7.57 0.85 10.13
10/23/2022 9:00:00 PM 10.31 50.558 0.298 7.56 0.84 10.09
10/23/2022 9:15:00 PM 10.32 50.576 0.299 7.55 0.86 10.06
10/23/2022 9:30:00 PM 10.34 50.612 0.3 7.54 0.86 10.03
10/23/2022 9:45:00 PM 10.35 50.63 0.3 7.53 0.85 10.02
10/23/2022 10:00:00 PM 10.38 50.684 0.301 7.52 0.89 10.02
10/23/2022 10:15:00 PM 10.4 50.72 0.301 7.52 0.85 10.04
10/23/2022 10:30:00 PM 10.4 50.72 0.301 7.51 0.9 9.95
10/23/2022 10:45:00 PM 10.41 50.738 0.302 7.5 0.9 9.94
10/23/2022 11:00:00 PM 10.44 50.792 0.302 7.5 0.84 9.93
10/23/2022 11:15:00 PM 10.46 50.828 0.302 7.48 0.86 9.9
10/23/2022 11:30:00 PM 10.48 50.864 0.303 7.48 0.86 9.89
10/23/2022 11:45:00 PM 10.49 50.882 0.303 7.48 0.88 9.81
10/24/2022 12:00:00 AM 10.5 50.9 0.303 7.47 0.84 9.8
10/24/2022 12:15:00 AM 10.51 50.918 0.303 7.47 0.87 9.84
10/24/2022 12:30:00 AM 10.54 50.972 0.303 7.47 0.96 9.85
10/24/2022 12:45:00 AM 10.56 51.008 0.304 7.46 0.9 9.83
10/24/2022 1:00:00 AM 10.59 51.062 0.304 7.46 0.89 9.84
10/24/2022 1:15:00 AM 10.62 51.116 0.304 7.47 0.85 9.88
10/24/2022 1:30:00 AM 10.64 51.152 0.304 7.46 0.85 9.84
10/24/2022 1:45:00 AM 10.66 51.188 0.305 7.46 0.86 9.83
10/24/2022 2:00:00 AM 10.67 51.206 0.305 7.46 0.86 9.82
10/24/2022 2:15:00 AM 10.69 51.242 0.306 7.46 0.84 9.82
10/24/2022 2:30:00 AM 10.7 51.26 0.306 7.46 0.87 9.79
10/24/2022 2:45:00 AM 10.72 51.296 0.306 7.46 0.89 9.8
10/24/2022 3:00:00 AM 10.73 51.314 0.307 7.46 0.87 9.81
10/24/2022 3:15:00 AM 10.74 51.332 0.306 7.46 0.83 9.79
10/24/2022 3:30:00 AM 10.75 51.35 0.305 7.46 0.87 9.82
10/24/2022 3:45:00 AM 10.76 51.368 0.304 7.45 0.92 9.78
10/24/2022 4:00:00 AM 10.76 51.368 0.305 7.45 0.88 9.77
10/24/2022 4:15:00 AM 10.77 51.386 0.305 7.45 0.88 9.79
10/24/2022 4:30:00 AM 10.78 51.404 0.304 7.45 0.89 9.78
10/24/2022 4:45:00 AM 10.78 51.404 0.304 7.45 0.87 9.77
10/24/2022 5:00:00 AM 10.78 51.404 0.303 7.44 0.88 9.69
10/24/2022 5:15:00 AM 10.79 51.422 0.303 7.44 0.9 9.65
10/24/2022 5:30:00 AM 10.79 51.422 0.303 7.44 0.91 9.67
10/24/2022 5:45:00 AM 10.8 51.44 0.301 7.44 0.9 9.74
10/24/2022 6:00:00 AM 10.8 51.44 0.302 7.43 0.92 9.7
10/24/2022 6:15:00 AM 10.81 51.458 0.3 7.44 0.92 9.71
10/24/2022 6:30:00 AM 10.81 51.458 0.295 7.44 1 9.76
10/24/2022 6:45:00 AM 10.81 51.458 0.295 7.43 1.17 9.76
10/24/2022 7:00:00 AM 10.82 51.476 0.296 7.43 1.18 9.79
10/24/2022 7:15:00 AM 10.82 51.476 0.296 7.42 1.14 9.74
10/24/2022 7:30:00 AM 10.82 51.476 0.295 7.42 1.93 9.73
10/24/2022 7:45:00 AM 10.83 51.494 0.292 7.42 2.01 9.77
10/24/2022 8:00:00 AM 10.84 51.512 0.29 7.42 3.45 9.78
10/24/2022 8:15:00 AM 10.85 51.53 0.29 7.43 3.85 9.85
10/24/2022 8:30:00 AM 10.87 51.566 0.291 7.43 2.62 9.88
10/24/2022 8:45:00 AM 10.89 51.602 0.292 7.44 2.15 9.98
10/24/2022 9:00:00 AM 10.91 51.638 0.294 7.46 1.73 10.08
10/24/2022 9:15:00 AM 10.93 51.674 0.295 7.47 1.47 10.17
10/24/2022 9:30:00 AM 10.96 51.728 0.297 7.5 1.35 10.39
10/24/2022 9:45:00 AM 11.02 51.836 0.297 7.54 1.26 10.63
10/24/2022 10:00:00 AM 11.09 51.962 0.297 7.59 1.29 10.97
10/24/2022 10:15:00 AM 11.15 52.07 0.297 7.63 1.16 11.13
10/24/2022 10:30:00 AM 11.19 52.142 0.297 7.64 1.12 11.13
10/24/2022 10:45:00 AM 11.26 52.268 0.296 7.68 1.06 11.33
10/24/2022 11:00:00 AM 11.3 52.34 0.296 7.7 1.01 11.3
10/24/2022 11:15:00 AM 11.34 52.412 0.296 7.71 1.18 11.31
10/24/2022 11:30:00 AM 11.39 52.502 0.296 7.74 0.97 11.43
10/24/2022 11:45:00 AM 11.46 52.628 0.296 7.79 0.93 11.58
10/24/2022 12:00:00 PM 11.51 52.718 0.295 7.81 1 11.59
10/24/2022 12:15:00 PM 11.55 52.79 0.294 7.79 1.04 11.44
10/24/2022 12:30:00 PM 11.58 52.844 0.292 7.8 1.07 11.37
10/24/2022 12:45:00 PM 11.63 52.934 0.289 7.81 1.05 11.41
10/24/2022 1:00:00 PM 11.7 53.06 0.287 7.86 0.99 11.48
10/24/2022 1:15:00 PM 11.72 53.096 0.287 7.86 1.11 11.41
10/24/2022 1:30:00 PM 11.81 53.258 0.286 7.9 1.08 11.58
10/24/2022 1:45:00 PM 11.9 53.42 0.285 7.95 1.88 11.66
10/24/2022 2:00:00 PM 12.03 53.654 0.284 8 1.12 11.76
10/24/2022 2:15:00 PM 12.13 53.834 0.283 8.06 1.25 11.85
10/24/2022 2:30:00 PM 12.24 54.032 0.281 8.1 1.21 11.9
10/24/2022 2:45:00 PM 12.3 54.14 0.279 8.11 1.22 11.81
10/24/2022 3:00:00 PM 12.35 54.23 0.276 8.08 1.11 11.65
10/24/2022 3:15:00 PM 12.4 54.32 0.275 8.08 1.35 11.61
10/24/2022 3:30:00 PM 12.45 54.41 0.273 8.08 1.5 11.56
10/24/2022 3:45:00 PM 12.55 54.59 0.272 8.13 1.45 11.57
10/24/2022 4:00:00 PM 12.6 54.68 0.271 8.13 1.4 11.55
10/24/2022 4:15:00 PM 12.62 54.716 0.271 8.09 1.33 11.38
10/24/2022 4:30:00 PM 12.67 54.806 0.27 8.06 1.37 11.27
10/24/2022 4:45:00 PM 12.67 54.806 0.27 8.01 1.51 11.05
10/24/2022 5:00:00 PM 12.67 54.806 0.27 7.94 1.2 10.82
10/24/2022 5:15:00 PM 12.66 54.788 0.271 7.89 1.43 10.64
10/24/2022 5:30:00 PM 12.64 54.752 0.271 7.84 1.54 10.43
10/24/2022 5:45:00 PM 12.63 54.734 0.271 7.79 1.59 10.2
10/24/2022 6:00:00 PM 12.63 54.734 0.272 7.75 1.63 10.08
10/24/2022 6:15:00 PM 12.62 54.716 0.272 7.72 1.67 9.94
10/24/2022 6:30:00 PM 12.6 54.68 0.274 7.68 1.67 9.81
10/24/2022 6:45:00 PM 12.58 54.644 0.279 7.65 1.9 9.75
10/24/2022 7:00:00 PM 12.56 54.608 0.283 7.63 1.63 9.74
10/24/2022 7:15:00 PM 12.54 54.572 0.286 7.6 1.58 9.63
10/24/2022 7:30:00 PM 12.53 54.554 0.288 7.59 2.23 9.65
10/24/2022 7:45:00 PM 12.52 54.536 0.289 7.57 1.49 9.58
10/24/2022 8:00:00 PM 12.51 54.518 0.29 7.56 1.58 9.52
10/24/2022 8:15:00 PM 12.49 54.482 0.293 7.54 1.57 9.52
10/24/2022 8:30:00 PM 12.47 54.446 0.296 7.54 1.71 9.61
10/24/2022 8:45:00 PM 12.46 54.428 0.298 7.53 1.6 9.59
10/24/2022 9:00:00 PM 12.45 54.41 0.298 7.52 1.94 9.57
10/24/2022 9:15:00 PM 12.43 54.374 0.298 7.51 1.78 9.53
10/24/2022 9:30:00 PM 12.41 54.338 0.298 7.5 1.77 9.55
10/24/2022 9:45:00 PM 12.4 54.32 0.298 7.49 1.51 9.55
10/24/2022 10:00:00 PM 12.37 54.266 0.298 7.49 1.64 9.57
10/24/2022 10:15:00 PM 12.35 54.23 0.298 7.48 1.62 9.56
10/24/2022 10:30:00 PM 12.33 54.194 0.298 7.47 1.66 9.53
10/24/2022 10:45:00 PM 12.31 54.158 0.298 7.47 1.65 9.53
10/24/2022 11:00:00 PM 12.28 54.104 0.298 7.47 1.71 9.57
10/24/2022 11:15:00 PM 12.26 54.068 0.299 7.46 1.58 9.58
10/24/2022 11:30:00 PM 12.25 54.05 0.299 7.46 1.57 9.6
10/24/2022 11:45:00 PM 12.23 54.014 0.299 7.46 1.51 9.57
10/25/2022 12:00:00 AM 12.21 53.978 0.299 7.45 1.4 9.59
10/25/2022 12:15:00 AM 12.19 53.942 0.299 7.45 1.5 9.65
10/25/2022 12:30:00 AM 12.18 53.924 0.299 7.44 1.55 9.65
10/25/2022 12:45:00 AM 12.17 53.906 0.299 7.44 1.72 9.65
10/25/2022 1:00:00 AM 12.16 53.888 0.299 7.43 1.59 9.63
10/25/2022 1:15:00 AM 12.16 53.888 0.299 7.43 1.5 9.65
10/25/2022 1:30:00 AM 12.16 53.888 0.298 7.43 1.54 9.63
10/25/2022 1:45:00 AM 12.16 53.888 0.298 7.43 1.44 9.63
10/25/2022 2:00:00 AM 12.17 53.906 0.298 7.42 10.04 9.64
10/25/2022 2:15:00 AM 12.17 53.906 0.298 7.42 1.68 9.62
10/25/2022 2:30:00 AM 12.19 53.942 0.297 7.42 1.49 9.65
10/25/2022 2:45:00 AM 12.2 53.96 0.297 7.42 1.3 9.61
10/25/2022 3:00:00 AM 12.21 53.978 0.297 7.41 1.49 9.62
10/25/2022 3:15:00 AM 12.22 53.996 0.296 7.41 1.3 9.6
10/25/2022 3:30:00 AM 12.23 54.014 0.296 7.41 1.47 9.62
10/25/2022 3:45:00 AM 12.25 54.05 0.295 7.41 1.37 9.63
10/25/2022 4:00:00 AM 12.26 54.068 0.295 7.41 1.67 9.63
10/25/2022 4:15:00 AM 12.27 54.086 0.294 7.4 1.32 9.61
10/25/2022 4:30:00 AM 12.28 54.104 0.294 7.4 1.38 9.6
10/25/2022 4:45:00 AM 12.28 54.104 0.294 7.4 1.4 9.62
10/25/2022 5:00:00 AM 12.28 54.104 0.294 7.4 1.34 9.6
10/25/2022 5:15:00 AM 12.26 54.068 0.294 7.39 1.31 9.59
10/25/2022 5:30:00 AM 12.26 54.068 0.294 7.4 1.36 9.62
10/25/2022 5:45:00 AM 12.27 54.086 0.294 7.4 1.25 9.63
10/25/2022 6:00:00 AM 12.26 54.068 0.294 7.4 1.44 9.62
10/25/2022 6:15:00 AM 12.26 54.068 0.294 7.4 1.3 9.6
10/25/2022 6:30:00 AM 12.26 54.068 0.294 7.4 1.31 9.61
10/25/2022 6:45:00 AM 12.26 54.068 0.294 7.39 1.91 9.6
10/25/2022 7:00:00 AM 12.26 54.068 0.294 7.4 1.39 9.62
10/25/2022 7:15:00 AM 12.26 54.068 0.294 7.39 1.33 9.62
10/25/2022 7:30:00 AM 12.26 54.068 0.294 7.4 1.35 9.61
10/25/2022 7:45:00 AM 12.26 54.068 0.294 7.4 1.27 9.64
10/25/2022 8:00:00 AM 12.26 54.068 0.294 7.4 1.33 9.7
10/25/2022 8:15:00 AM 12.26 54.068 0.294 7.41 1.22 9.79
10/25/2022 8:30:00 AM 12.26 54.068 0.294 7.43 1.29 9.89
10/25/2022 8:45:00 AM 12.26 54.068 0.293 7.44 1.42 10.01
10/25/2022 9:00:00 AM 12.29 54.122 0.293 7.46 1.37 10.15
10/25/2022 9:15:00 AM 12.31 54.158 0.293 7.48 1.31 10.24
10/25/2022 9:30:00 AM 12.37 54.266 0.292 7.5 1.36 10.45
10/25/2022 9:45:00 AM 12.41 54.338 0.292 7.54 1.37 10.51
10/25/2022 10:00:00 AM 12.47 54.446 0.292 7.56 1.24 10.63
10/25/2022 10:15:00 AM 12.55 54.59 0.292 7.6 1.34 10.8
10/25/2022 10:30:00 AM 12.62 54.716 0.291 7.64 1.27 10.91
10/25/2022 10:45:00 AM 12.71 54.878 0.29 7.67 1.19 10.95
10/25/2022 11:00:00 AM 12.78 55.004 0.289 7.71 1.27 11.04
10/25/2022 11:15:00 AM 12.89 55.202 0.289 7.76 1.17 11.13
10/25/2022 11:30:00 AM 12.96 55.328 0.288 7.79 1.29 11.15
10/25/2022 11:45:00 AM 13.04 55.472 0.287 7.81 1.16 11.17
10/25/2022 12:00:00 PM 13.13 55.634 0.286 7.85 1.24 11.21
10/25/2022 12:15:00 PM 13.23 55.814 0.285 7.89 1.11 11.27
10/25/2022 12:30:00 PM 13.31 55.958 0.284 7.93 1.2 11.3
10/25/2022 12:45:00 PM 13.39 56.102 0.283 7.93 1.24 11.23
10/25/2022 1:00:00 PM 13.52 56.336 0.283 7.96 1.18 11.23
10/25/2022 1:15:00 PM 13.66 56.588 0.282 7.97 1.2 11.2
10/25/2022 1:30:00 PM 13.82 56.876 0.282 7.98 1.16 11.17
10/25/2022 1:45:00 PM 14 57.2 0.281 8.02 1.28 11.21
10/25/2022 2:00:00 PM 14.15 57.47 0.281 8.03 1.25 11.13
10/25/2022 2:15:00 PM 14.33 57.794 0.281 8.06 1.28 11.17
10/25/2022 2:30:00 PM 14.37 57.866 0.281 8.06 1.22 11.01
10/25/2022 2:45:00 PM 14.39 57.902 0.281 8.04 1.21 10.9
10/25/2022 3:00:00 PM 14.44 57.992 0.281 8.02 1.15 10.79
10/25/2022 3:15:00 PM 14.44 57.992 0.281 7.98 1.09 10.67
10/25/2022 3:30:00 PM 14.44 57.992 0.28 7.97 1.27 10.58
10/25/2022 3:45:00 PM 14.42 57.956 0.28 7.94 1.23 10.5
10/25/2022 4:00:00 PM 14.42 57.956 0.28 7.92 1.26 10.39
10/25/2022 4:15:00 PM 14.41 57.938 0.28 7.89 1.25 10.24
10/25/2022 4:30:00 PM 14.4 57.92 0.28 7.87 1.26 10.19
10/25/2022 4:45:00 PM 14.39 57.902 0.28 7.85 1.14 10.12
10/25/2022 5:00:00 PM 14.38 57.884 0.281 7.82 1.22 10.03
10/25/2022 5:15:00 PM 14.36 57.848 0.281 7.79 1.27 9.88
10/25/2022 5:30:00 PM 14.33 57.794 0.282 7.76 1.23 9.79
10/25/2022 5:45:00 PM 14.3 57.74 0.282 7.73 1.52 9.68
10/25/2022 6:00:00 PM 14.26 57.668 0.282 7.71 1.26 9.54
10/25/2022 6:15:00 PM 14.23 57.614 0.282 7.68 1.31 9.44
10/25/2022 6:30:00 PM 14.21 57.578 0.282 7.65 1.4 9.35
10/25/2022 6:45:00 PM 14.17 57.506 0.282 7.63 1.77 9.27
10/25/2022 7:00:00 PM 14.13 57.434 0.282 7.61 1.27 9.2
10/25/2022 7:15:00 PM 14.1 57.38 0.282 7.59 1.37 9.2
10/25/2022 7:30:00 PM 14.05 57.29 0.282 7.57 1.26 9.14
10/25/2022 7:45:00 PM 14.03 57.254 0.282 7.56 1.27 9.16
10/25/2022 8:00:00 PM 13.99 57.182 0.282 7.55 1.28 9.14
10/25/2022 8:15:00 PM 13.96 57.128 0.282 7.54 1.48 9.11
10/25/2022 8:30:00 PM 13.95 57.11 0.282 7.53 1.46 9.09
10/25/2022 8:45:00 PM 13.94 57.092 0.282 7.52 1.79 9.08
10/25/2022 9:00:00 PM 13.93 57.074 0.281 7.51 1.71 9.07
10/25/2022 9:15:00 PM 13.92 57.056 0.281 7.5 1.46 9.07
10/25/2022 9:30:00 PM 13.9 57.02 0.281 7.49 1.71 9.07
10/25/2022 9:45:00 PM 13.88 56.984 0.281 7.49 1.5 9.07
10/25/2022 10:00:00 PM 13.87 56.966 0.281 7.49 1.59 9.09
10/25/2022 10:15:00 PM 13.84 56.912 0.281 7.47 1.53 9.11
10/25/2022 10:30:00 PM 13.81 56.858 0.281 7.47 1.46 9.08
10/25/2022 10:45:00 PM 13.77 56.786 0.281 7.46 1.42 9.07
10/25/2022 11:00:00 PM 13.73 56.714 0.282 7.46 1.56 9.13
10/25/2022 11:15:00 PM 13.71 56.678 0.282 7.45 1.8 9.12
10/25/2022 11:30:00 PM 13.67 56.606 0.282 7.45 1.54 9.12
10/25/2022 11:45:00 PM 13.64 56.552 0.282 7.44 1.6 9.16
10/26/2022 12:00:00 AM 13.6 56.48 0.282 7.44 1.58 9.14
10/26/2022 12:15:00 AM 13.56 56.408 0.282 7.44 1.64 9.15
10/26/2022 12:30:00 AM 13.52 56.336 0.282 7.43 1.46 9.16
10/26/2022 12:45:00 AM 13.49 56.282 0.282 7.43 1.58 9.16
10/26/2022 1:00:00 AM 13.47 56.246 0.282 7.42 1.47 9.15
10/26/2022 1:15:00 AM 13.45 56.21 0.282 7.41 1.56 9.15
10/26/2022 1:30:00 AM 13.44 56.192 0.282 7.41 1.51 9.19
10/26/2022 1:45:00 AM 13.43 56.174 0.282 7.41 1.48 9.18
10/26/2022 2:00:00 AM 13.42 56.156 0.282 7.41 1.56 9.18
10/26/2022 2:15:00 AM 13.42 56.156 0.282 7.41 1.68 9.16
10/26/2022 2:30:00 AM 13.43 56.174 0.282 7.41 1.48 9.19
10/26/2022 2:45:00 AM 13.43 56.174 0.282 7.41 1.51 9.15
10/26/2022 3:00:00 AM 13.45 56.21 0.282 7.4 1.32 9.16
10/26/2022 3:15:00 AM 13.45 56.21 0.282 7.4 1.39 9.15
10/26/2022 3:30:00 AM 13.46 56.228 0.282 7.4 1.27 9.15
10/26/2022 3:45:00 AM 13.46 56.228 0.282 7.39 2.9 9.13
10/26/2022 4:00:00 AM 13.47 56.246 0.282 7.39 1.47 9.12
10/26/2022 4:15:00 AM 13.49 56.282 0.282 7.39 1.54 9.17
10/26/2022 4:30:00 AM 13.49 56.282 0.282 7.39 1.42 9.09
10/26/2022 4:45:00 AM 13.49 56.282 0.282 7.38 1.39 9.05
10/26/2022 5:00:00 AM 13.49 56.282 0.282 7.38 1.44 9.11
10/26/2022 5:15:00 AM 13.5 56.3 0.282 7.38 1.47 9.13
10/26/2022 5:30:00 AM 13.49 56.282 0.282 7.38 1.23 9.09
10/26/2022 5:45:00 AM 13.49 56.282 0.282 7.38 1.39 9.11
10/26/2022 6:00:00 AM 13.47 56.246 0.282 7.38 1.23 9.1
10/26/2022 6:15:00 AM 13.46 56.228 0.282 7.38 1.59 9.1
10/26/2022 6:30:00 AM 13.46 56.228 0.282 7.37 1.16 9.1
10/26/2022 6:45:00 AM 13.45 56.21 0.282 7.37 1.37 9.11
10/26/2022 7:00:00 AM 13.44 56.192 0.282 7.37 1.44 9.1
10/26/2022 7:15:00 AM 13.43 56.174 0.282 7.37 1.37 9.12
10/26/2022 7:30:00 AM 13.42 56.156 0.282 7.37 1.27 9.12
10/26/2022 7:45:00 AM 13.41 56.138 0.282 7.37 1.19 9.14
10/26/2022 8:00:00 AM 13.42 56.156 0.281 7.37 1.26 9.21
10/26/2022 8:15:00 AM 13.43 56.174 0.281 7.39 1.36 9.36
10/26/2022 8:30:00 AM 13.44 56.192 0.281 7.4 1.47 9.44
10/26/2022 8:45:00 AM 13.45 56.21 0.28 7.41 1.24 9.42
10/26/2022 9:00:00 AM 13.45 56.21 0.28 7.41 1.39 9.42
10/26/2022 9:15:00 AM 13.47 56.246 0.28 7.43 1.45 9.59
10/26/2022 9:30:00 AM 13.48 56.264 0.28 7.44 1.17 9.55
10/26/2022 9:45:00 AM 13.5 56.3 0.279 7.45 1.19 9.6
10/26/2022 10:00:00 AM 13.53 56.354 0.279 7.47 1.48 9.72
10/26/2022 10:15:00 AM 13.6 56.48 0.278 7.52 2.46 9.92
10/26/2022 10:30:00 AM 13.64 56.552 0.278 7.55 1.35 10.06
10/26/2022 10:45:00 AM 13.68 56.624 0.278 7.58 1.37 10.14
10/26/2022 11:00:00 AM 13.73 56.714 0.277 7.6 1.4 10.21
10/26/2022 11:15:00 AM 13.82 56.876 0.276 7.66 1.5 10.45
10/26/2022 11:30:00 AM 13.87 56.966 0.276 7.68 1.27 10.43
10/26/2022 11:45:00 AM 13.94 57.092 0.276 7.74 1.51 10.64
10/26/2022 12:00:00 PM 14.01 57.218 0.277 7.77 1.61 10.73
10/26/2022 12:15:00 PM 14.06 57.308 0.276 7.79 1.35 10.69
10/26/2022 12:30:00 PM 14.15 57.47 0.276 7.83 1.5 10.81
10/26/2022 12:45:00 PM 14.24 57.632 0.276 7.87 1.62 10.88
10/26/2022 1:00:00 PM 14.37 57.866 0.276 7.92 1.59 10.96
10/26/2022 1:15:00 PM 14.48 58.064 0.277 7.97 1.6 11.05
10/26/2022 1:30:00 PM 14.67 58.406 0.277 8.03 2.05 11.13
10/26/2022 1:45:00 PM 14.72 58.496 0.277 8.07 2.08 11.15
10/26/2022 2:00:00 PM 14.81 58.658 0.277 8.09 1.42 11.1
10/26/2022 2:15:00 PM 14.85 58.73 0.276 8.09 1.69 10.98
10/26/2022 2:30:00 PM 14.91 58.838 0.276 8.1 1.3 10.98
10/26/2022 2:45:00 PM 14.92 58.856 0.276 8.11 1.69 10.87
10/26/2022 3:00:00 PM 14.94 58.892 0.276 8.1 1.57 10.83
10/26/2022 3:15:00 PM 14.95 58.91 0.276 8.08 1.56 10.69
10/26/2022 3:30:00 PM 14.96 58.928 0.276 8.07 1.96 10.66
10/26/2022 3:45:00 PM 14.94 58.892 0.277 8.06 1.43 10.57
10/26/2022 4:00:00 PM 14.95 58.91 0.277 8.04 1.43 10.51
10/26/2022 4:15:00 PM 14.95 58.91 0.278 8.04 1.28 10.46
10/26/2022 4:30:00 PM 14.93 58.874 0.278 7.98 2.18 10.27
10/26/2022 4:45:00 PM 14.91 58.838 0.278 7.94 1.2 10.09
10/26/2022 5:00:00 PM 14.89 58.802 0.278 7.9 1.82 9.94
10/26/2022 5:15:00 PM 14.86 58.748 0.278 7.85 1.59 9.78
10/26/2022 5:30:00 PM 14.83 58.694 0.278 7.8 1.59 9.6
10/26/2022 5:45:00 PM 14.79 58.622 0.278 7.76 1.17 9.44
10/26/2022 6:00:00 PM 14.77 58.586 0.278 7.73 1.36 9.33
10/26/2022 6:15:00 PM 14.75 58.55 0.278 7.69 1.44 9.21
10/26/2022 6:30:00 PM 14.72 58.496 0.279 7.66 1.4 9.06
10/26/2022 6:45:00 PM 14.69 58.442 0.279 7.63 2.56 9
10/26/2022 7:00:00 PM 14.67 58.406 0.279 7.61 1.4 8.92
10/26/2022 7:15:00 PM 14.66 58.388 0.28 7.6 1.78 8.91
10/26/2022 7:30:00 PM 14.64 58.352 0.28 7.58 1.53 8.88
10/26/2022 7:45:00 PM 14.62 58.316 0.281 7.56 1.77 8.82
10/26/2022 8:00:00 PM 14.58 58.244 0.281 7.55 1.72 8.81
10/26/2022 8:15:00 PM 14.53 58.154 0.282 7.55 1.6 8.78
10/26/2022 8:30:00 PM 14.48 58.064 0.283 7.54 1.65 8.79
10/26/2022 8:45:00 PM 14.44 57.992 0.285 7.53 1.6 8.81
10/26/2022 9:00:00 PM 14.38 57.884 0.287 7.52 1.68 8.77
10/26/2022 9:15:00 PM 14.33 57.794 0.289 7.51 1.67 8.78
10/26/2022 9:30:00 PM 14.27 57.686 0.291 7.51 1.69 8.75
10/26/2022 9:45:00 PM 14.24 57.632 0.292 7.51 1.94 8.82
10/26/2022 10:00:00 PM 14.21 57.578 0.292 7.5 2.44 8.82
10/26/2022 10:15:00 PM 14.19 57.542 0.292 7.5 1.58 8.81
10/26/2022 10:30:00 PM 14.16 57.488 0.292 7.49 1.8 8.81
10/26/2022 10:45:00 PM 14.1 57.38 0.293 7.49 1.69 8.84
10/26/2022 11:00:00 PM 14.04 57.272 0.293 7.49 1.68 8.85
10/26/2022 11:15:00 PM 13.98 57.164 0.293 7.48 1.72 8.86
10/26/2022 11:30:00 PM 13.92 57.056 0.294 7.49 1.51 8.94
10/26/2022 11:45:00 PM 13.88 56.984 0.294 7.48 2.2 8.95
10/27/2022 12:00:00 AM 13.81 56.858 0.295 7.48 1.88 8.94
10/27/2022 12:15:00 AM 13.74 56.732 0.295 7.48 1.43 8.99
10/27/2022 12:30:00 AM 13.66 56.588 0.296 7.48 1.53 9.02
10/27/2022 12:45:00 AM 13.59 56.462 0.296 7.48 1.59 9.07
10/27/2022 1:00:00 AM 13.53 56.354 0.297 7.48 1.76 9.13
10/27/2022 1:15:00 AM 13.45 56.21 0.297 7.48 1.86 9.13
10/27/2022 1:30:00 AM 13.37 56.066 0.297 7.47 1.76 9.11
10/27/2022 1:45:00 AM 13.32 55.976 0.297 7.47 1.7 9.17
10/27/2022 2:00:00 AM 13.26 55.868 0.297 7.47 1.65 9.1
10/27/2022 2:15:00 AM 13.18 55.724 0.297 7.47 1.51 9.14
10/27/2022 2:30:00 AM 13.09 55.562 0.297 7.47 1.49 9.18
10/27/2022 2:45:00 AM 13.02 55.436 0.297 7.47 1.65 9.23
10/27/2022 3:00:00 AM 12.97 55.346 0.296 7.47 1.71 9.26
10/27/2022 3:15:00 AM 12.9 55.22 0.296 7.47 1.61 9.26
10/27/2022 3:30:00 AM 12.84 55.112 0.296 7.47 1.57 9.27
10/27/2022 3:45:00 AM 12.78 55.004 0.296 7.47 1.44 9.29
10/27/2022 4:00:00 AM 12.71 54.878 0.295 7.48 1.43 9.36
10/27/2022 4:15:00 AM 12.64 54.752 0.294 7.48 1.35 9.35
10/27/2022 4:30:00 AM 12.58 54.644 0.294 7.47 1.51 9.26
10/27/2022 4:45:00 AM 12.5 54.5 0.294 7.48 1.53 9.41
10/27/2022 5:00:00 AM 12.44 54.392 0.294 7.48 1.31 9.42
10/27/2022 5:15:00 AM 12.38 54.284 0.294 7.48 1.4 9.43
10/27/2022 5:30:00 AM 12.31 54.158 0.294 7.48 1.3 9.5
10/27/2022 5:45:00 AM 12.25 54.05 0.294 7.48 1.77 9.5
10/27/2022 6:00:00 AM 12.19 53.942 0.293 7.48 1.32 9.51
10/27/2022 6:15:00 AM 12.12 53.816 0.293 7.48 1.26 9.52
10/27/2022 6:30:00 AM 12.04 53.672 0.293 7.48 1.39 9.54
10/27/2022 6:45:00 AM 11.98 53.564 0.292 7.48 1.35 9.59
10/27/2022 7:00:00 AM 11.92 53.456 0.293 7.47 1.66 9.59
10/27/2022 7:15:00 AM 11.85 53.33 0.291 7.47 1.37 9.62
10/27/2022 7:30:00 AM 11.78 53.204 0.292 7.47 1.54 9.64
10/27/2022 7:45:00 AM 11.71 53.078 0.292 7.47 1.33 9.7
10/27/2022 8:00:00 AM 11.66 52.988 0.292 7.47 1.42 9.74
10/27/2022 8:15:00 AM 11.6 52.88 0.291 7.48 1.28 9.8
10/27/2022 8:30:00 AM 11.54 52.772 0.291 7.49 1.45 9.93
10/27/2022 8:45:00 AM 11.51 52.718 0.291 7.5 1.26 10.05
10/27/2022 9:00:00 AM 11.48 52.664 0.291 7.52 1.3 10.18
10/27/2022 9:15:00 AM 11.46 52.628 0.291 7.53 1.18 10.28
10/27/2022 9:30:00 AM 11.45 52.61 0.291 7.56 1.18 10.45
10/27/2022 9:45:00 AM 11.46 52.628 0.29 7.59 1.57 10.61
10/27/2022 10:00:00 AM 11.47 52.646 0.291 7.62 1.42 10.76
10/27/2022 10:15:00 AM 11.49 52.682 0.291 7.66 1.34 10.96
10/27/2022 10:30:00 AM 11.53 52.754 0.291 7.7 1.37 11.14
10/27/2022 10:45:00 AM 11.57 52.826 0.291 7.74 1.27 11.28
10/27/2022 11:00:00 AM 11.63 52.934 0.291 7.79 1.23 11.41
10/27/2022 11:15:00 AM 11.67 53.006 0.291 7.82 1.25 11.48
10/27/2022 11:30:00 AM 11.71 53.078 0.291 7.85 1.23 11.48
10/27/2022 11:45:00 AM 11.78 53.204 0.291 7.88 1.23 11.52
10/27/2022 12:00:00 PM 11.82 53.276 0.29 7.91 1.22 11.53
10/27/2022 12:15:00 PM 11.88 53.384 0.29 7.93 1.22 11.53
10/27/2022 12:30:00 PM 11.94 53.492 0.29 7.94 1.3 11.51
10/27/2022 12:45:00 PM 12.04 53.672 0.289 7.98 1.27 11.55
10/27/2022 1:00:00 PM 12.15 53.87 0.289 8 1.15 11.54
10/27/2022 1:15:00 PM 12.28 54.104 0.288 8.02 1.22 11.56
10/27/2022 1:30:00 PM 12.36 54.248 0.288 8.05 1.25 11.53
10/27/2022 1:45:00 PM 12.44 54.392 0.287 8.07 1.18 11.53
10/27/2022 2:00:00 PM 12.49 54.482 0.287 8.07 1.17 11.49
10/27/2022 2:15:00 PM 12.56 54.608 0.287 8.1 1.21 11.5
10/27/2022 2:30:00 PM 12.54 54.572 0.286 8.09 1.24 11.44
10/27/2022 2:45:00 PM 12.5 54.5 0.286 8.09 1.17 11.36
10/27/2022 3:00:00 PM 12.46 54.428 0.286 8.07 1.29 11.32
10/27/2022 3:15:00 PM 12.39 54.302 0.286 8.05 1.23 11.22
10/27/2022 3:30:00 PM 12.32 54.176 0.285 8.02 1.29 11.13
10/27/2022 3:45:00 PM 12.25 54.05 0.285 8 1.22 11.07
10/27/2022 4:00:00 PM 12.18 53.924 0.285 7.97 1.22 11
10/27/2022 4:15:00 PM 12.12 53.816 0.285 7.95 1.29 10.98
10/27/2022 4:30:00 PM 12.05 53.69 0.284 7.93 1.26 10.94
10/27/2022 4:45:00 PM 11.98 53.564 0.284 7.91 1.32 10.84
10/27/2022 5:00:00 PM 11.92 53.456 0.284 7.89 1.44 10.8
10/27/2022 5:15:00 PM 11.86 53.348 0.284 7.86 1.34 10.69
10/27/2022 5:30:00 PM 11.8 53.24 0.283 7.83 1.3 10.61
10/27/2022 5:45:00 PM 11.73 53.114 0.284 7.8 1.35 10.51
10/27/2022 6:00:00 PM 11.67 53.006 0.283 7.76 1.33 10.4
10/27/2022 6:15:00 PM 11.62 52.916 0.284 7.74 1.37 10.31
10/27/2022 6:30:00 PM 11.57 52.826 0.284 7.71 1.31 10.21
10/27/2022 6:45:00 PM 11.51 52.718 0.283 7.68 1.4 10.13
10/27/2022 7:00:00 PM 11.46 52.628 0.283 7.66 1.37 10.09
10/27/2022 7:15:00 PM 11.41 52.538 0.283 7.64 1.74 10.07
10/27/2022 7:30:00 PM 11.34 52.412 0.283 7.63 1.36 10.01
10/27/2022 7:45:00 PM 11.3 52.34 0.283 7.61 1.34 10.04
10/27/2022 8:00:00 PM 11.23 52.214 0.283 7.6 1.32 9.99
10/27/2022 8:15:00 PM 11.16 52.088 0.283 7.59 1.32 9.99
10/27/2022 8:30:00 PM 11.09 51.962 0.283 7.57 1.34 9.97
10/27/2022 8:45:00 PM 11.02 51.836 0.283 7.56 1.28 9.98
10/27/2022 9:00:00 PM 10.95 51.71 0.283 7.56 1.36 10.01
10/27/2022 9:15:00 PM 10.87 51.566 0.283 7.55 1.39 10
10/27/2022 9:30:00 PM 10.8 51.44 0.283 7.54 1.41 10
10/27/2022 9:45:00 PM 10.73 51.314 0.283 7.54 1.36 10.07
10/27/2022 10:00:00 PM 10.63 51.134 0.283 7.53 1.4 10.08
10/27/2022 10:15:00 PM 10.55 50.99 0.284 7.53 1.48 10.11
10/27/2022 10:30:00 PM 10.46 50.828 0.284 7.52 1.37 10.13
10/27/2022 10:45:00 PM 10.37 50.666 0.283 7.52 1.34 10.12
10/27/2022 11:00:00 PM 10.29 50.522 0.283 7.51 1.36 10.17
10/27/2022 11:15:00 PM 10.21 50.378 0.284 7.51 1.37 10.2
10/27/2022 11:30:00 PM 10.12 50.216 0.284 7.5 1.49 10.23
10/27/2022 11:45:00 PM 10.05 50.09 0.284 7.5 1.52 10.25
10/28/2022 12:00:00 AM 9.97 49.946 0.284 7.5 1.45 10.29
10/28/2022 12:15:00 AM 9.87 49.766 0.284 7.49 1.42 10.28
10/28/2022 12:30:00 AM 9.8 49.64 0.284 7.49 1.48 10.32
10/28/2022 12:45:00 AM 9.72 49.496 0.284 7.49 1.48 10.35
10/28/2022 1:00:00 AM 9.65 49.37 0.284 7.49 1.58 10.37
10/28/2022 1:15:00 AM 9.57 49.226 0.284 7.49 1.53 10.41
10/28/2022 1:30:00 AM 9.49 49.082 0.284 7.48 1.59 10.41
10/28/2022 1:45:00 AM 9.42 48.956 0.284 7.48 1.52 10.44
10/28/2022 2:00:00 AM 9.34 48.812 0.284 7.48 1.57 10.45
10/28/2022 2:15:00 AM 9.28 48.704 0.284 7.48 1.5 10.49
10/28/2022 2:30:00 AM 9.21 48.578 0.284 7.47 1.58 10.51
10/28/2022 2:45:00 AM 9.12 48.416 0.284 7.47 1.55 10.5
10/28/2022 3:00:00 AM 9.07 48.326 0.284 7.47 1.65 10.55
10/28/2022 3:15:00 AM 9 48.2 0.284 7.47 1.59 10.57
10/28/2022 3:30:00 AM 8.92 48.056 0.284 7.47 1.54 10.58
10/28/2022 3:45:00 AM 8.87 47.966 0.283 7.47 1.53 10.63
10/28/2022 4:00:00 AM 8.79 47.822 0.283 7.47 1.54 10.64
10/28/2022 4:15:00 AM 8.74 47.732 0.283 7.47 1.57 10.66
10/28/2022 4:30:00 AM 8.66 47.588 0.29 7.46 1.47 10.65
10/28/2022 4:45:00 AM 8.61 47.498 0.292 7.46 1.54 10.7
10/28/2022 5:00:00 AM 8.55 47.39 0.293 7.46 1.54 10.73
10/28/2022 5:15:00 AM 8.48 47.264 0.293 7.46 1.61 10.72
10/28/2022 5:30:00 AM 8.43 47.174 0.294 7.46 1.52 10.75
10/28/2022 5:45:00 AM 8.38 47.084 0.293 7.46 1.62 10.81
10/28/2022 6:00:00 AM 8.32 46.976 0.293 7.46 1.54 10.81
10/28/2022 6:15:00 AM 8.26 46.868 0.291 7.46 1.5 10.83
10/28/2022 6:30:00 AM 8.19 46.742 0.291 7.46 1.6 10.84
10/28/2022 6:45:00 AM 8.15 46.67 0.283 7.46 1.74 10.87
10/28/2022 7:00:00 AM 8.1 46.58 0.283 7.46 1.46 10.88
10/28/2022 7:15:00 AM 8.05 46.49 0.283 7.46 1.58 10.89
10/28/2022 7:30:00 AM 8 46.4 0.283 7.46 1.73 10.94
10/28/2022 7:45:00 AM 7.96 46.328 0.283 7.46 1.65 10.97
10/28/2022 8:00:00 AM 7.93 46.274 0.283 7.47 1.75 11.07
10/28/2022 8:15:00 AM 7.91 46.238 0.283 7.49 1.63 11.21
10/28/2022 8:30:00 AM 7.89 46.202 0.282 7.51 1.64 11.36
10/28/2022 8:45:00 AM 7.87 46.166 0.282 7.53 1.75 11.47
10/28/2022 9:00:00 AM 7.86 46.148 0.282 7.54 1.85 11.59
10/28/2022 9:15:00 AM 7.86 46.148 0.282 7.57 1.57 11.7
10/28/2022 9:30:00 AM 7.88 46.184 0.281 7.6 1.44 11.89
10/28/2022 9:45:00 AM 7.91 46.238 0.281 7.63 1.47 12.05
10/28/2022 10:00:00 AM 7.95 46.31 0.28 7.67 1.5 12.14
10/28/2022 10:15:00 AM 8.01 46.418 0.28 7.71 1.5 12.25
10/28/2022 10:30:00 AM 8.06 46.508 0.28 7.75 1.48 12.37
10/28/2022 10:45:00 AM 8.12 46.616 0.28 7.78 1.43 12.46
10/28/2022 11:00:00 AM 8.19 46.742 0.28 7.82 1.49 12.53
10/28/2022 11:15:00 AM 8.27 46.886 0.279 7.85 1.54 12.62
10/28/2022 11:30:00 AM 8.39 47.102 0.279 7.9 1.49 12.72
10/28/2022 11:45:00 AM 8.5 47.3 0.279 7.94 1.48 12.79
10/28/2022 12:00:00 PM 8.61 47.498 0.279 7.99 1.48 12.83
10/28/2022 12:15:00 PM 8.7 47.66 0.279 8.02 1.55 12.83
10/28/2022 12:30:00 PM 8.86 47.948 0.278 8.07 1.5 12.87
10/28/2022 12:45:00 PM 8.98 48.164 0.278 8.09 1.51 12.83
10/28/2022 1:00:00 PM 9.13 48.434 0.278 8.12 1.49 12.81
10/28/2022 1:15:00 PM 9.29 48.722 0.278 8.14 1.42 12.75
10/28/2022 1:30:00 PM 9.51 49.118 0.278 8.18 1.48 12.75
10/28/2022 1:45:00 PM 9.68 49.424 0.278 8.21 1.5 12.75
10/28/2022 2:00:00 PM 9.85 49.73 0.278 8.24 1.47 12.7
10/28/2022 2:15:00 PM 9.95 49.91 0.278 8.25 1.48 12.61
10/28/2022 2:30:00 PM 10.09 50.162 0.278 8.26 1.46 12.55
10/28/2022 2:45:00 PM 10.15 50.27 0.278 8.26 1.45 12.45
10/28/2022 3:00:00 PM 10.2 50.36 0.278 8.26 1.48 12.41
10/28/2022 3:15:00 PM 10.25 50.45 0.278 8.28 1.46 12.39
10/28/2022 3:30:00 PM 10.27 50.486 0.278 8.3 1.57 12.38
10/28/2022 3:45:00 PM 10.3 50.54 0.278 8.31 1.46 12.39
10/28/2022 4:00:00 PM 10.3 50.54 0.278 8.31 1.45 12.29
10/28/2022 4:15:00 PM 10.32 50.576 0.278 8.31 1.59 12.27
10/28/2022 4:30:00 PM 10.34 50.612 0.278 8.29 1.42 12.21
10/28/2022 4:45:00 PM 10.36 50.648 0.278 8.26 1.41 12.1
10/28/2022 5:00:00 PM 10.37 50.666 0.278 8.21 1.46 11.95
10/28/2022 5:15:00 PM 10.38 50.684 0.278 8.16 1.45 11.78
10/28/2022 5:30:00 PM 10.39 50.702 0.279 8.11 1.58 11.6
10/28/2022 5:45:00 PM 10.37 50.666 0.279 8.04 1.5 11.38
10/28/2022 6:00:00 PM 10.35 50.63 0.279 7.98 1.52 11.2
10/28/2022 6:15:00 PM 10.33 50.594 0.279 7.92 1.63 10.98
10/28/2022 6:30:00 PM 10.31 50.558 0.279 7.87 1.5 10.86
10/28/2022 6:45:00 PM 10.27 50.486 0.28 7.83 1.53 10.7
10/28/2022 7:00:00 PM 10.25 50.45 0.28 7.79 1.55 10.57
10/28/2022 7:15:00 PM 10.24 50.432 0.28 7.76 1.6 10.53
10/28/2022 7:30:00 PM 10.21 50.378 0.28 7.74 1.54 10.5
10/28/2022 7:45:00 PM 10.19 50.342 0.28 7.71 1.57 10.41
10/28/2022 8:00:00 PM 10.18 50.324 0.281 7.69 1.67 10.4
10/28/2022 8:15:00 PM 10.17 50.306 0.281 7.67 1.71 10.34
10/28/2022 8:30:00 PM 10.13 50.234 0.281 7.66 1.51 10.3
10/28/2022 8:45:00 PM 10.1 50.18 0.282 7.64 1.59 10.29
10/28/2022 9:00:00 PM 10.07 50.126 0.281 7.63 1.55 10.28
10/28/2022 9:15:00 PM 10.03 50.054 0.282 7.62 1.61 10.25
10/28/2022 9:30:00 PM 9.99 49.982 0.282 7.61 1.61 10.28
10/28/2022 9:45:00 PM 9.91 49.838 0.282 7.6 1.87 10.25
10/28/2022 10:00:00 PM 9.86 49.748 0.282 7.6 1.58 10.29
10/28/2022 10:15:00 PM 9.78 49.604 0.282 7.59 1.59 10.3
10/28/2022 10:30:00 PM 9.72 49.496 0.282 7.58 1.6 10.27
10/28/2022 10:45:00 PM 9.65 49.37 0.282 7.57 1.59 10.29
10/28/2022 11:00:00 PM 9.59 49.262 0.283 7.56 1.64 10.32
10/28/2022 11:15:00 PM 9.53 49.154 0.283 7.56 1.65 10.34
10/28/2022 11:30:00 PM 9.46 49.028 0.283 7.55 1.63 10.36
10/28/2022 11:45:00 PM 9.39 48.902 0.283 7.55 1.64 10.42
10/29/2022 12:00:00 AM 9.31 48.758 0.283 7.54 1.73 10.43
10/29/2022 12:15:00 AM 9.23 48.614 0.283 7.54 1.82 10.46
10/29/2022 12:30:00 AM 9.16 48.488 0.283 7.54 1.63 10.49
10/29/2022 12:45:00 AM 9.07 48.326 0.283 7.53 1.71 10.5
10/29/2022 1:00:00 AM 8.99 48.182 0.283 7.52 1.72 10.53
10/29/2022 1:15:00 AM 8.9 48.02 0.284 7.52 1.65 10.53
10/29/2022 1:30:00 AM 8.82 47.876 0.284 7.52 1.57 10.54
10/29/2022 1:45:00 AM 8.74 47.732 0.284 7.52 1.6 10.57
10/29/2022 2:00:00 AM 8.67 47.606 0.285 7.51 1.65 10.58
10/29/2022 2:15:00 AM 8.59 47.462 0.285 7.51 1.66 10.64
10/29/2022 2:30:00 AM 8.51 47.318 0.285 7.5 1.63 10.64
10/29/2022 2:45:00 AM 8.44 47.192 0.285 7.5 1.59 10.65
10/29/2022 3:00:00 AM 8.37 47.066 0.285 7.5 1.62 10.71
10/29/2022 3:15:00 AM 8.29 46.922 0.286 7.5 1.56 10.73
10/29/2022 3:30:00 AM 8.22 46.796 0.285 7.49 1.61 10.76
10/29/2022 3:45:00 AM 8.14 46.652 0.286 7.49 1.64 10.77
10/29/2022 4:00:00 AM 8.08 46.544 0.286 7.49 1.62 10.8
10/29/2022 4:15:00 AM 8 46.4 0.286 7.48 1.77 10.83
10/29/2022 4:30:00 AM 7.94 46.292 0.286 7.48 1.62 10.85
10/29/2022 4:45:00 AM 7.88 46.184 0.286 7.48 1.68 10.89
10/29/2022 5:00:00 AM 7.8 46.04 0.286 7.48 1.61 10.88
10/29/2022 5:15:00 AM 7.74 45.932 0.286 7.48 1.63 10.91
10/29/2022 5:30:00 AM 7.67 45.806 0.286 7.47 1.62 10.93
10/29/2022 5:45:00 AM 7.6 45.68 0.286 7.47 1.69 10.95
10/29/2022 6:00:00 AM 7.55 45.59 0.286 7.47 1.62 10.98
10/29/2022 6:15:00 AM 7.48 45.464 0.286 7.47 1.58 10.98
10/29/2022 6:30:00 AM 7.43 45.374 0.285 7.47 1.6 11.02
10/29/2022 6:45:00 AM 7.36 45.248 0.285 7.47 1.6 11.04
10/29/2022 7:00:00 AM 7.3 45.14 0.285 7.46 1.72 11.03
10/29/2022 7:15:00 AM 7.24 45.032 0.285 7.47 1.64 11.08
10/29/2022 7:30:00 AM 7.18 44.924 0.285 7.46 1.75 11.1
10/29/2022 7:45:00 AM 7.12 44.816 0.29 7.47 1.69 11.16
10/29/2022 8:00:00 AM 7.08 44.744 0.293 7.47 1.61 11.22
10/29/2022 8:15:00 AM 7.03 44.654 0.294 7.48 1.64 11.31
10/29/2022 8:30:00 AM 6.98 44.564 0.293 7.49 1.68 11.42
10/29/2022 8:45:00 AM 6.95 44.51 0.293 7.5 1.65 11.49
10/29/2022 9:00:00 AM 6.93 44.474 0.293 7.52 1.63 11.63
10/29/2022 9:15:00 AM 6.91 44.438 0.292 7.53 1.62 11.71
10/29/2022 9:30:00 AM 6.91 44.438 0.29 7.55 1.74 11.82
10/29/2022 9:45:00 AM 6.93 44.474 0.29 7.57 1.58 11.91
10/29/2022 10:00:00 AM 6.98 44.564 0.291 7.6 1.66 12
10/29/2022 10:15:00 AM 7.04 44.672 0.29 7.63 1.73 12.24
10/29/2022 10:30:00 AM 7.11 44.798 0.29 7.65 1.66 12.27
10/29/2022 10:45:00 AM 7.21 44.978 0.29 7.69 1.69 12.45
10/29/2022 11:00:00 AM 7.32 45.176 0.29 7.72 1.61 12.52
10/29/2022 11:15:00 AM 7.45 45.41 0.29 7.75 1.53 12.62
10/29/2022 11:30:00 AM 7.57 45.626 0.29 7.79 1.62 12.68
10/29/2022 11:45:00 AM 7.71 45.878 0.29 7.83 1.73 12.71
10/29/2022 12:00:00 PM 7.86 46.148 0.29 7.86 1.56 12.82
10/29/2022 12:15:00 PM 8.03 46.454 0.29 7.91 1.67 12.88
10/29/2022 12:30:00 PM 8.19 46.742 0.29 7.93 1.6 12.85
10/29/2022 12:45:00 PM 8.37 47.066 0.29 7.97 1.6 12.87
10/29/2022 1:00:00 PM 8.56 47.408 0.29 8 1.61 12.85
10/29/2022 1:15:00 PM 8.79 47.822 0.29 8.04 1.63 12.88
10/29/2022 1:30:00 PM 8.99 48.182 0.29 8.08 1.53 12.88
10/29/2022 1:45:00 PM 9.2 48.56 0.289 8.11 1.58 12.83
10/29/2022 2:00:00 PM 9.37 48.866 0.29 8.14 1.57 12.77
10/29/2022 2:15:00 PM 9.52 49.136 0.289 8.17 1.52 12.74
10/29/2022 2:30:00 PM 9.6 49.28 0.289 8.17 1.5 12.66
10/29/2022 2:45:00 PM 9.69 49.442 0.288 8.18 1.62 12.54
10/29/2022 3:00:00 PM 9.74 49.532 0.288 8.18 1.45 12.53
10/29/2022 3:15:00 PM 9.73 49.514 0.288 8.16 1.59 12.39
10/29/2022 3:30:00 PM 9.72 49.496 0.287 8.15 1.61 12.33
10/29/2022 3:45:00 PM 9.7 49.46 0.287 8.13 1.55 12.22
10/29/2022 4:00:00 PM 9.68 49.424 0.287 8.1 1.48 12.1
10/29/2022 4:15:00 PM 9.68 49.424 0.286 8.09 1.53 12.05
10/29/2022 4:30:00 PM 9.67 49.406 0.284 8.05 1.52 11.94
10/29/2022 4:45:00 PM 9.66 49.388 0.284 8.03 1.58 11.85
10/29/2022 5:00:00 PM 9.66 49.388 0.284 8.01 1.56 11.79
10/29/2022 5:15:00 PM 9.65 49.37 0.282 7.98 1.56 11.66
10/29/2022 5:30:00 PM 9.62 49.316 0.282 7.94 1.52 11.52
10/29/2022 5:45:00 PM 9.61 49.298 0.282 7.91 1.52 11.41
10/29/2022 6:00:00 PM 9.59 49.262 0.282 7.87 1.54 11.26
10/29/2022 6:15:00 PM 9.56 49.208 0.283 7.83 1.57 11.11
10/29/2022 6:30:00 PM 9.53 49.154 0.283 7.78 1.65 10.99
10/29/2022 6:45:00 PM 9.49 49.082 0.283 7.75 1.59 10.89
10/29/2022 7:00:00 PM 9.46 49.028 0.283 7.73 1.61 10.79
10/29/2022 7:15:00 PM 9.43 48.974 0.283 7.7 1.63 10.7
10/29/2022 7:30:00 PM 9.41 48.938 0.284 7.68 1.62 10.7
10/29/2022 7:45:00 PM 9.38 48.884 0.284 7.67 1.6 10.62
10/29/2022 8:00:00 PM 9.33 48.794 0.285 7.65 1.66 10.57
10/29/2022 8:15:00 PM 9.3 48.74 0.285 7.63 1.57 10.55
10/29/2022 8:30:00 PM 9.27 48.686 0.286 7.62 1.55 10.51
10/29/2022 8:45:00 PM 9.23 48.614 0.286 7.61 1.53 10.51
10/29/2022 9:00:00 PM 9.18 48.524 0.287 7.6 1.59 10.48
10/29/2022 9:15:00 PM 9.14 48.452 0.288 7.59 1.64 10.5
10/29/2022 9:30:00 PM 9.1 48.38 0.288 7.58 1.56 10.49
10/29/2022 9:45:00 PM 9.06 48.308 0.288 7.57 1.58 10.53
10/29/2022 10:00:00 PM 9.01 48.218 0.289 7.57 1.58 10.52
10/29/2022 10:15:00 PM 8.95 48.11 0.289 7.57 1.66 10.54
10/29/2022 10:30:00 PM 8.88 47.984 0.289 7.56 2.41 10.54
10/29/2022 10:45:00 PM 8.8 47.84 0.289 7.55 2.53 10.54
10/29/2022 11:00:00 PM 8.74 47.732 0.289 7.55 1.49 10.55
10/29/2022 11:15:00 PM 8.67 47.606 0.289 7.54 1.66 10.6
10/29/2022 11:30:00 PM 8.59 47.462 0.289 7.53 1.54 10.58
10/29/2022 11:45:00 PM 8.53 47.354 0.289 7.53 1.67 10.61
10/30/2022 12:00:00 AM 8.46 47.228 0.289 7.53 1.58 10.66
10/30/2022 12:15:00 AM 8.39 47.102 0.289 7.53 1.54 10.68
10/30/2022 12:30:00 AM 8.32 46.976 0.289 7.53 1.54 10.71
10/30/2022 12:45:00 AM 8.24 46.832 0.289 7.52 1.53 10.72
10/30/2022 1:00:00 AM 8.16 46.688 0.289 7.52 1.54 10.73
10/30/2022 1:15:00 AM 8.08 46.544 0.289 7.52 1.48 10.76
10/30/2022 1:30:00 AM 8.02 46.436 0.289 7.52 1.53 10.82
10/30/2022 1:45:00 AM 7.93 46.274 0.289 7.51 1.55 10.79
10/30/2022 2:00:00 AM 7.86 46.148 0.289 7.51 1.54 10.83
10/30/2022 2:15:00 AM 7.77 45.986 0.289 7.5 1.59 10.84
10/30/2022 2:30:00 AM 7.68 45.824 0.289 7.5 1.54 10.87
10/30/2022 2:45:00 AM 7.63 45.734 0.289 7.5 1.51 10.94
10/30/2022 3:00:00 AM 7.54 45.572 0.289 7.5 1.56 10.93
10/30/2022 3:15:00 AM 7.47 45.446 0.289 7.49 1.58 10.96
10/30/2022 3:30:00 AM 7.39 45.302 0.29 7.49 1.57 10.99
10/30/2022 3:45:00 AM 7.32 45.176 0.289 7.49 1.56 11.01
10/30/2022 4:00:00 AM 7.25 45.05 0.289 7.49 1.61 11.05
10/30/2022 4:15:00 AM 7.18 44.924 0.29 7.48 1.59 11.08
10/30/2022 4:30:00 AM 7.1 44.78 0.29 7.48 1.65 11.08
10/30/2022 4:45:00 AM 7.03 44.654 0.29 7.48 1.57 11.14
10/30/2022 5:00:00 AM 6.95 44.51 0.289 7.48 1.98 11.11
10/30/2022 5:15:00 AM 6.87 44.366 0.289 7.48 1.58 11.14
10/30/2022 5:30:00 AM 6.81 44.258 0.289 7.47 1.53 11.15
10/30/2022 5:45:00 AM 6.75 44.15 0.289 7.47 1.52 11.21
10/30/2022 6:00:00 AM 6.68 44.024 0.289 7.47 1.56 11.22
10/30/2022 6:15:00 AM 6.62 43.916 0.289 7.47 1.61 11.24
10/30/2022 6:30:00 AM 6.55 43.79 0.289 7.47 1.59 11.27
10/30/2022 6:45:00 AM 6.48 43.664 0.289 7.46 1.59 11.29
10/30/2022 7:00:00 AM 6.41 43.538 0.288 7.46 1.52 11.3
10/30/2022 7:15:00 AM 6.35 43.43 0.288 7.46 1.61 11.32
10/30/2022 7:30:00 AM 6.29 43.322 0.288 7.46 1.76 11.37
10/30/2022 7:45:00 AM 6.23 43.214 0.288 7.47 2.78 11.43
10/30/2022 8:00:00 AM 6.17 43.106 0.288 7.47 1.53 11.52
10/30/2022 8:15:00 AM 6.14 43.052 0.288 7.48 1.6 11.64
10/30/2022 8:30:00 AM 6.1 42.98 0.287 7.5 1.62 11.76
10/30/2022 8:45:00 AM 6.07 42.926 0.287 7.51 1.56 11.88
10/30/2022 9:00:00 AM 6.06 42.908 0.287 7.53 1.61 12.04
10/30/2022 9:15:00 AM 6.04 42.872 0.287 7.56 1.53 12.16
10/30/2022 9:30:00 AM 6.06 42.908 0.287 7.58 1.55 12.33
10/30/2022 9:45:00 AM 6.09 42.962 0.286 7.61 1.55 12.49
10/30/2022 10:00:00 AM 6.16 43.088 0.286 7.65 1.58 12.71
10/30/2022 10:15:00 AM 6.25 43.25 0.286 7.69 1.57 12.88
10/30/2022 10:30:00 AM 6.31 43.358 0.286 7.73 1.57 12.96
10/30/2022 10:45:00 AM 6.38 43.484 0.286 7.77 1.78 13.05
10/30/2022 11:00:00 AM 6.51 43.718 0.286 7.8 1.58 13.15
10/30/2022 11:15:00 AM 6.64 43.952 0.286 7.85 1.56 13.24
10/30/2022 11:30:00 AM 6.75 44.15 0.287 7.89 1.55 13.3
10/30/2022 11:45:00 AM 6.88 44.384 0.287 7.92 1.57 13.29
10/30/2022 12:00:00 PM 7.04 44.672 0.287 7.95 1.52 13.31
10/30/2022 12:15:00 PM 7.21 44.978 0.287 7.98 1.53 13.32
10/30/2022 12:30:00 PM 7.38 45.284 0.287 8.03 1.51 13.33
10/30/2022 12:45:00 PM 7.56 45.608 0.287 8.06 1.49 13.31
10/30/2022 1:00:00 PM 7.78 46.004 0.287 8.1 1.48 13.29
10/30/2022 1:15:00 PM 8.05 46.49 0.287 8.15 1.51 13.3
10/30/2022 1:30:00 PM 8.27 46.886 0.287 8.19 1.53 13.27
10/30/2022 1:45:00 PM 8.51 47.318 0.286 8.22 1.52 13.23
10/30/2022 2:00:00 PM 8.67 47.606 0.286 8.25 1.53 13.15
10/30/2022 2:15:00 PM 8.87 47.966 0.286 8.28 1.49 13.12
10/30/2022 2:30:00 PM 8.99 48.182 0.286 8.3 1.49 13.07
10/30/2022 2:45:00 PM 9.07 48.326 0.286 8.33 1.51 13
10/30/2022 3:00:00 PM 9.16 48.488 0.286 8.35 1.59 12.98
10/30/2022 3:15:00 PM 9.17 48.506 0.285 8.35 1.49 12.91
10/30/2022 3:30:00 PM 9.19 48.542 0.286 8.35 2.43 12.85
10/30/2022 3:45:00 PM 9.19 48.542 0.286 8.35 1.53 12.79
10/30/2022 4:00:00 PM 9.19 48.542 0.286 8.34 1.44 12.71
10/30/2022 4:15:00 PM 9.19 48.542 0.286 8.33 1.45 12.62
10/30/2022 4:30:00 PM 9.19 48.542 0.286 8.31 1.42 12.51
10/30/2022 4:45:00 PM 9.19 48.542 0.286 8.27 1.48 12.38
10/30/2022 5:00:00 PM 9.18 48.524 0.286 8.22 1.42 12.24
10/30/2022 5:15:00 PM 9.18 48.524 0.286 8.21 1.45 12.16
10/30/2022 5:30:00 PM 9.19 48.542 0.287 8.16 1.48 12.01
10/30/2022 5:45:00 PM 9.17 48.506 0.287 8.1 1.52 11.8
10/30/2022 6:00:00 PM 9.14 48.452 0.287 8.03 1.61 11.57
10/30/2022 6:15:00 PM 9.11 48.398 0.288 7.96 1.52 11.36
10/30/2022 6:30:00 PM 9.08 48.344 0.288 7.9 1.49 11.2
10/30/2022 6:45:00 PM 9.07 48.326 0.289 7.86 1.53 11.1
10/30/2022 7:00:00 PM 9.04 48.272 0.289 7.82 1.57 10.97
10/30/2022 7:15:00 PM 8.99 48.182 0.289 7.78 1.56 10.87
10/30/2022 7:30:00 PM 8.97 48.146 0.289 7.75 1.65 10.78
10/30/2022 7:45:00 PM 8.94 48.092 0.29 7.73 1.73 10.72
10/30/2022 8:00:00 PM 8.93 48.074 0.29 7.71 1.61 10.68
10/30/2022 8:15:00 PM 8.91 48.038 0.291 7.68 1.59 10.62
10/30/2022 8:30:00 PM 8.9 48.02 0.291 7.67 1.59 10.6
10/30/2022 8:45:00 PM 8.88 47.984 0.291 7.65 1.62 10.55
10/30/2022 9:00:00 PM 8.87 47.966 0.291 7.64 1.59 10.53
10/30/2022 9:15:00 PM 8.86 47.948 0.291 7.62 1.7 10.49
10/30/2022 9:30:00 PM 8.85 47.93 0.292 7.61 1.72 10.47
10/30/2022 9:45:00 PM 8.85 47.93 0.292 7.6 1.69 10.49
10/30/2022 10:00:00 PM 8.83 47.894 0.292 7.59 1.61 10.47
10/30/2022 10:15:00 PM 8.84 47.912 0.292 7.59 1.6 10.49
10/30/2022 10:30:00 PM 8.82 47.876 0.292 7.58 1.61 10.5
10/30/2022 10:45:00 PM 8.79 47.822 0.293 7.57 1.57 10.48
10/30/2022 11:00:00 PM 8.75 47.75 0.293 7.57 1.57 10.47
10/30/2022 11:15:00 PM 8.71 47.678 0.293 7.56 1.55 10.49
10/30/2022 11:30:00 PM 8.67 47.606 0.293 7.56 1.59 10.49
10/30/2022 11:45:00 PM 8.63 47.534 0.292 7.55 1.65 10.5
10/31/2022 12:00:00 AM 8.58 47.444 0.293 7.54 1.57 10.5
10/31/2022 12:15:00 AM 8.54 47.372 0.293 7.54 1.84 10.54
10/31/2022 12:30:00 AM 8.49 47.282 0.293 7.53 1.64 10.53
10/31/2022 12:45:00 AM 8.42 47.156 0.293 7.53 1.66 10.52
10/31/2022 1:00:00 AM 8.39 47.102 0.293 7.53 1.71 10.55
10/31/2022 1:15:00 AM 8.34 47.012 0.293 7.53 1.74 10.59
10/31/2022 1:30:00 AM 8.28 46.904 0.293 7.52 1.74 10.57
10/31/2022 1:45:00 AM 8.27 46.886 0.293 7.52 1.67 10.62
10/31/2022 2:00:00 AM 8.26 46.868 0.293 7.52 1.7 10.64
10/31/2022 2:15:00 AM 8.23 46.814 0.293 7.52 1.7 10.61
10/31/2022 2:30:00 AM 8.19 46.742 0.293 7.52 1.71 10.68
10/31/2022 2:45:00 AM 8.13 46.634 0.292 7.51 1.72 10.64
10/31/2022 3:00:00 AM 8.08 46.544 0.293 7.51 1.67 10.69
10/31/2022 3:15:00 AM 8.03 46.454 0.293 7.51 1.71 10.7
10/31/2022 3:30:00 AM 7.98 46.364 0.293 7.5 1.76 10.71
10/31/2022 3:45:00 AM 7.93 46.274 0.292 7.5 1.91 10.71
10/31/2022 4:00:00 AM 7.88 46.184 0.292 7.5 1.69 10.73
10/31/2022 4:15:00 AM 7.83 46.094 0.293 7.5 1.73 10.73
10/31/2022 4:30:00 AM 7.77 45.986 0.292 7.49 1.73 10.72
10/31/2022 4:45:00 AM 7.73 45.914 0.293 7.49 1.75 10.76
10/31/2022 5:00:00 AM 7.68 45.824 0.293 7.49 1.68 10.77
10/31/2022 5:15:00 AM 7.63 45.734 0.293 7.49 1.65 10.8
10/31/2022 5:30:00 AM 7.59 45.662 0.293 7.49 1.63 10.81
10/31/2022 5:45:00 AM 7.57 45.626 0.293 7.49 1.74 10.85
10/31/2022 6:00:00 AM 7.51 45.518 0.293 7.49 1.71 10.85
10/31/2022 6:15:00 AM 7.47 45.446 0.293 7.48 1.74 10.85
10/31/2022 6:30:00 AM 7.45 45.41 0.293 7.48 1.67 10.89
10/31/2022 6:45:00 AM 7.43 45.374 0.293 7.48 1.69 10.88
10/31/2022 7:00:00 AM 7.4 45.32 0.292 7.48 1.68 10.91
10/31/2022 7:15:00 AM 7.37 45.266 0.292 7.48 1.78 10.89
10/31/2022 7:30:00 AM 7.33 45.194 0.292 7.48 1.68 10.93
10/31/2022 7:45:00 AM 7.31 45.158 0.292 7.48 1.71 10.97
10/31/2022 8:00:00 AM 7.29 45.122 0.292 7.49 1.7 11.06
10/31/2022 8:15:00 AM 7.28 45.104 0.292 7.5 1.65 11.18
10/31/2022 8:30:00 AM 7.27 45.086 0.291 7.51 1.65 11.28
10/31/2022 8:45:00 AM 7.26 45.068 0.291 7.53 1.74 11.4
10/31/2022 9:00:00 AM 7.26 45.068 0.291 7.54 1.75 11.53
10/31/2022 9:15:00 AM 7.26 45.068 0.29 7.56 1.72 11.61
10/31/2022 9:30:00 AM 7.29 45.122 0.29 7.58 1.82 11.75
10/31/2022 9:45:00 AM 7.34 45.212 0.29 7.61 1.58 11.92
10/31/2022 10:00:00 AM 7.46 45.428 0.289 7.67 1.57 12.27
10/31/2022 10:15:00 AM 7.65 45.77 0.288 7.74 1.57 12.63
10/31/2022 10:30:00 AM 7.82 46.076 0.288 7.81 1.53 12.81
10/31/2022 10:45:00 AM 7.94 46.292 0.288 7.86 1.54 12.93
10/31/2022 11:00:00 AM 8.07 46.526 0.287 7.92 1.53 12.99
10/31/2022 11:15:00 AM 8.22 46.796 0.287 7.98 1.51 13.07
10/31/2022 11:30:00 AM 8.37 47.066 0.287 8.03 1.57 13.19
10/31/2022 11:45:00 AM 8.54 47.372 0.287 8.11 1.86 13.3
10/31/2022 12:00:00 PM 8.72 47.696 0.286 8.19 1.52 13.37
10/31/2022 12:15:00 PM 8.85 47.93 0.286 8.26 1.51 13.38
10/31/2022 12:30:00 PM 8.98 48.164 0.286 8.29 1.45 13.34
10/31/2022 12:45:00 PM 9.08 48.344 0.286 8.33 1.74 13.29
10/31/2022 1:00:00 PM 9.22 48.596 0.285 8.38 1.49 13.34
10/31/2022 1:15:00 PM 9.35 48.83 0.285 8.44 1.57 13.34
10/31/2022 1:30:00 PM 9.43 48.974 0.285 8.48 1.49 13.32
10/31/2022 1:45:00 PM 9.51 49.118 0.284 8.5 1.61 13.27
10/31/2022 2:00:00 PM 9.58 49.244 0.284 8.52 1.54 13.2
10/31/2022 2:15:00 PM 9.67 49.406 0.284 8.57 1.54 13.26
10/31/2022 2:30:00 PM 9.76 49.568 0.283 8.6 1.59 13.23
10/31/2022 2:45:00 PM 9.88 49.784 0.283 8.62 2.19 13.21
10/31/2022 3:00:00 PM 9.96 49.928 0.283 8.66 1.53 13.21
10/31/2022 3:15:00 PM 10.04 50.072 0.283 8.68 1.62 13.1
10/31/2022 3:30:00 PM 10.09 50.162 0.284 8.67 1.55 12.99
10/31/2022 3:45:00 PM 10.2 50.36 0.284 8.7 1.61 13.02
10/31/2022 4:00:00 PM 10.26 50.468 0.284 8.73 1.58 12.99
10/31/2022 4:15:00 PM 10.31 50.558 0.284 8.71 1.7 12.77
10/31/2022 4:30:00 PM 10.35 50.63 0.284 8.68 1.52 12.59
10/31/2022 4:45:00 PM 10.4 50.72 0.284 8.64 1.66 12.41
10/31/2022 5:00:00 PM 10.45 50.81 0.284 8.6 1.09 12.25
10/31/2022 5:15:00 PM 10.48 50.864 0.285 8.55 1.15 12.02
10/31/2022 5:30:00 PM 10.5 50.9 0.285 8.44 1.09 11.71
10/31/2022 5:45:00 PM 10.53 50.954 0.285 8.33 1.15 11.44
10/31/2022 6:00:00 PM 10.55 50.99 0.286 8.21 1.24 11.15
10/31/2022 6:15:00 PM 10.57 51.026 0.286 8.12 2.51 10.95
10/31/2022 6:30:00 PM 10.59 51.062 0.286 8.04 1.14 10.75
10/31/2022 6:45:00 PM 10.61 51.098 0.287 7.97 1.06 10.59
10/31/2022 7:00:00 PM 10.64 51.152 0.287 7.91 1.11 10.45
10/31/2022 7:15:00 PM 10.67 51.206 0.287 7.87 1.08 10.35
10/31/2022 7:30:00 PM 10.69 51.242 0.287 7.82 1.13 10.25
10/31/2022 7:45:00 PM 10.71 51.278 0.287 7.79 1.09 10.16
10/31/2022 8:00:00 PM 10.73 51.314 0.287 7.75 1.02 10.08
10/31/2022 8:15:00 PM 10.77 51.386 0.287 7.73 1.07 10.06
10/31/2022 8:30:00 PM 10.8 51.44 0.287 7.71 1.13 10
10/31/2022 8:45:00 PM 10.82 51.476 0.287 7.68 1.1 9.93
10/31/2022 9:00:00 PM 10.86 51.548 0.287 7.67 1.09 9.92
10/31/2022 9:15:00 PM 10.89 51.602 0.287 7.65 1.11 9.9
10/31/2022 9:30:00 PM 10.9 51.62 0.288 7.63 1.04 9.85
10/31/2022 9:45:00 PM 10.94 51.692 0.288 7.63 1.75 9.84
10/31/2022 10:00:00 PM 10.96 51.728 0.288 7.61 1.86 9.82
10/31/2022 10:15:00 PM 10.99 51.782 0.289 7.6 1.65 9.81
10/31/2022 10:30:00 PM 11.01 51.818 0.289 7.59 1.15 9.8
10/31/2022 10:45:00 PM 11.02 51.836 0.289 7.58 1.19 9.77
10/31/2022 11:00:00 PM 11.05 51.89 0.29 7.57 1.44 9.78
10/31/2022 11:15:00 PM 11.06 51.908 0.29 7.56 2.05 9.73
10/31/2022 11:30:00 PM 11.09 51.962 0.29 7.56 2.6 9.73
10/31/2022 11:45:00 PM 11.09 51.962 0.29 7.55 1.9 9.75
11/1/2022 12:00:00 AM 11.1 51.98 0.29 7.54 1.79 9.72
11/1/2022 12:15:00 AM 11.11 51.998 0.29 7.53 1.73 9.7
11/1/2022 12:30:00 AM 11.12 52.016 0.289 7.53 2.32 9.71
11/1/2022 12:45:00 AM 11.14 52.052 0.29 7.52 2.84 9.72
11/1/2022 1:00:00 AM 11.14 52.052 0.289 7.52 1.06 9.67
11/1/2022 1:15:00 AM 11.14 52.052 0.289 7.51 1.14 9.67
11/1/2022 1:30:00 AM 11.15 52.07 0.29 7.51 1.11 9.7
11/1/2022 1:45:00 AM 11.15 52.07 0.29 7.5 1.11 9.67
11/1/2022 2:00:00 AM 11.15 52.07 0.29 7.5 1.09 9.68
11/1/2022 2:15:00 AM 11.16 52.088 0.288 7.49 1.12 9.68
11/1/2022 2:30:00 AM 11.16 52.088 0.288 7.48 1.13 9.66
11/1/2022 2:45:00 AM 11.16 52.088 0.288 7.48 1.12 9.65
11/1/2022 3:00:00 AM 11.16 52.088 0.288 7.48 1.2 9.69
11/1/2022 3:15:00 AM 11.16 52.088 0.287 7.47 3.04 9.69
11/1/2022 3:30:00 AM 11.16 52.088 0.288 7.47 1.13 9.67
11/1/2022 3:45:00 AM 11.16 52.088 0.288 7.47 1.13 9.71
11/1/2022 4:00:00 AM 11.16 52.088 0.288 7.46 1.28 9.71
11/1/2022 4:15:00 AM 11.16 52.088 0.288 7.46 1.25 9.65
11/1/2022 4:30:00 AM 11.16 52.088 0.288 7.45 1.22 9.67
11/1/2022 4:45:00 AM 11.15 52.07 0.289 7.44 1.28 9.63
11/1/2022 5:00:00 AM 11.15 52.07 0.29 7.45 1.33 9.67
11/1/2022 5:15:00 AM 11.14 52.052 0.291 7.44 1.28 9.66
11/1/2022 5:30:00 AM 11.14 52.052 0.292 7.45 1.21 9.71
11/1/2022 5:45:00 AM 11.13 52.034 0.292 7.44 1.22 9.69
11/1/2022 6:00:00 AM 11.13 52.034 0.292 7.44 1.24 9.68
11/1/2022 6:15:00 AM 11.12 52.016 0.293 7.44 1.15 9.75
11/1/2022 6:30:00 AM 11.12 52.016 0.293 7.44 1.18 9.69
11/1/2022 6:45:00 AM 11.11 51.998 0.294 7.44 1.36 9.71
11/1/2022 7:00:00 AM 11.11 51.998 0.295 7.44 1.28 9.71
11/1/2022 7:15:00 AM 11.1 51.98 0.296 7.44 1.16 9.74
11/1/2022 7:30:00 AM 11.1 51.98 0.296 7.43 1.19 9.74
11/1/2022 7:45:00 AM 11.1 51.98 0.297 7.43 1.26 9.74
11/1/2022 8:00:00 AM 11.1 51.98 0.298 7.44 1.12 9.77
11/1/2022 8:15:00 AM 11.1 51.98 0.299 7.44 1.13 9.84
11/1/2022 8:30:00 AM 11.1 51.98 0.299 7.45 1.15 9.92
11/1/2022 8:45:00 AM 11.11 51.998 0.299 7.46 1.12 10.01
11/1/2022 9:00:00 AM 11.14 52.052 0.298 7.49 1.08 10.26
11/1/2022 9:15:00 AM 11.18 52.124 0.303 7.53 1.09 10.5
11/1/2022 9:30:00 AM 11.22 52.196 0.304 7.56 1.14 10.74
11/1/2022 9:45:00 AM 11.32 52.376 0.304 7.63 1.18 11.23
11/1/2022 10:00:00 AM 11.42 52.556 0.304 7.71 1.12 11.41
11/1/2022 10:15:00 AM 11.49 52.682 0.304 7.77 1.12 11.67
11/1/2022 10:30:00 AM 11.54 52.772 0.303 7.83 1.23 11.76
11/1/2022 10:45:00 AM 11.56 52.808 0.303 7.84 1.15 11.68
11/1/2022 11:00:00 AM 11.61 52.898 0.303 7.85 1.21 11.66
11/1/2022 11:15:00 AM 11.66 52.988 0.302 7.89 1.14 11.79
11/1/2022 11:30:00 AM 11.74 53.132 0.301 7.96 1.14 11.92
11/1/2022 11:45:00 AM 11.77 53.186 0.3 8 1.12 11.83
11/1/2022 12:00:00 PM 11.78 53.204 0.3 7.98 1.13 11.68
11/1/2022 12:15:00 PM 11.78 53.204 0.299 7.94 1.23 11.46
11/1/2022 12:30:00 PM 11.78 53.204 0.299 7.92 1.16 11.37
11/1/2022 12:45:00 PM 11.79 53.222 0.298 7.92 1.18 11.35
11/1/2022 1:00:00 PM 11.8 53.24 0.297 7.91 1.15 11.23
11/1/2022 1:15:00 PM 11.81 53.258 0.295 7.88 1.17 11.06
11/1/2022 1:30:00 PM 11.8 53.24 0.294 7.85 1.22 10.93
11/1/2022 1:45:00 PM 11.8 53.24 0.295 7.83 1.2 10.92
11/1/2022 2:00:00 PM 11.8 53.24 0.295 7.81 1.35 10.84
11/1/2022 2:15:00 PM 11.82 53.276 0.295 7.82 1.81 10.88
11/1/2022 2:30:00 PM 11.83 53.294 0.295 7.82 2.52 10.84
11/1/2022 2:45:00 PM 11.85 53.33 0.296 7.82 3.17 10.96
11/1/2022 3:00:00 PM 11.88 53.384 0.297 7.87 2.21 11.14
11/1/2022 3:15:00 PM 11.91 53.438 0.297 7.9 1.99 11.2
11/1/2022 3:30:00 PM 11.94 53.492 0.297 7.91 2.05 11.28
11/1/2022 3:45:00 PM 12.01 53.618 0.298 8.01 1.97 11.56
11/1/2022 4:00:00 PM 12.03 53.654 0.297 7.97 1.76 11.41
11/1/2022 4:15:00 PM 12.02 53.636 0.298 7.99 1.57 11.39
11/1/2022 4:30:00 PM 12.04 53.672 0.298 8 1.42 11.39
11/1/2022 4:45:00 PM 12.06 53.708 0.298 8 1.4 11.37
11/1/2022 5:00:00 PM 12.09 53.762 0.299 8.01 1.43 11.33
11/1/2022 5:15:00 PM 12.1 53.78 0.301 7.98 1.42 11.17
11/1/2022 5:30:00 PM 12.1 53.78 0.303 7.93 1.38 10.98
11/1/2022 5:45:00 PM 12.07 53.726 0.305 7.88 1.61 10.79
11/1/2022 6:00:00 PM 12.04 53.672 0.305 7.83 1.86 10.57
11/1/2022 6:15:00 PM 12.03 53.654 0.306 7.78 1.71 10.38
11/1/2022 6:30:00 PM 11.99 53.582 0.307 7.74 1.91 10.22
11/1/2022 6:45:00 PM 11.94 53.492 0.311 7.7 2.08 10.11
11/1/2022 7:00:00 PM 11.9 53.42 0.32 7.67 2.73 9.96
11/1/2022 7:15:00 PM 11.84 53.312 0.337 7.63 3.17 9.81
11/1/2022 7:30:00 PM 11.81 53.258 0.351 7.61 3.63 9.86
11/1/2022 7:45:00 PM 11.79 53.222 0.357 7.59 3.46 9.74
11/1/2022 8:00:00 PM 11.75 53.15 0.36 7.59 3.58 9.8
11/1/2022 8:15:00 PM 11.71 53.078 0.359 7.58 3.17 9.8
11/1/2022 8:30:00 PM 11.69 53.042 0.358 7.56 4.17 9.78
11/1/2022 8:45:00 PM 11.66 52.988 0.357 7.55 3.06 9.78
11/1/2022 9:00:00 PM 11.61 52.898 0.357 7.54 2.79 9.77
11/1/2022 9:15:00 PM 11.59 52.862 0.357 7.54 2.71 9.75
11/1/2022 9:30:00 PM 11.56 52.808 0.357 7.53 3.05 9.81
11/1/2022 9:45:00 PM 11.54 52.772 0.357 7.53 3.28 9.77
11/1/2022 10:00:00 PM 11.52 52.736 0.359 7.52 3.07 9.76
11/1/2022 10:15:00 PM 11.48 52.664 0.362 7.51 3.3 9.77
11/1/2022 10:30:00 PM 11.43 52.574 0.365 7.51 2.69 9.86
11/1/2022 10:45:00 PM 11.39 52.502 0.367 7.52 2.82 9.88
11/1/2022 11:00:00 PM 11.36 52.448 0.368 7.5 2.78 9.77
11/1/2022 11:15:00 PM 11.33 52.394 0.367 7.5 2.7 9.86
11/1/2022 11:30:00 PM 11.29 52.322 0.366 7.49 2.85 9.82
11/1/2022 11:45:00 PM 11.25 52.25 0.362 7.49 2.68 9.86
11/2/2022 12:00:00 AM 11.21 52.178 0.358 7.5 2.54 9.86
11/2/2022 12:15:00 AM 11.16 52.088 0.353 7.49 2.89 9.82
11/2/2022 12:30:00 AM 11.12 52.016 0.347 7.48 3.15 9.85
11/2/2022 12:45:00 AM 11.07 51.926 0.341 7.48 3.39 9.88
11/2/2022 1:00:00 AM 11.02 51.836 0.335 7.48 2.97 9.89
11/2/2022 1:15:00 AM 10.98 51.764 0.331 7.48 2.87 9.89
11/2/2022 1:30:00 AM 10.92 51.656 0.326 7.48 3.12 9.92
11/2/2022 1:45:00 AM 10.86 51.548 0.322 7.48 3.02 9.95
11/2/2022 2:00:00 AM 10.81 51.458 0.318 7.47 2.73 9.96
11/2/2022 2:15:00 AM 10.77 51.386 0.315 7.47 2.83 9.98
11/2/2022 2:30:00 AM 10.74 51.332 0.312 7.47 2.71 10
11/2/2022 2:45:00 AM 10.71 51.278 0.31 7.47 2.78 9.99
11/2/2022 3:00:00 AM 10.67 51.206 0.308 7.46 2.8 10.02
11/2/2022 3:15:00 AM 10.64 51.152 0.306 7.46 2.87 10.05
11/2/2022 3:30:00 AM 10.61 51.098 0.304 7.46 2.69 10.07
11/2/2022 3:45:00 AM 10.56 51.008 0.303 7.46 2.49 10.08
11/2/2022 4:00:00 AM 10.51 50.918 0.302 7.45 2.52 10.11
11/2/2022 4:15:00 AM 10.46 50.828 0.3 7.45 2.37 10.08
11/2/2022 4:30:00 AM 10.43 50.774 0.299 7.45 2.33 10.12
11/2/2022 4:45:00 AM 10.4 50.72 0.299 7.45 2.31 10.14
11/2/2022 5:00:00 AM 10.37 50.666 0.298 7.44 2.4 10.16
11/2/2022 5:15:00 AM 10.32 50.576 0.298 7.44 2.49 10.19
11/2/2022 5:30:00 AM 10.27 50.486 0.297 7.45 2.33 10.21
11/2/2022 5:45:00 AM 10.22 50.396 0.296 7.45 2.21 10.23
11/2/2022 6:00:00 AM 10.2 50.36 0.296 7.44 2.24 10.22
11/2/2022 6:15:00 AM 10.18 50.324 0.295 7.44 2.25 10.28
11/2/2022 6:30:00 AM 10.15 50.27 0.295 7.44 2.28 10.27
11/2/2022 6:45:00 AM 10.13 50.234 0.294 7.44 2.22 10.28
11/2/2022 7:00:00 AM 10.1 50.18 0.294 7.44 2.32 10.32
11/2/2022 7:15:00 AM 10.07 50.126 0.293 7.44 2.21 10.34
11/2/2022 7:30:00 AM 10.03 50.054 0.293 7.44 2.13 10.35
11/2/2022 7:45:00 AM 10.01 50.018 0.293 7.45 2.12 10.36
11/2/2022 8:00:00 AM 10 50 0.292 7.45 2.21 10.44
11/2/2022 8:15:00 AM 9.97 49.946 0.292 7.46 2.24 10.52
11/2/2022 8:30:00 AM 9.95 49.91 0.292 7.47 2.27 10.62
11/2/2022 8:45:00 AM 9.92 49.856 0.291 7.49 2.17 10.7
11/2/2022 9:00:00 AM 9.91 49.838 0.291 7.49 2.25 10.78
11/2/2022 9:15:00 AM 9.91 49.838 0.29 7.51 3.51 10.92
11/2/2022 9:30:00 AM 9.92 49.856 0.29 7.53 2.89 10.97
11/2/2022 9:45:00 AM 9.94 49.892 0.29 7.54 3.05 10.96
11/2/2022 10:00:00 AM 9.97 49.946 0.289 7.56 2.51 11.13
11/2/2022 10:15:00 AM 10.03 50.054 0.289 7.58 2.57 11.3
11/2/2022 10:30:00 AM 10.12 50.216 0.288 7.63 2.88 11.42
11/2/2022 10:45:00 AM 10.2 50.36 0.288 7.65 2.61 11.54
11/2/2022 11:00:00 AM 10.3 50.54 0.287 7.7 2.16 11.63
11/2/2022 11:15:00 AM 10.4 50.72 0.287 7.74 2.14 11.76
11/2/2022 11:30:00 AM 10.52 50.936 0.287 7.78 2.07 11.88
11/2/2022 11:45:00 AM 10.66 51.188 0.286 7.82 2.3 11.98
11/2/2022 12:00:00 PM 10.76 51.368 0.286 7.84 2.05 12.03
11/2/2022 12:15:00 PM 10.91 51.638 0.286 7.91 2.03 12.06
11/2/2022 12:30:00 PM 11.01 51.818 0.286 7.94 2.32 12.04
11/2/2022 12:45:00 PM 11.14 52.052 0.286 7.98 2.06 12.04
11/2/2022 1:00:00 PM 11.32 52.376 0.285 8.01 2.04 12.06
11/2/2022 1:15:00 PM 11.46 52.628 0.285 8.04 1.97 12.07
11/2/2022 1:30:00 PM 11.61 52.898 0.285 8.08 2.04 12.06
11/2/2022 1:45:00 PM 11.73 53.114 0.285 8.11 2.04 11.99
11/2/2022 2:00:00 PM 11.84 53.312 0.285 8.13 2.01 11.98
11/2/2022 2:15:00 PM 11.91 53.438 0.284 8.14 2.05 11.85
11/2/2022 2:30:00 PM 11.98 53.564 0.284 8.16 1.96 11.83
11/2/2022 2:45:00 PM 12.02 53.636 0.284 8.15 2.08 11.73
11/2/2022 3:00:00 PM 12.05 53.69 0.284 8.13 2.15 11.65
11/2/2022 3:15:00 PM 12.07 53.726 0.284 8.15 2.12 11.58
11/2/2022 3:30:00 PM 12.08 53.744 0.284 8.12 2.15 11.49
11/2/2022 3:45:00 PM 12.1 53.78 0.284 8.1 2.05 11.42
11/2/2022 4:00:00 PM 12.12 53.816 0.284 8.09 2.09 11.32
11/2/2022 4:15:00 PM 12.13 53.834 0.284 8.06 1.98 11.21
11/2/2022 4:30:00 PM 12.14 53.852 0.284 8.03 2.12 11.13
11/2/2022 4:45:00 PM 12.15 53.87 0.284 8 2.08 11.02
11/2/2022 5:00:00 PM 12.15 53.87 0.284 7.96 2.1 10.87
11/2/2022 5:15:00 PM 12.14 53.852 0.284 7.92 2.2 10.76
11/2/2022 5:30:00 PM 12.12 53.816 0.285 7.88 2.14 10.62
11/2/2022 5:45:00 PM 12.1 53.78 0.285 7.83 2.1 10.44
11/2/2022 6:00:00 PM 12.07 53.726 0.285 7.79 2.12 10.31
11/2/2022 6:15:00 PM 12.04 53.672 0.285 7.75 2.2 10.19
11/2/2022 6:30:00 PM 12.01 53.618 0.285 7.71 2.09 10.09
11/2/2022 6:45:00 PM 11.97 53.546 0.285 7.68 2.13 10.01
11/2/2022 7:00:00 PM 11.93 53.474 0.286 7.66 2.26 9.95
11/2/2022 7:15:00 PM 11.88 53.384 0.286 7.64 2.08 9.91
11/2/2022 7:30:00 PM 11.83 53.294 0.286 7.62 2.08 9.88
11/2/2022 7:45:00 PM 11.77 53.186 0.286 7.6 1.97 9.86
11/2/2022 8:00:00 PM 11.71 53.078 0.287 7.59 2.21 9.86
11/2/2022 8:15:00 PM 11.65 52.97 0.287 7.58 2.07 9.85
11/2/2022 8:30:00 PM 11.58 52.844 0.287 7.57 1.97 9.87
11/2/2022 8:45:00 PM 11.51 52.718 0.287 7.57 1.99 9.87
11/2/2022 9:00:00 PM 11.44 52.592 0.287 7.55 3.19 9.89
11/2/2022 9:15:00 PM 11.36 52.448 0.288 7.55 2.24 9.9
11/2/2022 9:30:00 PM 11.28 52.304 0.287 7.54 2.14 9.92
11/2/2022 9:45:00 PM 11.2 52.16 0.287 7.53 3.87 9.93
11/2/2022 10:00:00 PM 11.12 52.016 0.287 7.53 2.66 9.92
11/2/2022 10:15:00 PM 11.05 51.89 0.288 7.53 2.27 9.97
11/2/2022 10:30:00 PM 10.96 51.728 0.288 7.52 2.12 10
11/2/2022 10:45:00 PM 10.88 51.584 0.288 7.52 2.21 10.03
11/2/2022 11:00:00 PM 10.79 51.422 0.288 7.52 1.8 10.05
11/2/2022 11:15:00 PM 10.71 51.278 0.288 7.51 1.58 10.1
11/2/2022 11:30:00 PM 10.63 51.134 0.289 7.51 1.61 10.08
11/2/2022 11:45:00 PM 10.54 50.972 0.289 7.5 1.56 10.1
11/3/2022 12:00:00 AM 10.46 50.828 0.288 7.5 1.79 10.15
11/3/2022 12:15:00 AM 10.38 50.684 0.288 7.5 1.58 10.19
11/3/2022 12:30:00 AM 10.29 50.522 0.289 7.5 1.52 10.17
11/3/2022 12:45:00 AM 10.22 50.396 0.289 7.5 1.59 10.23
11/3/2022 1:00:00 AM 10.14 50.252 0.288 7.49 1.61 10.24
11/3/2022 1:15:00 AM 10.06 50.108 0.288 7.49 1.51 10.24
11/3/2022 1:30:00 AM 9.98 49.964 0.288 7.48 1.58 10.3
11/3/2022 1:45:00 AM 9.91 49.838 0.288 7.48 1.65 10.31
11/3/2022 2:00:00 AM 9.84 49.712 0.288 7.48 1.53 10.32
11/3/2022 2:15:00 AM 9.77 49.586 0.288 7.48 1.71 10.34
11/3/2022 2:30:00 AM 9.7 49.46 0.288 7.48 1.56 10.38
11/3/2022 2:45:00 AM 9.64 49.352 0.288 7.48 1.58 10.41
11/3/2022 3:00:00 AM 9.58 49.244 0.288 7.47 1.63 10.44
11/3/2022 3:15:00 AM 9.51 49.118 0.288 7.47 1.54 10.45
11/3/2022 3:30:00 AM 9.45 49.01 0.287 7.47 1.49 10.45
11/3/2022 3:45:00 AM 9.39 48.902 0.287 7.47 1.61 10.49
11/3/2022 4:00:00 AM 9.33 48.794 0.287 7.46 1.5 10.5
11/3/2022 4:15:00 AM 9.28 48.704 0.287 7.46 1.48 10.52
11/3/2022 4:30:00 AM 9.23 48.614 0.287 7.46 1.54 10.54
11/3/2022 4:45:00 AM 9.18 48.524 0.286 7.46 1.57 10.54
11/3/2022 5:00:00 AM 9.12 48.416 0.286 7.46 1.48 10.54
11/3/2022 5:15:00 AM 9.06 48.308 0.286 7.45 1.54 10.55
11/3/2022 5:30:00 AM 9 48.2 0.286 7.45 1.59 10.59
11/3/2022 5:45:00 AM 8.95 48.11 0.286 7.45 1.58 10.61
11/3/2022 6:00:00 AM 8.89 48.002 0.286 7.45 1.6 10.59
11/3/2022 6:15:00 AM 8.84 47.912 0.286 7.45 1.52 10.66
11/3/2022 6:30:00 AM 8.79 47.822 0.286 7.45 1.57 10.67
11/3/2022 6:45:00 AM 8.74 47.732 0.286 7.45 1.62 10.69
11/3/2022 7:00:00 AM 8.69 47.642 0.285 7.45 1.62 10.67
11/3/2022 7:15:00 AM 8.64 47.552 0.285 7.45 1.8 10.7
11/3/2022 7:30:00 AM 8.6 47.48 0.285 7.45 1.6 10.71
11/3/2022 7:45:00 AM 8.55 47.39 0.285 7.45 2.08 10.74
11/3/2022 8:00:00 AM 8.5 47.3 0.285 7.45 2.12 10.82
11/3/2022 8:15:00 AM 8.47 47.246 0.284 7.46 1.9 10.93
11/3/2022 8:30:00 AM 8.44 47.192 0.285 7.47 1.71 11.04
11/3/2022 8:45:00 AM 8.41 47.138 0.285 7.48 1.7 11.13
11/3/2022 9:00:00 AM 8.4 47.12 0.284 7.49 1.78 11.23
11/3/2022 9:15:00 AM 8.39 47.102 0.285 7.51 1.79 11.33
11/3/2022 9:30:00 AM 8.4 47.12 0.284 7.53 1.72 11.46
11/3/2022 9:45:00 AM 8.43 47.174 0.284 7.55 1.65 11.57
11/3/2022 10:00:00 AM 8.47 47.246 0.283 7.57 1.7 11.71
11/3/2022 10:15:00 AM 8.53 47.354 0.283 7.61 1.66 11.84
11/3/2022 10:30:00 AM 8.62 47.516 0.283 7.64 2.15 11.98
11/3/2022 10:45:00 AM 8.73 47.714 0.283 7.68 1.65 12.09
11/3/2022 11:00:00 AM 8.84 47.912 0.282 7.72 1.71 12.2
11/3/2022 11:15:00 AM 8.97 48.146 0.282 7.76 1.67 12.29
11/3/2022 11:30:00 AM 9.09 48.362 0.282 7.8 1.68 12.34
11/3/2022 11:45:00 AM 9.24 48.632 0.282 7.85 1.72 12.41
11/3/2022 12:00:00 PM 9.4 48.92 0.282 7.89 1.63 12.45
11/3/2022 12:15:00 PM 9.58 49.244 0.282 7.94 1.81 12.46
11/3/2022 12:30:00 PM 9.74 49.532 0.281 7.98 1.73 12.48
11/3/2022 12:45:00 PM 9.92 49.856 0.281 8.02 1.68 12.48
11/3/2022 1:00:00 PM 10.12 50.216 0.281 8.07 1.75 12.51
11/3/2022 1:15:00 PM 10.32 50.576 0.281 8.13 1.67 12.53
11/3/2022 1:30:00 PM 10.5 50.9 0.281 8.17 1.7 12.52
11/3/2022 1:45:00 PM 10.63 51.134 0.281 8.21 1.66 12.47
11/3/2022 2:00:00 PM 10.76 51.368 0.281 8.24 1.67 12.42
11/3/2022 2:15:00 PM 10.87 51.566 0.281 8.27 1.67 12.37
11/3/2022 2:30:00 PM 10.96 51.728 0.281 8.28 1.86 12.29
11/3/2022 2:45:00 PM 10.99 51.782 0.281 8.28 1.68 12.2
11/3/2022 3:00:00 PM 11.01 51.818 0.282 8.28 1.9 12.11
11/3/2022 3:15:00 PM 11.03 51.854 0.282 8.25 1.74 12.02
11/3/2022 3:30:00 PM 11.04 51.872 0.282 8.24 1.95 11.92
11/3/2022 3:45:00 PM 11.06 51.908 0.282 8.22 1.82 11.82
11/3/2022 4:00:00 PM 11.08 51.944 0.282 8.2 2.06 11.75
11/3/2022 4:15:00 PM 11.1 51.98 0.281 8.16 2.1 11.65
11/3/2022 4:30:00 PM 11.12 52.016 0.281 8.14 2.03 11.54
11/3/2022 4:45:00 PM 11.15 52.07 0.281 8.11 2 11.44
11/3/2022 5:00:00 PM 11.15 52.07 0.281 8.07 2.06 11.3
11/3/2022 5:15:00 PM 11.16 52.088 0.281 8.02 2.1 11.16
11/3/2022 5:30:00 PM 11.16 52.088 0.282 7.97 2.07 11.01
11/3/2022 5:45:00 PM 11.16 52.088 0.282 7.92 2.08 10.84
11/3/2022 6:00:00 PM 11.15 52.07 0.282 7.88 2.03 10.7
11/3/2022 6:15:00 PM 11.14 52.052 0.283 7.82 2.15 10.54
11/3/2022 6:30:00 PM 11.13 52.034 0.283 7.79 2.02 10.44
11/3/2022 6:45:00 PM 11.1 51.98 0.284 7.75 1.9 10.33
11/3/2022 7:00:00 PM 11.07 51.926 0.284 7.72 2.33 10.24
11/3/2022 7:15:00 PM 11.05 51.89 0.284 7.7 1.73 10.19
11/3/2022 7:30:00 PM 11.01 51.818 0.285 7.68 2.02 10.14
11/3/2022 7:45:00 PM 10.97 51.746 0.285 7.66 1.99 10.1
11/3/2022 8:00:00 PM 10.94 51.692 0.285 7.65 2.25 10.07
11/3/2022 8:15:00 PM 10.88 51.584 0.286 7.63 2.23 10.05
11/3/2022 8:30:00 PM 10.83 51.494 0.286 7.62 2.26 10.03
11/3/2022 8:45:00 PM 10.79 51.422 0.286 7.61 2.1 10.06
11/3/2022 9:00:00 PM 10.73 51.314 0.286 7.6 2.25 10.06
11/3/2022 9:15:00 PM 10.67 51.206 0.286 7.59 2.19 10.06
11/3/2022 9:30:00 PM 10.61 51.098 0.286 7.58 1.99 10.08
11/3/2022 9:45:00 PM 10.54 50.972 0.286 7.57 2.2 10.08
11/3/2022 10:00:00 PM 10.49 50.882 0.286 7.57 2.32 10.13
11/3/2022 10:15:00 PM 10.41 50.738 0.286 7.56 2.23 10.14
11/3/2022 10:30:00 PM 10.35 50.63 0.287 7.55 2.79 10.15
11/3/2022 10:45:00 PM 10.29 50.522 0.287 7.55 2.25 10.19
11/3/2022 11:00:00 PM 10.22 50.396 0.287 7.55 1.75 10.21
11/3/2022 11:15:00 PM 10.15 50.27 0.287 7.54 1.7 10.23
11/3/2022 11:30:00 PM 10.08 50.144 0.287 7.54 1.78 10.23
11/3/2022 11:45:00 PM 10.01 50.018 0.287 7.53 1.63 10.23
11/4/2022 12:00:00 AM 9.95 49.91 0.287 7.53 1.85 10.28
11/4/2022 12:15:00 AM 9.87 49.766 0.288 7.53 1.65 10.28
11/4/2022 12:30:00 AM 9.8 49.64 0.288 7.53 1.64 10.33
11/4/2022 12:45:00 AM 9.72 49.496 0.288 7.52 1.89 10.31
11/4/2022 1:00:00 AM 9.66 49.388 0.288 7.52 1.68 10.35
11/4/2022 1:15:00 AM 9.59 49.262 0.288 7.52 1.73 10.38
11/4/2022 1:30:00 AM 9.51 49.118 0.288 7.51 1.69 10.39
11/4/2022 1:45:00 AM 9.44 48.992 0.288 7.51 1.65 10.42
11/4/2022 2:00:00 AM 9.37 48.866 0.288 7.51 1.86 10.43
11/4/2022 2:15:00 AM 9.31 48.758 0.288 7.51 1.98 10.5
11/4/2022 2:30:00 AM 9.24 48.632 0.289 7.5 1.96 10.5
11/4/2022 2:45:00 AM 9.18 48.524 0.288 7.5 2.04 10.53
11/4/2022 3:00:00 AM 9.11 48.398 0.288 7.5 1.94 10.53
11/4/2022 3:15:00 AM 9.05 48.29 0.288 7.5 2.03 10.57
11/4/2022 3:30:00 AM 8.99 48.182 0.289 7.5 1.87 10.6
11/4/2022 3:45:00 AM 8.93 48.074 0.289 7.49 1.84 10.59
11/4/2022 4:00:00 AM 8.87 47.966 0.289 7.49 1.9 10.6
11/4/2022 4:15:00 AM 8.81 47.858 0.288 7.49 1.93 10.64
11/4/2022 4:30:00 AM 8.76 47.768 0.289 7.49 1.82 10.68
11/4/2022 4:45:00 AM 8.7 47.66 0.288 7.48 1.87 10.67
11/4/2022 5:00:00 AM 8.65 47.57 0.288 7.48 2.13 10.71
11/4/2022 5:15:00 AM 8.6 47.48 0.288 7.48 1.93 10.7
11/4/2022 5:30:00 AM 8.56 47.408 0.288 7.48 2.02 10.73
11/4/2022 5:45:00 AM 8.51 47.318 0.287 7.48 1.87 10.73
11/4/2022 6:00:00 AM 8.46 47.228 0.287 7.48 1.98 10.76
11/4/2022 6:15:00 AM 8.42 47.156 0.287 7.48 1.93 10.78
11/4/2022 6:30:00 AM 8.38 47.084 0.287 7.48 1.81 10.8
11/4/2022 6:45:00 AM 8.34 47.012 0.287 7.47 1.89 10.81
11/4/2022 7:00:00 AM 8.3 46.94 0.287 7.47 1.9 10.82
11/4/2022 7:15:00 AM 8.26 46.868 0.287 7.47 1.88 10.83
11/4/2022 7:30:00 AM 8.22 46.796 0.287 7.47 1.82 10.83
11/4/2022 7:45:00 AM 8.2 46.76 0.287 7.47 1.78 10.9
11/4/2022 8:00:00 AM 8.17 46.706 0.287 7.48 1.79 10.97
11/4/2022 8:15:00 AM 8.15 46.67 0.287 7.49 1.71 11.08
11/4/2022 8:30:00 AM 8.16 46.688 0.286 7.52 1.76 11.26
11/4/2022 8:45:00 AM 8.17 46.706 0.286 7.54 1.85 11.46
11/4/2022 9:00:00 AM 8.19 46.742 0.286 7.57 1.71 11.61
11/4/2022 9:15:00 AM 8.21 46.778 0.286 7.61 1.73 11.8
11/4/2022 9:30:00 AM 8.26 46.868 0.286 7.64 1.65 11.97
11/4/2022 9:45:00 AM 8.31 46.958 0.285 7.68 1.72 12.14
11/4/2022 10:00:00 AM 8.36 47.048 0.285 7.72 1.76 12.27
11/4/2022 10:15:00 AM 8.43 47.174 0.285 7.77 1.73 12.38
11/4/2022 10:30:00 AM 8.53 47.354 0.284 7.8 1.67 12.49
11/4/2022 10:45:00 AM 8.66 47.588 0.284 7.86 1.76 12.59
11/4/2022 11:00:00 AM 8.81 47.858 0.284 7.92 1.73 12.69
11/4/2022 11:15:00 AM 8.96 48.128 0.284 7.97 1.75 12.75
11/4/2022 11:30:00 AM 9.12 48.416 0.283 8.01 1.67 12.76
11/4/2022 11:45:00 AM 9.29 48.722 0.283 8.07 1.77 12.83
11/4/2022 12:00:00 PM 9.45 49.01 0.283 8.12 1.63 12.82
11/4/2022 12:15:00 PM 9.63 49.334 0.283 8.18 1.67 12.84
11/4/2022 12:30:00 PM 9.83 49.694 0.283 8.24 1.68 12.86
11/4/2022 12:45:00 PM 9.97 49.946 0.283 8.28 1.72 12.85
11/4/2022 1:00:00 PM 10.18 50.324 0.282 8.36 1.61 12.95
11/4/2022 1:15:00 PM 10.41 50.738 0.282 8.43 1.61 12.99
11/4/2022 1:30:00 PM 10.56 51.008 0.282 8.49 1.63 12.96
11/4/2022 1:45:00 PM 10.72 51.296 0.282 8.53 1.7 12.94
11/4/2022 2:00:00 PM 10.9 51.62 0.282 8.58 1.68 12.9
11/4/2022 2:15:00 PM 11.03 51.854 0.282 8.6 1.65 12.82
11/4/2022 2:30:00 PM 11.14 52.052 0.282 8.62 1.7 12.73
11/4/2022 2:45:00 PM 11.24 52.232 0.282 8.64 1.64 12.65
11/4/2022 3:00:00 PM 11.34 52.412 0.282 8.66 1.65 12.58
11/4/2022 3:15:00 PM 11.4 52.52 0.283 8.65 1.82 12.44
11/4/2022 3:30:00 PM 11.45 52.61 0.283 8.65 1.85 12.32
11/4/2022 3:45:00 PM 11.49 52.682 0.283 8.64 1.6 12.19
11/4/2022 4:00:00 PM 11.51 52.718 0.284 8.61 1.65 12.06
11/4/2022 4:15:00 PM 11.55 52.79 0.283 8.59 1.51 11.99
11/4/2022 4:30:00 PM 11.59 52.862 0.284 8.56 1.55 11.86
11/4/2022 4:45:00 PM 11.62 52.916 0.284 8.54 1.76 11.78
11/4/2022 5:00:00 PM 11.65 52.97 0.284 8.48 1.55 11.61
11/4/2022 5:15:00 PM 11.66 52.988 0.284 8.41 1.51 11.41
11/4/2022 5:30:00 PM 11.66 52.988 0.284 8.32 1.71 11.21
11/4/2022 5:45:00 PM 11.66 52.988 0.284 8.22 1.76 10.97
11/4/2022 6:00:00 PM 11.64 52.952 0.285 8.12 1.81 10.75
11/4/2022 6:15:00 PM 11.64 52.952 0.285 8.03 1.85 10.55
11/4/2022 6:30:00 PM 11.64 52.952 0.285 7.96 1.99 10.41
11/4/2022 6:45:00 PM 11.63 52.934 0.285 7.91 1.83 10.25
11/4/2022 7:00:00 PM 11.63 52.934 0.285 7.86 1.86 10.14
11/4/2022 7:15:00 PM 11.63 52.934 0.285 7.82 1.95 10.06
11/4/2022 7:30:00 PM 11.63 52.934 0.286 7.78 1.8 10
11/4/2022 7:45:00 PM 11.62 52.916 0.286 7.75 1.96 9.96
11/4/2022 8:00:00 PM 11.62 52.916 0.286 7.73 2.28 9.91
11/4/2022 8:15:00 PM 11.6 52.88 0.286 7.7 1.75 9.83
11/4/2022 8:30:00 PM 11.58 52.844 0.286 7.68 2.05 9.81
11/4/2022 8:45:00 PM 11.58 52.844 0.286 7.67 1.9 9.82
11/4/2022 9:00:00 PM 11.55 52.79 0.286 7.65 2.28 9.78
11/4/2022 9:15:00 PM 11.53 52.754 0.287 7.64 2.26 9.8
11/4/2022 9:30:00 PM 11.5 52.7 0.287 7.63 2.09 9.82
11/4/2022 9:45:00 PM 11.46 52.628 0.287 7.61 2.05 9.8
11/4/2022 10:00:00 PM 11.44 52.592 0.287 7.6 2.05 9.79
11/4/2022 10:15:00 PM 11.45 52.61 0.287 7.6 2.11 9.8
11/4/2022 10:30:00 PM 11.46 52.628 0.287 7.59 2.02 9.81
11/4/2022 10:45:00 PM 11.47 52.646 0.288 7.58 2.01 9.8
11/4/2022 11:00:00 PM 11.47 52.646 0.288 7.58 1.93 9.79
11/4/2022 11:15:00 PM 11.46 52.628 0.288 7.57 1.98 9.78
11/4/2022 11:30:00 PM 11.47 52.646 0.288 7.56 1.92 9.79
11/4/2022 11:45:00 PM 11.48 52.664 0.289 7.56 1.92 9.79
11/5/2022 12:00:00 AM 11.49 52.682 0.288 7.56 1.97 9.82
11/5/2022 12:15:00 AM 11.46 52.628 0.289 7.55 2.04 9.8
11/5/2022 12:30:00 AM 11.45 52.61 0.288 7.55 1.89 9.83
11/5/2022 12:45:00 AM 11.42 52.556 0.289 7.54 1.92 9.83
11/5/2022 1:00:00 AM 11.39 52.502 0.289 7.53 2.08 9.83
11/5/2022 1:15:00 AM 11.35 52.43 0.289 7.53 1.9 9.8
11/5/2022 1:30:00 AM 11.31 52.358 0.289 7.52 2.05 9.84
11/5/2022 1:45:00 AM 11.28 52.304 0.289 7.52 1.97 9.84
11/5/2022 2:00:00 AM 11.25 52.25 0.289 7.52 1.93 9.86
11/5/2022 2:15:00 AM 11.21 52.178 0.29 7.51 1.87 9.85
11/5/2022 2:30:00 AM 11.17 52.106 0.29 7.51 1.96 9.88
11/5/2022 2:45:00 AM 11.15 52.07 0.29 7.51 1.94 9.87
11/5/2022 3:00:00 AM 11.15 52.07 0.29 7.51 1.98 9.9
11/5/2022 3:15:00 AM 11.16 52.088 0.29 7.51 2.01 9.92
11/5/2022 3:30:00 AM 11.14 52.052 0.29 7.51 1.96 9.93
11/5/2022 3:45:00 AM 11.13 52.034 0.29 7.51 1.94 9.92
11/5/2022 4:00:00 AM 11.12 52.016 0.29 7.51 2.03 9.92
11/5/2022 4:15:00 AM 11.1 51.98 0.29 7.51 1.76 9.92
11/5/2022 4:30:00 AM 11.1 51.98 0.29 7.51 1.82 9.92
11/5/2022 4:45:00 AM 11.09 51.962 0.29 7.51 1.78 9.91
11/5/2022 5:00:00 AM 11.09 51.962 0.29 7.5 1.77 9.91
11/5/2022 5:15:00 AM 11.08 51.944 0.29 7.5 1.62 9.9
11/5/2022 5:30:00 AM 11.05 51.89 0.29 7.5 1.55 9.92
11/5/2022 5:45:00 AM 11.04 51.872 0.29 7.49 1.65 9.92
11/5/2022 6:00:00 AM 11.04 51.872 0.29 7.49 1.6 9.91
11/5/2022 6:15:00 AM 11.04 51.872 0.29 7.49 1.6 9.93
11/5/2022 6:30:00 AM 11.06 51.908 0.289 7.49 1.63 9.91
11/5/2022 6:45:00 AM 11.08 51.944 0.289 7.49 1.61 9.92
11/5/2022 7:00:00 AM 11.09 51.962 0.289 7.49 1.52 9.94
11/5/2022 7:15:00 AM 11.12 52.016 0.289 7.49 1.57 9.91
11/5/2022 7:30:00 AM 11.15 52.07 0.289 7.49 1.54 9.93
11/5/2022 7:45:00 AM 11.18 52.124 0.289 7.5 1.6 9.94
11/5/2022 8:00:00 AM 11.21 52.178 0.289 7.49 1.85 9.93
11/5/2022 8:15:00 AM 11.25 52.25 0.289 7.5 1.5 9.98
11/5/2022 8:30:00 AM 11.28 52.304 0.289 7.51 1.49 10
11/5/2022 8:45:00 AM 11.33 52.394 0.289 7.52 1.52 10.09
11/5/2022 9:00:00 AM 11.37 52.466 0.288 7.54 1.64 10.27
11/5/2022 9:15:00 AM 11.43 52.574 0.288 7.56 1.57 10.33
11/5/2022 9:30:00 AM 11.47 52.646 0.288 7.58 1.53 10.41
11/5/2022 9:45:00 AM 11.52 52.736 0.288 7.6 1.61 10.48
11/5/2022 10:00:00 AM 11.59 52.862 0.287 7.62 1.5 10.67
11/5/2022 10:15:00 AM 11.69 53.042 0.287 7.68 1.44 10.93
11/5/2022 10:30:00 AM 11.78 53.204 0.287 7.72 1.47 11.09
11/5/2022 10:45:00 AM 11.87 53.366 0.287 7.76 1.48 11.18
11/5/2022 11:00:00 AM 11.95 53.51 0.287 7.82 1.43 11.38
11/5/2022 11:15:00 AM 12.06 53.708 0.286 7.87 1.49 11.52
11/5/2022 11:30:00 AM 12.18 53.924 0.286 7.96 1.47 11.79
11/5/2022 11:45:00 AM 12.33 54.194 0.286 8.05 1.45 11.97
11/5/2022 12:00:00 PM 12.42 54.356 0.285 8.12 1.48 11.99
11/5/2022 12:15:00 PM 12.48 54.464 0.285 8.15 1.47 11.95
11/5/2022 12:30:00 PM 12.58 54.644 0.285 8.19 1.47 11.94
11/5/2022 12:45:00 PM 12.71 54.878 0.284 8.25 1.48 12.08
11/5/2022 1:00:00 PM 12.84 55.112 0.286 8.32 1.43 12.15
11/5/2022 1:15:00 PM 12.97 55.346 0.286 8.41 1.43 12.27
11/5/2022 1:30:00 PM 13.11 55.598 0.287 8.48 1.43 12.32
11/5/2022 1:45:00 PM 13.19 55.742 0.286 8.52 1.37 12.29
11/5/2022 2:00:00 PM 13.28 55.904 0.287 8.59 1.42 12.29
11/5/2022 2:15:00 PM 13.33 55.994 0.287 8.58 1.4 12.04
11/5/2022 2:30:00 PM 13.4 56.12 0.286 8.57 1.47 11.89
11/5/2022 2:45:00 PM 13.44 56.192 0.287 8.57 1.45 11.75
11/5/2022 3:00:00 PM 13.48 56.264 0.287 8.54 1.48 11.55
11/5/2022 3:15:00 PM 13.49 56.282 0.287 8.45 1.53 11.24
11/5/2022 3:30:00 PM 13.55 56.39 0.287 8.44 1.39 11.3
11/5/2022 3:45:00 PM 13.59 56.462 0.288 8.45 1.45 11.35
11/5/2022 4:00:00 PM 13.65 56.57 0.288 8.45 1.39 11.37
11/5/2022 4:15:00 PM 13.69 56.642 0.288 8.44 1.41 11.35
11/5/2022 4:30:00 PM 13.72 56.696 0.289 8.39 1.43 11.16
11/5/2022 4:45:00 PM 13.73 56.714 0.289 8.34 1.68 11
11/5/2022 5:00:00 PM 13.76 56.768 0.289 8.3 1.46 10.93
11/5/2022 5:15:00 PM 13.78 56.804 0.289 8.26 1.54 10.83
11/5/2022 5:30:00 PM 13.77 56.786 0.289 8.18 1.43 10.58
11/5/2022 5:45:00 PM 13.75 56.75 0.29 8.09 1.5 10.33
11/5/2022 6:00:00 PM 13.74 56.732 0.29 8.02 1.45 10.14
11/5/2022 6:15:00 PM 13.74 56.732 0.29 7.95 1.47 9.93
11/5/2022 6:30:00 PM 13.72 56.696 0.289 7.89 1.51 9.76
11/5/2022 6:45:00 PM 13.69 56.642 0.289 7.84 1.44 9.64
11/5/2022 7:00:00 PM 13.67 56.606 0.289 7.8 1.52 9.55
11/5/2022 7:15:00 PM 13.65 56.57 0.288 7.76 1.52 9.44
11/5/2022 7:30:00 PM 13.63 56.534 0.288 7.73 1.54 9.39
11/5/2022 7:45:00 PM 13.61 56.498 0.288 7.7 1.57 9.33
11/5/2022 8:00:00 PM 13.6 56.48 0.288 7.68 1.71 9.32
11/5/2022 8:15:00 PM 13.59 56.462 0.289 7.67 2.18 9.29
11/5/2022 8:30:00 PM 13.59 56.462 0.288 7.65 1.59 9.24
11/5/2022 8:45:00 PM 13.6 56.48 0.289 7.64 1.65 9.25
11/5/2022 9:00:00 PM 13.61 56.498 0.289 7.63 1.62 9.21
11/5/2022 9:15:00 PM 13.61 56.498 0.289 7.62 1.79 9.19
11/5/2022 9:30:00 PM 13.6 56.48 0.289 7.6 1.55 9.17
11/5/2022 9:45:00 PM 13.6 56.48 0.289 7.6 1.51 9.16
11/5/2022 10:00:00 PM 13.61 56.498 0.289 7.59 1.63 9.18
11/5/2022 10:15:00 PM 13.62 56.516 0.289 7.58 1.67 9.17
11/5/2022 10:30:00 PM 13.61 56.498 0.289 7.58 1.6 9.16
11/5/2022 10:45:00 PM 13.61 56.498 0.289 7.57 1.58 9.14
11/5/2022 11:00:00 PM 13.61 56.498 0.289 7.56 1.63 9.12
11/5/2022 11:15:00 PM 13.61 56.498 0.289 7.56 1.6 9.15
11/5/2022 11:30:00 PM 13.62 56.516 0.289 7.56 1.6 9.18
11/5/2022 11:45:00 PM 13.63 56.534 0.289 7.55 1.69 9.14
11/6/2022 12:00:00 AM 13.64 56.552 0.289 7.55 1.63 9.14
11/6/2022 12:15:00 AM 13.65 56.57 0.29 7.54 1.53 9.15
11/6/2022 12:30:00 AM 13.65 56.57 0.289 7.54 1.62 9.15
11/6/2022 12:45:00 AM 13.65 56.57 0.29 7.54 1.64 9.14
11/6/2022 1:00:00 AM 13.66 56.588 0.29 7.54 1.66 9.12
11/6/2022 1:15:00 AM 13.67 56.606 0.29 7.53 1.6 9.13
11/6/2022 1:30:00 AM 13.67 56.606 0.291 7.53 8.63 9.14
11/6/2022 1:45:00 AM 13.67 56.606 0.291 7.53 1.62 9.16
11/6/2022 2:00:00 AM 13.66 56.588 0.291 7.53 1.5 9.13
11/6/2022 2:15:00 AM 13.64 56.552 0.291 7.53 1.63 9.15
11/6/2022 2:30:00 AM 13.63 56.534 0.291 7.53 1.49 9.16
11/6/2022 2:45:00 AM 13.62 56.516 0.29 7.52 1.56 9.18
11/6/2022 3:00:00 AM 13.59 56.462 0.29 7.52 1.56 9.13
11/6/2022 3:15:00 AM 13.58 56.444 0.29 7.52 1.56 9.15
11/6/2022 3:30:00 AM 13.56 56.408 0.29 7.51 1.57 9.12
11/6/2022 3:45:00 AM 13.56 56.408 0.29 7.51 1.91 9.18
11/6/2022 4:00:00 AM 13.56 56.408 0.29 7.51 1.5 9.19
11/6/2022 4:15:00 AM 13.56 56.408 0.29 7.51 1.53 9.18
11/6/2022 4:30:00 AM 13.56 56.408 0.29 7.51 1.54 9.18
11/6/2022 4:45:00 AM 13.57 56.426 0.29 7.51 1.64 9.14
11/6/2022 5:00:00 AM 13.59 56.462 0.291 7.51 1.52 9.14
11/6/2022 5:15:00 AM 13.61 56.498 0.29 7.51 1.53 9.13
11/6/2022 5:30:00 AM 13.63 56.534 0.29 7.51 1.51 9.15
11/6/2022 5:45:00 AM 13.65 56.57 0.289 7.51 1.54 9.16
11/6/2022 6:00:00 AM 13.66 56.588 0.289 7.5 3.17 9.16
11/6/2022 6:15:00 AM 13.69 56.642 0.288 7.5 2.09 9.12
11/6/2022 6:30:00 AM 13.71 56.678 0.288 7.5 1.66 9.11
11/6/2022 6:45:00 AM 13.73 56.714 0.288 7.5 1.55 9.12
11/6/2022 7:00:00 AM 13.74 56.732 0.288 7.5 1.55 9.15
11/6/2022 7:15:00 AM 13.76 56.768 0.287 7.5 1.64 9.16
11/6/2022 7:30:00 AM 13.78 56.804 0.287 7.5 1.58 9.1
11/6/2022 7:45:00 AM 13.78 56.804 0.287 7.5 1.63 9.12
11/6/2022 8:00:00 AM 13.8 56.84 0.287 7.51 1.57 9.15
11/6/2022 8:15:00 AM 13.83 56.894 0.287 7.52 1.72 9.19
11/6/2022 8:30:00 AM 13.85 56.93 0.287 7.53 1.68 9.38
11/6/2022 8:45:00 AM 13.87 56.966 0.287 7.55 1.81 9.43
11/6/2022 9:00:00 AM 13.88 56.984 0.287 7.55 1.88 9.39
11/6/2022 9:15:00 AM 13.88 56.984 0.287 7.56 1.75 9.5
11/6/2022 9:30:00 AM 13.91 57.038 0.287 7.58 1.66 9.63
11/6/2022 9:45:00 AM 13.93 57.074 0.287 7.6 1.63 9.75
11/6/2022 10:00:00 AM 13.96 57.128 0.287 7.62 1.67 9.83
11/6/2022 10:15:00 AM 13.99 57.182 0.287 7.63 1.56 9.92
11/6/2022 10:30:00 AM 14.05 57.29 0.287 7.68 1.57 10.19
11/6/2022 10:45:00 AM 14.12 57.416 0.287 7.75 1.56 10.57
11/6/2022 11:00:00 AM 14.2 57.56 0.287 7.8 1.52 10.68
11/6/2022 11:15:00 AM 14.27 57.686 0.286 7.86 1.62 10.93
11/6/2022 11:30:00 AM 14.36 57.848 0.286 7.95 1.53 11.26
11/6/2022 11:45:00 AM 14.46 58.028 0.285 8.06 1.6 11.51
11/6/2022 12:00:00 PM 14.58 58.244 0.285 8.18 1.48 11.81
11/6/2022 12:15:00 PM 15.01 59.018 0.284 8.57 1.51 12.11
11/6/2022 12:30:00 PM 15.08 59.144 0.283 8.65 1.57 12.12
11/6/2022 12:45:00 PM 15.11 59.198 0.284 8.66 1.56 11.91
11/6/2022 1:00:00 PM 15.22 59.396 0.283 8.71 1.58 12.02
11/6/2022 1:15:00 PM 15.27 59.486 0.284 8.75 1.55 11.98
11/6/2022 1:30:00 PM 15.31 59.558 0.283 8.77 1.55 11.86
11/6/2022 1:45:00 PM 15.41 59.738 0.283 8.8 1.71 11.96
11/6/2022 2:00:00 PM 15.5 59.9 0.283 8.85 1.57 11.91
11/6/2022 2:15:00 PM 15.58 60.044 0.283 8.86 1.59 11.94
11/6/2022 2:30:00 PM 15.69 60.242 0.283 8.91 1.58 11.95
11/6/2022 2:45:00 PM 15.71 60.278 0.283 8.91 1.56 11.75
11/6/2022 3:00:00 PM 15.72 60.296 0.283 8.91 1.52 11.56
11/6/2022 3:15:00 PM 15.74 60.332 0.283 8.9 1.55 11.45
11/6/2022 3:30:00 PM 15.72 60.296 0.284 8.85 1.62 11.13
11/6/2022 3:45:00 PM 15.71 60.278 0.284 8.81 1.59 10.97
11/6/2022 4:00:00 PM 15.68 60.224 0.285 8.72 1.56 10.65
11/6/2022 4:15:00 PM 15.67 60.206 0.286 8.65 1.62 10.49
11/6/2022 4:30:00 PM 15.65 60.17 0.287 8.55 1.61 10.35
11/6/2022 4:45:00 PM 15.6 60.08 0.288 8.41 1.54 9.99
11/6/2022 5:00:00 PM 15.57 60.026 0.289 8.27 1.66 9.72
11/6/2022 5:15:00 PM 15.55 59.99 0.289 8.16 1.65 9.52
11/6/2022 5:30:00 PM 15.51 59.918 0.29 8.05 1.92 9.34
11/6/2022 5:45:00 PM 15.47 59.846 0.29 7.97 1.62 9.19
11/6/2022 6:00:00 PM 15.44 59.792 0.291 7.91 1.7 9.1
11/6/2022 6:15:00 PM 15.41 59.738 0.291 7.85 1.7 9.01
11/6/2022 6:30:00 PM 15.39 59.702 0.291 7.81 1.71 8.88
11/6/2022 6:45:00 PM 15.37 59.666 0.292 7.77 1.7 8.88
11/6/2022 7:00:00 PM 15.35 59.63 0.292 7.74 1.82 8.84
11/6/2022 7:15:00 PM 15.34 59.612 0.291 7.72 1.78 8.77
11/6/2022 7:30:00 PM 15.31 59.558 0.292 7.69 1.71 8.75
11/6/2022 7:45:00 PM 15.29 59.522 0.292 7.67 1.76 8.7
11/6/2022 8:00:00 PM 15.27 59.486 0.292 7.65 1.8 8.76
11/6/2022 8:15:00 PM 15.26 59.468 0.292 7.63 1.72 8.68
11/6/2022 8:30:00 PM 15.25 59.45 0.293 7.62 1.93 8.67
11/6/2022 8:45:00 PM 15.24 59.432 0.292 7.61 1.83 8.66
11/6/2022 9:00:00 PM 15.21 59.378 0.293 7.6 1.76 8.66
11/6/2022 9:15:00 PM 15.19 59.342 0.293 7.59 2.09 8.7
11/6/2022 9:30:00 PM 15.18 59.324 0.293 7.58 1.86 8.71
11/6/2022 9:45:00 PM 15.15 59.27 0.293 7.57 1.83 8.72
11/6/2022 10:00:00 PM 15.14 59.252 0.294 7.56 2.02 8.66
11/6/2022 10:15:00 PM 15.12 59.216 0.294 7.56 1.76 8.7
11/6/2022 10:30:00 PM 15.09 59.162 0.294 7.55 1.78 8.64
11/6/2022 10:45:00 PM 15.05 59.09 0.294 7.55 1.71 8.68
11/6/2022 11:00:00 PM 15.04 59.072 0.294 7.54 1.75 8.66
11/6/2022 11:15:00 PM 15.02 59.036 0.294 7.54 1.82 8.68
11/6/2022 11:30:00 PM 15 59 0.294 7.53 1.84 8.71
11/6/2022 11:45:00 PM 14.97 58.946 0.294 7.53 1.83 8.71
11/7/2022 12:00:00 AM 14.94 58.892 0.294 7.52 1.81 8.71
11/7/2022 12:15:00 AM 14.92 58.856 0.295 7.52 1.97 8.72
11/7/2022 12:30:00 AM 14.92 58.856 0.294 7.52 1.82 8.67
11/7/2022 12:45:00 AM 14.89 58.802 0.295 7.51 1.89 8.7
11/7/2022 1:00:00 AM 14.87 58.766 0.295 7.51 1.92 8.71
11/7/2022 1:15:00 AM 14.85 58.73 0.295 7.51 1.93 8.76
11/7/2022 1:30:00 AM 14.83 58.694 0.294 7.51 1.99 8.8
11/7/2022 1:45:00 AM 14.81 58.658 0.295 7.5 1.85 8.73
11/7/2022 2:00:00 AM 14.77 58.586 0.295 7.49 1.9 8.77
11/7/2022 2:15:00 AM 14.76 58.568 0.295 7.49 1.95 8.78
11/7/2022 2:30:00 AM 14.74 58.532 0.295 7.48 2.03 8.76
11/7/2022 2:45:00 AM 14.72 58.496 0.295 7.49 1.93 8.82
11/7/2022 3:00:00 AM 14.7 58.46 0.295 7.48 2.21 8.82
11/7/2022 3:15:00 AM 14.67 58.406 0.295 7.48 1.96 8.82
11/7/2022 3:30:00 AM 14.62 58.316 0.295 7.47 2.01 8.85
11/7/2022 3:45:00 AM 14.59 58.262 0.295 7.47 1.92 8.83
11/7/2022 4:00:00 AM 14.56 58.208 0.295 7.47 2 8.83
11/7/2022 4:15:00 AM 14.52 58.136 0.295 7.46 1.96 8.81
11/7/2022 4:30:00 AM 14.47 58.046 0.295 7.47 1.98 8.86
11/7/2022 4:45:00 AM 14.43 57.974 0.295 7.46 1.9 8.83
11/7/2022 5:00:00 AM 14.38 57.884 0.294 7.45 1.95 8.84
11/7/2022 5:15:00 AM 14.34 57.812 0.294 7.45 1.98 8.89
11/7/2022 5:30:00 AM 14.29 57.722 0.294 7.44 1.99 8.89
11/7/2022 5:45:00 AM 14.23 57.614 0.294 7.44 2.03 8.9
11/7/2022 6:00:00 AM 14.19 57.542 0.293 7.44 2.1 8.89
11/7/2022 6:15:00 AM 14.14 57.452 0.293 7.44 2.06 8.9
11/7/2022 6:30:00 AM 14.09 57.362 0.293 7.44 2.13 8.88
11/7/2022 6:45:00 AM 14.05 57.29 0.293 7.44 1.98 8.94
11/7/2022 7:00:00 AM 13.99 57.182 0.292 7.45 2.15 9.05
11/7/2022 7:15:00 AM 13.96 57.128 0.292 7.46 2.07 9.16
11/7/2022 7:30:00 AM 13.9 57.02 0.292 7.47 2.03 9.25
11/7/2022 7:45:00 AM 13.86 56.948 0.292 7.49 2.11 9.38
11/7/2022 8:00:00 AM 13.82 56.876 0.292 7.5 2.05 9.51
11/7/2022 8:15:00 AM 13.79 56.822 0.292 7.52 2.1 9.63
11/7/2022 8:30:00 AM 13.77 56.786 0.292 7.54 2.06 9.74
11/7/2022 8:45:00 AM 13.76 56.768 0.292 7.57 1.97 9.92
11/7/2022 9:00:00 AM 13.75 56.75 0.292 7.61 2.16 10.12
11/7/2022 9:15:00 AM 13.78 56.804 0.291 7.65 2.01 10.35
11/7/2022 9:30:00 AM 13.78 56.804 0.291 7.7 1.98 10.52
11/7/2022 9:45:00 AM 13.84 56.912 0.291 7.77 2.07 10.8
11/7/2022 10:00:00 AM 13.86 56.948 0.291 7.84 1.99 11.02
11/7/2022 10:15:00 AM 13.91 57.038 0.29 7.91 2.04 11.21
11/7/2022 10:30:00 AM 13.95 57.11 0.29 7.97 1.94 11.35
11/7/2022 10:45:00 AM 14 57.2 0.29 8.06 2.05 11.5
11/7/2022 11:00:00 AM 14.08 57.344 0.29 8.13 2 11.63
11/7/2022 11:15:00 AM 14.12 57.416 0.29 8.21 2.01 11.73
11/7/2022 11:30:00 AM 14.17 57.506 0.289 8.27 2.04 11.75
11/7/2022 11:45:00 AM 14.24 57.632 0.289 8.35 1.91 11.87
11/7/2022 12:00:00 PM 14.32 57.776 0.288 8.41 1.88 11.9
11/7/2022 12:15:00 PM 14.44 57.992 0.288 8.5 1.83 11.95
11/7/2022 12:30:00 PM 14.5 58.1 0.288 8.55 1.83 11.95
11/7/2022 12:45:00 PM 14.56 58.208 0.288 8.6 1.95 11.93
11/7/2022 1:00:00 PM 14.66 58.388 0.288 8.64 1.95 11.94
11/7/2022 1:15:00 PM 14.67 58.406 0.287 8.69 1.86 11.87
11/7/2022 1:30:00 PM 14.66 58.388 0.288 8.7 1.82 11.78
11/7/2022 1:45:00 PM 14.64 58.352 0.287 8.72 1.93 11.73
11/7/2022 2:00:00 PM 14.58 58.244 0.288 8.7 2.1 11.59
11/7/2022 2:15:00 PM 14.5 58.1 0.288 8.69 1.86 11.46
11/7/2022 2:30:00 PM 14.42 57.956 0.288 8.67 1.9 11.35
11/7/2022 2:45:00 PM 14.32 57.776 0.289 8.65 1.86 11.24
11/7/2022 3:00:00 PM 14.26 57.668 0.289 8.61 1.9 11.18
11/7/2022 3:15:00 PM 14.18 57.524 0.289 8.57 1.83 11.09
11/7/2022 3:30:00 PM 14.1 57.38 0.29 8.53 1.9 10.95
11/7/2022 3:45:00 PM 14.02 57.236 0.29 8.47 1.91 10.85
11/7/2022 4:00:00 PM 13.95 57.11 0.29 8.41 1.84 10.74
11/7/2022 4:15:00 PM 13.87 56.966 0.291 8.33 1.85 10.58
11/7/2022 4:30:00 PM 13.77 56.786 0.291 8.24 2.13 10.39
11/7/2022 4:45:00 PM 13.68 56.624 0.292 8.15 1.73 10.2
11/7/2022 5:00:00 PM 13.61 56.498 0.292 8.06 1.79 10.05
11/7/2022 5:15:00 PM 13.52 56.336 0.292 7.98 1.88 9.87
11/7/2022 5:30:00 PM 13.44 56.192 0.293 7.92 1.89 9.75
11/7/2022 5:45:00 PM 13.35 56.03 0.293 7.86 1.92 9.62
11/7/2022 6:00:00 PM 13.27 55.886 0.293 7.82 2.05 9.57
11/7/2022 6:15:00 PM 13.19 55.742 0.293 7.78 1.95 9.49
11/7/2022 6:30:00 PM 13.1 55.58 0.293 7.75 1.92 9.46
11/7/2022 6:45:00 PM 13.02 55.436 0.294 7.72 1.93 9.42
11/7/2022 7:00:00 PM 12.91 55.238 0.294 7.7 1.94 9.41
11/7/2022 7:15:00 PM 12.82 55.076 0.294 7.67 2.06 9.37
11/7/2022 7:30:00 PM 12.76 54.968 0.294 7.66 1.95 9.42
11/7/2022 7:45:00 PM 12.71 54.878 0.294 7.65 2.04 9.42
11/7/2022 8:00:00 PM 12.61 54.698 0.294 7.63 1.98 9.37
11/7/2022 8:15:00 PM 12.54 54.572 0.294 7.62 1.96 9.44
11/7/2022 8:30:00 PM 12.45 54.41 0.294 7.61 1.97 9.44
11/7/2022 8:45:00 PM 12.36 54.248 0.294 7.6 2.03 9.44
11/7/2022 9:00:00 PM 12.28 54.104 0.295 7.59 1.9 9.49
11/7/2022 9:15:00 PM 12.18 53.924 0.295 7.58 2.05 9.5
11/7/2022 9:30:00 PM 12.1 53.78 0.295 7.57 2.01 9.53
11/7/2022 9:45:00 PM 12.03 53.654 0.295 7.57 1.97 9.6
11/7/2022 10:00:00 PM 11.94 53.492 0.295 7.56 1.97 9.6
11/7/2022 10:15:00 PM 11.86 53.348 0.295 7.55 1.99 9.62
11/7/2022 10:30:00 PM 11.76 53.168 0.295 7.55 1.96 9.62
11/7/2022 10:45:00 PM 11.68 53.024 0.295 7.54 1.98 9.65
11/7/2022 11:00:00 PM 11.57 52.826 0.295 7.53 1.99 9.69
11/7/2022 11:15:00 PM 11.46 52.628 0.295 7.54 2.03 9.73
11/7/2022 11:30:00 PM 11.38 52.484 0.295 7.53 2.08 9.77
11/7/2022 11:45:00 PM 11.29 52.322 0.295 7.53 2.18 9.81
11/8/2022 12:00:00 AM 11.19 52.142 0.295 7.52 2.1 9.83
11/8/2022 12:15:00 AM 11.09 51.962 0.295 7.52 2.08 9.85
11/8/2022 12:30:00 AM 11 51.8 0.294 7.51 2.04 9.87
11/8/2022 12:45:00 AM 10.91 51.638 0.294 7.51 2.19 9.92
11/8/2022 1:00:00 AM 10.82 51.476 0.294 7.51 2.07 9.95
11/8/2022 1:15:00 AM 10.73 51.314 0.294 7.5 2.82 9.96
11/8/2022 1:30:00 AM 10.65 51.17 0.294 7.5 2.07 10
11/8/2022 1:45:00 AM 10.56 51.008 0.294 7.5 2.05 10.03
11/8/2022 2:00:00 AM 10.47 50.846 0.294 7.5 2.18 10.04
11/8/2022 2:15:00 AM 10.39 50.702 0.294 7.49 2.07 10.07
11/8/2022 2:30:00 AM 10.3 50.54 0.294 7.49 2.03 10.12
11/8/2022 2:45:00 AM 10.23 50.414 0.294 7.49 2.21 10.16
11/8/2022 3:00:00 AM 10.13 50.234 0.294 7.49 2.07 10.18
11/8/2022 3:15:00 AM 10.03 50.054 0.294 7.48 2.03 10.21
11/8/2022 3:30:00 AM 9.95 49.91 0.294 7.48 2.25 10.21
11/8/2022 3:45:00 AM 9.87 49.766 0.294 7.48 2.21 10.26
11/8/2022 4:00:00 AM 9.78 49.604 0.294 7.48 2.34 10.27
11/8/2022 4:15:00 AM 9.69 49.442 0.294 7.48 2.26 10.31
11/8/2022 4:30:00 AM 9.61 49.298 0.295 7.48 2.64 10.32
11/8/2022 4:45:00 AM 9.54 49.172 0.295 7.48 1.87 10.35
11/8/2022 5:00:00 AM 9.45 49.01 0.294 7.48 1.85 10.38
11/8/2022 5:15:00 AM 9.37 48.866 0.294 7.48 1.74 10.43
11/8/2022 5:30:00 AM 9.3 48.74 0.294 7.48 2.01 10.45
11/8/2022 5:45:00 AM 9.22 48.596 0.294 7.48 1.86 10.49
11/8/2022 6:00:00 AM 9.15 48.47 0.294 7.47 1.95 10.5
11/8/2022 6:15:00 AM 9.08 48.344 0.294 7.48 2.17 10.53
11/8/2022 6:30:00 AM 9.01 48.218 0.294 7.47 1.91 10.56
11/8/2022 6:45:00 AM 8.94 48.092 0.294 7.48 1.86 10.61
11/8/2022 7:00:00 AM 8.87 47.966 0.294 7.48 1.85 10.67
11/8/2022 7:15:00 AM 8.82 47.876 0.294 7.49 1.81 10.8
11/8/2022 7:30:00 AM 8.76 47.768 0.294 7.51 1.8 10.95
11/8/2022 7:45:00 AM 8.71 47.678 0.293 7.52 1.84 11.06
11/8/2022 8:00:00 AM 8.67 47.606 0.293 7.55 1.76 11.23
11/8/2022 8:15:00 AM 8.64 47.552 0.293 7.57 1.88 11.38
11/8/2022 8:30:00 AM 8.63 47.534 0.293 7.6 1.74 11.54
11/8/2022 8:45:00 AM 8.63 47.534 0.292 7.63 1.78 11.74
11/8/2022 9:00:00 AM 8.67 47.606 0.292 7.69 1.86 12.02
11/8/2022 9:15:00 AM 8.69 47.642 0.292 7.74 1.77 12.23
11/8/2022 9:30:00 AM 8.69 47.642 0.291 7.78 1.79 12.33
11/8/2022 9:45:00 AM 8.74 47.732 0.291 7.84 1.8 12.49
11/8/2022 10:00:00 AM 8.79 47.822 0.29 7.9 1.82 12.66
11/8/2022 10:15:00 AM 8.86 47.948 0.29 7.97 1.88 12.82
11/8/2022 10:30:00 AM 8.93 48.074 0.289 8.04 1.96 12.94
11/8/2022 10:45:00 AM 9 48.2 0.289 8.11 1.81 13.04
11/8/2022 11:00:00 AM 9.1 48.38 0.289 8.19 1.95 13.14
11/8/2022 11:15:00 AM 9.18 48.524 0.289 8.26 1.83 13.2
11/8/2022 11:30:00 AM 9.27 48.686 0.289 8.32 1.9 13.22
11/8/2022 11:45:00 AM 9.42 48.956 0.288 8.37 1.77 13.25
11/8/2022 12:00:00 PM 9.55 49.19 0.288 8.43 1.74 13.29
11/8/2022 12:15:00 PM 9.68 49.424 0.287 8.5 1.78 13.28
11/8/2022 12:30:00 PM 9.81 49.658 0.287 8.55 1.83 13.28
11/8/2022 12:45:00 PM 10.02 50.036 0.287 8.61 1.74 13.29
11/8/2022 1:00:00 PM 10.15 50.27 0.287 8.66 1.84 13.26
11/8/2022 1:15:00 PM 10.17 50.306 0.287 8.7 1.82 13.18
11/8/2022 1:30:00 PM 10.26 50.468 0.286 8.71 1.71 13.1
11/8/2022 1:45:00 PM 10.24 50.432 0.286 8.73 1.76 13.01
11/8/2022 2:00:00 PM 10.27 50.486 0.285 8.73 1.82 12.93
11/8/2022 2:15:00 PM 10.24 50.432 0.285 8.74 1.73 12.84
11/8/2022 2:30:00 PM 10.19 50.342 0.285 8.72 1.73 12.77
11/8/2022 2:45:00 PM 10.12 50.216 0.285 8.7 1.72 12.6
11/8/2022 3:00:00 PM 10.08 50.144 0.285 8.68 1.82 12.54
11/8/2022 3:15:00 PM 10 50 0.286 8.65 1.69 12.45
11/8/2022 3:30:00 PM 9.98 49.964 0.286 8.62 2 12.38
11/8/2022 3:45:00 PM 9.93 49.874 0.286 8.58 1.83 12.25
11/8/2022 4:00:00 PM 9.9 49.82 0.287 8.52 1.7 12.13
11/8/2022 4:15:00 PM 9.87 49.766 0.287 8.46 1.87 11.98
11/8/2022 4:30:00 PM 9.82 49.676 0.287 8.37 1.79 11.81
11/8/2022 4:45:00 PM 9.78 49.604 0.288 8.28 1.79 11.61
11/8/2022 5:00:00 PM 9.73 49.514 0.288 8.19 1.76 11.43
11/8/2022 5:15:00 PM 9.67 49.406 0.288 8.09 1.87 11.24
11/8/2022 5:30:00 PM 9.6 49.28 0.289 8.02 1.75 11.08
11/8/2022 5:45:00 PM 9.55 49.19 0.289 7.96 1.73 10.96
11/8/2022 6:00:00 PM 9.5 49.1 0.289 7.91 1.73 10.86
11/8/2022 6:15:00 PM 9.44 48.992 0.289 7.87 1.79 10.8
11/8/2022 6:30:00 PM 9.39 48.902 0.289 7.83 1.76 10.73
11/8/2022 6:45:00 PM 9.36 48.848 0.29 7.8 1.8 10.69
11/8/2022 7:00:00 PM 9.29 48.722 0.29 7.77 1.8 10.65
11/8/2022 7:15:00 PM 9.25 48.65 0.29 7.75 1.85 10.63
11/8/2022 7:30:00 PM 9.19 48.542 0.29 7.73 1.89 10.6
11/8/2022 7:45:00 PM 9.14 48.452 0.29 7.7 1.84 10.59
11/8/2022 8:00:00 PM 9.09 48.362 0.29 7.69 1.81 10.58
11/8/2022 8:15:00 PM 9.04 48.272 0.291 7.67 1.92 10.59
11/8/2022 8:30:00 PM 8.99 48.182 0.291 7.66 1.88 10.61
11/8/2022 8:45:00 PM 8.93 48.074 0.291 7.65 1.82 10.6
11/8/2022 9:00:00 PM 8.88 47.984 0.291 7.64 1.85 10.61
11/8/2022 9:15:00 PM 8.8 47.84 0.292 7.63 1.83 10.61
11/8/2022 9:30:00 PM 8.73 47.714 0.292 7.62 1.78 10.62
11/8/2022 9:45:00 PM 8.67 47.606 0.292 7.61 1.85 10.64
11/8/2022 10:00:00 PM 8.6 47.48 0.292 7.6 1.86 10.67
11/8/2022 10:15:00 PM 8.53 47.354 0.293 7.6 1.81 10.68
11/8/2022 10:30:00 PM 8.46 47.228 0.293 7.59 1.83 10.68
11/8/2022 10:45:00 PM 8.38 47.084 0.294 7.58 1.9 10.72
11/8/2022 11:00:00 PM 8.31 46.958 0.293 7.58 2.2 10.77
11/8/2022 11:15:00 PM 8.23 46.814 0.294 7.57 2.17 10.78
11/8/2022 11:30:00 PM 8.16 46.688 0.294 7.57 1.9 10.81
11/8/2022 11:45:00 PM 8.08 46.544 0.294 7.56 1.83 10.83
11/9/2022 12:00:00 AM 8.03 46.454 0.294 7.56 1.87 10.85
11/9/2022 12:15:00 AM 7.96 46.328 0.294 7.56 1.93 10.9
11/9/2022 12:30:00 AM 7.87 46.166 0.293 7.55 1.82 10.9
11/9/2022 12:45:00 AM 7.8 46.04 0.294 7.55 1.9 10.92
11/9/2022 1:00:00 AM 7.73 45.914 0.294 7.54 2.07 10.91
11/9/2022 1:15:00 AM 7.67 45.806 0.294 7.54 1.9 10.97
11/9/2022 1:30:00 AM 7.6 45.68 0.293 7.54 1.97 11.01
11/9/2022 1:45:00 AM 7.52 45.536 0.294 7.53 1.96 11.01
11/9/2022 2:00:00 AM 7.46 45.428 0.293 7.53 2.01 11.03
11/9/2022 2:15:00 AM 7.39 45.302 0.294 7.53 2.29 11.06
11/9/2022 2:30:00 AM 7.34 45.212 0.294 7.53 2.14 11.12
11/9/2022 2:45:00 AM 7.26 45.068 0.294 7.53 1.97 11.12
11/9/2022 3:00:00 AM 7.19 44.942 0.294 7.52 1.9 11.13
11/9/2022 3:15:00 AM 7.12 44.816 0.294 7.52 1.9 11.17
11/9/2022 3:30:00 AM 7.07 44.726 0.294 7.52 1.95 11.2
11/9/2022 3:45:00 AM 6.99 44.582 0.294 7.51 1.86 11.19
11/9/2022 4:00:00 AM 6.93 44.474 0.294 7.51 1.93 11.23
11/9/2022 4:15:00 AM 6.86 44.348 0.294 7.51 1.95 11.26
11/9/2022 4:30:00 AM 6.8 44.24 0.294 7.51 1.87 11.28
11/9/2022 4:45:00 AM 6.74 44.132 0.294 7.51 2.05 11.31
11/9/2022 5:00:00 AM 6.69 44.042 0.294 7.51 2.05 11.32
11/9/2022 5:15:00 AM 6.61 43.898 0.293 7.51 1.92 11.33
11/9/2022 5:30:00 AM 6.56 43.808 0.294 7.51 1.97 11.35
11/9/2022 5:45:00 AM 6.5 43.7 0.294 7.51 1.93 11.4
11/9/2022 6:00:00 AM 6.43 43.574 0.294 7.5 2.07 11.39
11/9/2022 6:15:00 AM 6.38 43.484 0.293 7.51 2.01 11.42
11/9/2022 6:30:00 AM 6.33 43.394 0.294 7.5 2.54 11.45
11/9/2022 6:45:00 AM 6.28 43.304 0.293 7.51 1.98 11.5
11/9/2022 7:00:00 AM 6.23 43.214 0.293 7.51 2.01 11.57
11/9/2022 7:15:00 AM 6.18 43.124 0.294 7.52 1.98 11.68
11/9/2022 7:30:00 AM 6.14 43.052 0.294 7.53 2.04 11.78
11/9/2022 7:45:00 AM 6.1 42.98 0.293 7.55 1.9 11.93
11/9/2022 8:00:00 AM 6.08 42.944 0.293 7.57 1.97 12.08
11/9/2022 8:15:00 AM 6.05 42.89 0.293 7.59 1.89 12.21
11/9/2022 8:30:00 AM 6.05 42.89 0.293 7.62 1.94 12.37
11/9/2022 8:45:00 AM 6.04 42.872 0.292 7.64 1.97 12.5
11/9/2022 9:00:00 AM 6.06 42.908 0.292 7.68 2.06 12.68
11/9/2022 9:15:00 AM 6.09 42.962 0.291 7.72 1.95 12.85
11/9/2022 9:30:00 AM 6.15 43.07 0.291 7.77 1.98 13.03
11/9/2022 9:45:00 AM 6.23 43.214 0.291 7.83 1.98 13.23
11/9/2022 10:00:00 AM 6.34 43.412 0.29 7.9 2 13.42
11/9/2022 10:15:00 AM 6.43 43.574 0.29 7.96 2.1 13.56
11/9/2022 10:30:00 AM 6.55 43.79 0.29 8.03 2.09 13.67
11/9/2022 10:45:00 AM 6.71 44.078 0.29 8.11 2 13.81
11/9/2022 11:00:00 AM 6.81 44.258 0.293 8.18 1.99 13.88
11/9/2022 11:15:00 AM 6.94 44.492 0.296 8.24 2.12 13.93
11/9/2022 11:30:00 AM 7.08 44.744 0.296 8.31 1.91 13.97
11/9/2022 11:45:00 AM 7.22 44.996 0.289 8.38 1.91 14
11/9/2022 12:00:00 PM 7.38 45.284 0.288 8.45 1.94 14.03
11/9/2022 12:15:00 PM 7.55 45.59 0.288 8.5 1.88 14.02
11/9/2022 12:30:00 PM 7.74 45.932 0.287 8.56 1.94 14.01
11/9/2022 12:45:00 PM 7.89 46.202 0.287 8.61 1.95 13.96
11/9/2022 1:00:00 PM 8.09 46.562 0.287 8.66 1.98 13.91
11/9/2022 1:15:00 PM 8.21 46.778 0.286 8.7 2.19 13.86
11/9/2022 1:30:00 PM 8.31 46.958 0.295 8.72 2.07 13.77
11/9/2022 1:45:00 PM 8.38 47.084 0.295 8.75 2.16 13.71
11/9/2022 2:00:00 PM 8.43 47.174 0.295 8.76 1.95 13.63
11/9/2022 2:15:00 PM 8.45 47.21 0.294 8.77 2.06 13.54
11/9/2022 2:30:00 PM 8.45 47.21 0.288 8.76 2.02 13.42
11/9/2022 2:45:00 PM 8.46 47.228 0.286 8.76 2.05 13.38
11/9/2022 3:00:00 PM 8.46 47.228 0.286 8.77 1.97 13.34
11/9/2022 3:15:00 PM 8.48 47.264 0.286 8.78 2.23 13.37
11/9/2022 3:30:00 PM 8.45 47.21 0.286 8.77 2.11 13.23
11/9/2022 3:45:00 PM 8.41 47.138 0.287 8.72 1.97 13.01
11/9/2022 4:00:00 PM 8.38 47.084 0.287 8.66 1.94 12.8
11/9/2022 4:15:00 PM 8.36 47.048 0.288 8.58 1.94 12.62
11/9/2022 4:30:00 PM 8.34 47.012 0.288 8.5 1.97 12.41
11/9/2022 4:45:00 PM 8.31 46.958 0.289 8.4 2.01 12.21
11/9/2022 5:00:00 PM 8.28 46.904 0.289 8.29 2.04 11.98
11/9/2022 5:15:00 PM 8.26 46.868 0.289 8.19 2.01 11.78
11/9/2022 5:30:00 PM 8.22 46.796 0.29 8.1 1.99 11.59
11/9/2022 5:45:00 PM 8.19 46.742 0.29 8.03 2.1 11.43
11/9/2022 6:00:00 PM 8.17 46.706 0.29 7.97 2 11.33
11/9/2022 6:15:00 PM 8.13 46.634 0.291 7.92 2.08 11.22
11/9/2022 6:30:00 PM 8.11 46.598 0.291 7.88 2.03 11.15
11/9/2022 6:45:00 PM 8.07 46.526 0.291 7.85 2.14 11.1
11/9/2022 7:00:00 PM 8.04 46.472 0.291 7.82 2.23 11.04
11/9/2022 7:15:00 PM 8 46.4 0.291 7.79 2.12 11
11/9/2022 7:30:00 PM 7.97 46.346 0.291 7.77 1.99 10.97
11/9/2022 7:45:00 PM 7.94 46.292 0.292 7.75 2.17 10.94
11/9/2022 8:00:00 PM 7.93 46.274 0.292 7.73 2.07 10.91
11/9/2022 8:15:00 PM 7.9 46.22 0.292 7.72 2.03 10.92
11/9/2022 8:30:00 PM 7.88 46.184 0.292 7.7 2.07 10.91
11/9/2022 8:45:00 PM 7.88 46.184 0.292 7.69 1.95 10.9
11/9/2022 9:00:00 PM 7.84 46.112 0.292 7.67 2.15 10.89
11/9/2022 9:15:00 PM 7.81 46.058 0.292 7.66 2.23 10.89
11/9/2022 9:30:00 PM 7.8 46.04 0.292 7.65 1.99 10.88
11/9/2022 9:45:00 PM 7.76 45.968 0.292 7.65 2.08 10.88
11/9/2022 10:00:00 PM 7.72 45.896 0.292 7.63 2.05 10.89
11/9/2022 10:15:00 PM 7.69 45.842 0.292 7.63 2.01 10.91
11/9/2022 10:30:00 PM 7.65 45.77 0.292 7.62 2.07 10.92
11/9/2022 10:45:00 PM 7.62 45.716 0.293 7.62 2.23 10.96
11/9/2022 11:00:00 PM 7.58 45.644 0.293 7.61 2.09 10.94
11/9/2022 11:15:00 PM 7.54 45.572 0.293 7.6 2.11 10.96
11/9/2022 11:30:00 PM 7.51 45.518 0.293 7.6 2.01 10.97
11/9/2022 11:45:00 PM 7.47 45.446 0.293 7.59 2.13 10.98
11/10/2022 12:00:00 AM 7.42 45.356 0.293 7.59 2.01 11
11/10/2022 12:15:00 AM 7.37 45.266 0.293 7.59 2 11.02
11/10/2022 12:30:00 AM 7.33 45.194 0.293 7.58 2.16 11.01
11/10/2022 12:45:00 AM 7.27 45.086 0.293 7.57 2.07 11.01
11/10/2022 1:00:00 AM 7.24 45.032 0.293 7.57 2.07 11.04
11/10/2022 1:15:00 AM 7.22 44.996 0.293 7.57 2.03 11.07
11/10/2022 1:30:00 AM 7.14 44.852 0.293 7.56 2.15 11.06
11/10/2022 1:45:00 AM 7.1 44.78 0.293 7.56 2.08 11.08
11/10/2022 2:00:00 AM 7.07 44.726 0.293 7.56 2.08 11.11
11/10/2022 2:15:00 AM 7 44.6 0.293 7.56 2.25 11.11
11/10/2022 2:30:00 AM 6.96 44.528 0.293 7.55 2.17 11.12
11/10/2022 2:45:00 AM 6.91 44.438 0.293 7.55 2.2 11.12
11/10/2022 3:00:00 AM 6.86 44.348 0.294 7.54 2.24 11.13
11/10/2022 3:15:00 AM 6.83 44.294 0.294 7.54 2.19 11.15
11/10/2022 3:30:00 AM 6.78 44.204 0.294 7.54 2.04 11.18
11/10/2022 3:45:00 AM 6.74 44.132 0.294 7.54 2.04 11.2
11/10/2022 4:00:00 AM 6.7 44.06 0.294 7.53 2.15 11.21
11/10/2022 4:15:00 AM 6.65 43.97 0.294 7.53 2.1 11.23
11/10/2022 4:30:00 AM 6.63 43.934 0.295 7.53 2.11 11.26
11/10/2022 4:45:00 AM 6.6 43.88 0.295 7.53 2.06 11.27
11/10/2022 5:00:00 AM 6.56 43.808 0.295 7.53 2.18 11.27
11/10/2022 5:15:00 AM 6.52 43.736 0.295 7.53 2.37 11.29
11/10/2022 5:30:00 AM 6.5 43.7 0.295 7.52 2.41 11.3
11/10/2022 5:45:00 AM 6.48 43.664 0.295 7.52 2.2 11.32
11/10/2022 6:00:00 AM 6.44 43.592 0.295 7.52 2.11 11.33
11/10/2022 6:15:00 AM 6.41 43.538 0.295 7.52 2.21 11.35
11/10/2022 6:30:00 AM 6.4 43.52 0.295 7.52 2.27 11.36
11/10/2022 6:45:00 AM 6.36 43.448 0.295 7.52 2.2 11.37
11/10/2022 7:00:00 AM 6.34 43.412 0.295 7.53 2.18 11.43
11/10/2022 7:15:00 AM 6.33 43.394 0.295 7.54 2.17 11.54
11/10/2022 7:30:00 AM 6.33 43.394 0.294 7.56 2.22 11.67
11/10/2022 7:45:00 AM 6.31 43.358 0.294 7.57 2.2 11.79
11/10/2022 8:00:00 AM 6.32 43.376 0.295 7.59 2.07 11.93
11/10/2022 8:15:00 AM 6.32 43.376 0.294 7.61 2.13 12.07
11/10/2022 8:30:00 AM 6.35 43.43 0.294 7.64 2.08 12.21
11/10/2022 8:45:00 AM 6.39 43.502 0.293 7.67 2.08 12.41
11/10/2022 9:00:00 AM 6.45 43.61 0.293